<?xml version="1.0" encoding="UTF-8" standalone="no" ?>
<gpx xmlns="http://www.topografix.com/GPX/1/1" xmlns:xsi="http://www.w3.org/2001/XMLSchema-instance" xsi:schemaLocation="http://www.topografix.com/GPX/1/1 http://www.topografix.com/GPX/1/1/gpx.xsd" version="1.1" creator="VisuGPX - https://www.visugpx.com">
  <metadata>
    <name>83-D-Les Arcs sur Argens</name>
    <desc><![CDATA[83-D-Les Arcs sur Argens : les menhirs des Terriers]]></desc>
  </metadata>
  <trk>
    <name><![CDATA[2018-12-02-D-Les Arcs-Forêt des Terriers]]></name>
    <trkseg>
      <trkpt lat="43.43542" lon="6.51088">
        <ele>45</ele>
        <time>2018-12-02T07:57:44Z</time>
      </trkpt>
      <trkpt lat="43.43551" lon="6.51082">
        <ele>43</ele>
        <time>2018-12-02T07:57:48Z</time>
      </trkpt>
      <trkpt lat="43.43534" lon="6.5108">
        <ele>39</ele>
        <time>2018-12-02T08:06:24Z</time>
      </trkpt>
      <trkpt lat="43.43525" lon="6.51075">
        <ele>39.3</ele>
        <time>2018-12-02T08:06:34Z</time>
      </trkpt>
      <trkpt lat="43.43516" lon="6.51075">
        <ele>40.1</ele>
        <time>2018-12-02T08:06:58Z</time>
      </trkpt>
      <trkpt lat="43.43507" lon="6.51072">
        <ele>40.5</ele>
        <time>2018-12-02T08:07:09Z</time>
      </trkpt>
      <trkpt lat="43.43497" lon="6.51072">
        <ele>41.1</ele>
        <time>2018-12-02T08:07:20Z</time>
      </trkpt>
      <trkpt lat="43.43488" lon="6.51069">
        <ele>41.4</ele>
        <time>2018-12-02T08:07:26Z</time>
      </trkpt>
      <trkpt lat="43.43479" lon="6.51071">
        <ele>41.8</ele>
        <time>2018-12-02T08:07:35Z</time>
      </trkpt>
      <trkpt lat="43.43471" lon="6.51064">
        <ele>42</ele>
        <time>2018-12-02T08:07:45Z</time>
      </trkpt>
      <trkpt lat="43.43463" lon="6.51059">
        <ele>42.1</ele>
        <time>2018-12-02T08:07:54Z</time>
      </trkpt>
      <trkpt lat="43.43454" lon="6.51055">
        <ele>42.2</ele>
        <time>2018-12-02T08:08:03Z</time>
      </trkpt>
      <trkpt lat="43.43444" lon="6.51055">
        <ele>42.2</ele>
        <time>2018-12-02T08:08:14Z</time>
      </trkpt>
      <trkpt lat="43.43435" lon="6.5105">
        <ele>42.2</ele>
        <time>2018-12-02T08:08:23Z</time>
      </trkpt>
      <trkpt lat="43.43426" lon="6.51047">
        <ele>42.1</ele>
        <time>2018-12-02T08:08:30Z</time>
      </trkpt>
      <trkpt lat="43.43416" lon="6.51046">
        <ele>42</ele>
        <time>2018-12-02T08:08:39Z</time>
      </trkpt>
      <trkpt lat="43.43408" lon="6.5104">
        <ele>41.8</ele>
        <time>2018-12-02T08:08:46Z</time>
      </trkpt>
      <trkpt lat="43.43399" lon="6.51033">
        <ele>41.5</ele>
        <time>2018-12-02T08:08:53Z</time>
      </trkpt>
      <trkpt lat="43.43389" lon="6.5103">
        <ele>41.4</ele>
        <time>2018-12-02T08:09:00Z</time>
      </trkpt>
      <trkpt lat="43.4338" lon="6.51031">
        <ele>41</ele>
        <time>2018-12-02T08:09:09Z</time>
      </trkpt>
      <trkpt lat="43.43371" lon="6.51026">
        <ele>40.7</ele>
        <time>2018-12-02T08:09:17Z</time>
      </trkpt>
      <trkpt lat="43.43362" lon="6.51025">
        <ele>40.4</ele>
        <time>2018-12-02T08:09:27Z</time>
      </trkpt>
      <trkpt lat="43.43352" lon="6.51024">
        <ele>40.1</ele>
        <time>2018-12-02T08:09:35Z</time>
      </trkpt>
      <trkpt lat="43.43342" lon="6.51023">
        <ele>40</ele>
        <time>2018-12-02T08:09:40Z</time>
      </trkpt>
      <trkpt lat="43.43332" lon="6.51023">
        <ele>39.7</ele>
        <time>2018-12-02T08:09:51Z</time>
      </trkpt>
      <trkpt lat="43.43323" lon="6.51023">
        <ele>39.5</ele>
        <time>2018-12-02T08:09:57Z</time>
      </trkpt>
      <trkpt lat="43.43314" lon="6.51026">
        <ele>39.4</ele>
        <time>2018-12-02T08:10:05Z</time>
      </trkpt>
      <trkpt lat="43.43304" lon="6.51029">
        <ele>39.2</ele>
        <time>2018-12-02T08:10:12Z</time>
      </trkpt>
      <trkpt lat="43.43296" lon="6.51034">
        <ele>39.1</ele>
        <time>2018-12-02T08:10:19Z</time>
      </trkpt>
      <trkpt lat="43.43287" lon="6.51038">
        <ele>39</ele>
        <time>2018-12-02T08:10:28Z</time>
      </trkpt>
      <trkpt lat="43.43278" lon="6.51042">
        <ele>38.8</ele>
        <time>2018-12-02T08:10:34Z</time>
      </trkpt>
      <trkpt lat="43.43268" lon="6.51042">
        <ele>38.6</ele>
        <time>2018-12-02T08:10:41Z</time>
      </trkpt>
      <trkpt lat="43.43259" lon="6.51048">
        <ele>38.4</ele>
        <time>2018-12-02T08:10:48Z</time>
      </trkpt>
      <trkpt lat="43.43249" lon="6.51048">
        <ele>38.2</ele>
        <time>2018-12-02T08:10:57Z</time>
      </trkpt>
      <trkpt lat="43.4324" lon="6.51046">
        <ele>38.1</ele>
        <time>2018-12-02T08:11:05Z</time>
      </trkpt>
      <trkpt lat="43.43231" lon="6.51044">
        <ele>38</ele>
        <time>2018-12-02T08:11:13Z</time>
      </trkpt>
      <trkpt lat="43.43221" lon="6.51043">
        <ele>38</ele>
        <time>2018-12-02T08:11:19Z</time>
      </trkpt>
      <trkpt lat="43.43212" lon="6.51041">
        <ele>38</ele>
        <time>2018-12-02T08:11:28Z</time>
      </trkpt>
      <trkpt lat="43.43202" lon="6.51039">
        <ele>37.9</ele>
        <time>2018-12-02T08:11:40Z</time>
      </trkpt>
      <trkpt lat="43.43193" lon="6.51036">
        <ele>37.8</ele>
        <time>2018-12-02T08:11:48Z</time>
      </trkpt>
      <trkpt lat="43.43184" lon="6.51037">
        <ele>37.6</ele>
        <time>2018-12-02T08:12:13Z</time>
      </trkpt>
      <trkpt lat="43.43174" lon="6.51039">
        <ele>37.6</ele>
        <time>2018-12-02T08:12:21Z</time>
      </trkpt>
      <trkpt lat="43.43167" lon="6.51045">
        <ele>37.8</ele>
        <time>2018-12-02T08:12:30Z</time>
      </trkpt>
      <trkpt lat="43.43162" lon="6.51057">
        <ele>38.5</ele>
        <time>2018-12-02T08:12:44Z</time>
      </trkpt>
      <trkpt lat="43.43158" lon="6.51068">
        <ele>39.1</ele>
        <time>2018-12-02T08:12:52Z</time>
      </trkpt>
      <trkpt lat="43.4315" lon="6.51075">
        <ele>39.6</ele>
        <time>2018-12-02T08:12:58Z</time>
      </trkpt>
      <trkpt lat="43.43142" lon="6.51083">
        <ele>40.4</ele>
        <time>2018-12-02T08:13:08Z</time>
      </trkpt>
      <trkpt lat="43.43134" lon="6.51092">
        <ele>41.6</ele>
        <time>2018-12-02T08:13:19Z</time>
      </trkpt>
      <trkpt lat="43.43127" lon="6.51099">
        <ele>42.2</ele>
        <time>2018-12-02T08:13:27Z</time>
      </trkpt>
      <trkpt lat="43.43121" lon="6.5111">
        <ele>43.3</ele>
        <time>2018-12-02T08:13:40Z</time>
      </trkpt>
      <trkpt lat="43.43114" lon="6.51119">
        <ele>44.4</ele>
        <time>2018-12-02T08:13:51Z</time>
      </trkpt>
      <trkpt lat="43.43105" lon="6.51123">
        <ele>45.2</ele>
        <time>2018-12-02T08:14:01Z</time>
      </trkpt>
      <trkpt lat="43.43097" lon="6.5113">
        <ele>45.8</ele>
        <time>2018-12-02T08:14:09Z</time>
      </trkpt>
      <trkpt lat="43.43087" lon="6.51134">
        <ele>46.1</ele>
        <time>2018-12-02T08:14:17Z</time>
      </trkpt>
      <trkpt lat="43.43078" lon="6.51133">
        <ele>46.4</ele>
        <time>2018-12-02T08:14:26Z</time>
      </trkpt>
      <trkpt lat="43.43068" lon="6.51129">
        <ele>46.4</ele>
        <time>2018-12-02T08:14:34Z</time>
      </trkpt>
      <trkpt lat="43.43058" lon="6.51128">
        <ele>46.3</ele>
        <time>2018-12-02T08:14:41Z</time>
      </trkpt>
      <trkpt lat="43.43049" lon="6.51126">
        <ele>46.2</ele>
        <time>2018-12-02T08:14:49Z</time>
      </trkpt>
      <trkpt lat="43.4304" lon="6.5112">
        <ele>46.1</ele>
        <time>2018-12-02T08:14:59Z</time>
      </trkpt>
      <trkpt lat="43.43033" lon="6.51111">
        <ele>45.9</ele>
        <time>2018-12-02T08:15:06Z</time>
      </trkpt>
      <trkpt lat="43.43027" lon="6.51101">
        <ele>45.7</ele>
        <time>2018-12-02T08:15:14Z</time>
      </trkpt>
      <trkpt lat="43.43017" lon="6.51101">
        <ele>45.6</ele>
        <time>2018-12-02T08:15:23Z</time>
      </trkpt>
      <trkpt lat="43.4301" lon="6.5111">
        <ele>45.4</ele>
        <time>2018-12-02T08:15:32Z</time>
      </trkpt>
      <trkpt lat="43.43002" lon="6.51119">
        <ele>45.4</ele>
        <time>2018-12-02T08:15:40Z</time>
      </trkpt>
      <trkpt lat="43.43" lon="6.51132">
        <ele>45.3</ele>
        <time>2018-12-02T08:15:49Z</time>
      </trkpt>
      <trkpt lat="43.42997" lon="6.51145">
        <ele>45.4</ele>
        <time>2018-12-02T08:15:57Z</time>
      </trkpt>
      <trkpt lat="43.42994" lon="6.51157">
        <ele>45.6</ele>
        <time>2018-12-02T08:16:07Z</time>
      </trkpt>
      <trkpt lat="43.42992" lon="6.51171">
        <ele>45.9</ele>
        <time>2018-12-02T08:16:15Z</time>
      </trkpt>
      <trkpt lat="43.42989" lon="6.51183">
        <ele>46.5</ele>
        <time>2018-12-02T08:16:27Z</time>
      </trkpt>
      <trkpt lat="43.42982" lon="6.51193">
        <ele>46.8</ele>
        <time>2018-12-02T08:16:39Z</time>
      </trkpt>
      <trkpt lat="43.42973" lon="6.512">
        <ele>46.9</ele>
        <time>2018-12-02T08:16:45Z</time>
      </trkpt>
      <trkpt lat="43.42964" lon="6.51205">
        <ele>47</ele>
        <time>2018-12-02T08:16:51Z</time>
      </trkpt>
      <trkpt lat="43.42961" lon="6.51216">
        <ele>47.1</ele>
        <time>2018-12-02T08:17:00Z</time>
      </trkpt>
      <trkpt lat="43.42958" lon="6.51229">
        <ele>47.5</ele>
        <time>2018-12-02T08:17:08Z</time>
      </trkpt>
      <trkpt lat="43.4296" lon="6.51242">
        <ele>47.9</ele>
        <time>2018-12-02T08:17:16Z</time>
      </trkpt>
      <trkpt lat="43.42961" lon="6.51256">
        <ele>48</ele>
        <time>2018-12-02T08:17:22Z</time>
      </trkpt>
      <trkpt lat="43.42963" lon="6.51269">
        <ele>48.1</ele>
        <time>2018-12-02T08:17:29Z</time>
      </trkpt>
      <trkpt lat="43.42959" lon="6.5128">
        <ele>48.2</ele>
        <time>2018-12-02T08:17:36Z</time>
      </trkpt>
      <trkpt lat="43.42952" lon="6.5129">
        <ele>48.2</ele>
        <time>2018-12-02T08:17:44Z</time>
      </trkpt>
      <trkpt lat="43.42944" lon="6.51301">
        <ele>48.3</ele>
        <time>2018-12-02T08:17:52Z</time>
      </trkpt>
      <trkpt lat="43.4294" lon="6.51313">
        <ele>48.3</ele>
        <time>2018-12-02T08:18:01Z</time>
      </trkpt>
      <trkpt lat="43.42934" lon="6.51324">
        <ele>48.1</ele>
        <time>2018-12-02T08:18:12Z</time>
      </trkpt>
      <trkpt lat="43.42935" lon="6.51337">
        <ele>47.9</ele>
        <time>2018-12-02T08:18:20Z</time>
      </trkpt>
      <trkpt lat="43.42932" lon="6.51349">
        <ele>47.7</ele>
        <time>2018-12-02T08:18:28Z</time>
      </trkpt>
      <trkpt lat="43.4293" lon="6.51362">
        <ele>47.5</ele>
        <time>2018-12-02T08:18:35Z</time>
      </trkpt>
      <trkpt lat="43.42927" lon="6.51373">
        <ele>47.2</ele>
        <time>2018-12-02T08:18:44Z</time>
      </trkpt>
      <trkpt lat="43.42924" lon="6.51387">
        <ele>47.1</ele>
        <time>2018-12-02T08:18:56Z</time>
      </trkpt>
      <trkpt lat="43.42916" lon="6.51395">
        <ele>47</ele>
        <time>2018-12-02T08:19:03Z</time>
      </trkpt>
      <trkpt lat="43.42911" lon="6.51406">
        <ele>47</ele>
        <time>2018-12-02T08:19:11Z</time>
      </trkpt>
      <trkpt lat="43.42905" lon="6.51415">
        <ele>46.9</ele>
        <time>2018-12-02T08:19:18Z</time>
      </trkpt>
      <trkpt lat="43.42906" lon="6.51429">
        <ele>46.9</ele>
        <time>2018-12-02T08:19:26Z</time>
      </trkpt>
      <trkpt lat="43.42911" lon="6.51443">
        <ele>46.8</ele>
        <time>2018-12-02T08:19:32Z</time>
      </trkpt>
      <trkpt lat="43.42915" lon="6.51455">
        <ele>46.6</ele>
        <time>2018-12-02T08:19:37Z</time>
      </trkpt>
      <trkpt lat="43.42919" lon="6.51466">
        <ele>46.2</ele>
        <time>2018-12-02T08:19:46Z</time>
      </trkpt>
      <trkpt lat="43.42924" lon="6.51478">
        <ele>45.5</ele>
        <time>2018-12-02T08:19:57Z</time>
      </trkpt>
      <trkpt lat="43.42928" lon="6.51492">
        <ele>45</ele>
        <time>2018-12-02T08:20:05Z</time>
      </trkpt>
      <trkpt lat="43.42926" lon="6.51506">
        <ele>44.7</ele>
        <time>2018-12-02T08:20:12Z</time>
      </trkpt>
      <trkpt lat="43.42925" lon="6.5152">
        <ele>44.3</ele>
        <time>2018-12-02T08:20:18Z</time>
      </trkpt>
      <trkpt lat="43.42919" lon="6.5153">
        <ele>44</ele>
        <time>2018-12-02T08:20:24Z</time>
      </trkpt>
      <trkpt lat="43.42914" lon="6.51541">
        <ele>43.5</ele>
        <time>2018-12-02T08:20:32Z</time>
      </trkpt>
      <trkpt lat="43.42908" lon="6.51551">
        <ele>43.1</ele>
        <time>2018-12-02T08:20:38Z</time>
      </trkpt>
      <trkpt lat="43.429" lon="6.51559">
        <ele>42.5</ele>
        <time>2018-12-02T08:20:46Z</time>
      </trkpt>
      <trkpt lat="43.42892" lon="6.51568">
        <ele>42</ele>
        <time>2018-12-02T08:20:55Z</time>
      </trkpt>
      <trkpt lat="43.42883" lon="6.51575">
        <ele>41.5</ele>
        <time>2018-12-02T08:21:01Z</time>
      </trkpt>
      <trkpt lat="43.42877" lon="6.51584">
        <ele>40.8</ele>
        <time>2018-12-02T08:21:10Z</time>
      </trkpt>
      <trkpt lat="43.42868" lon="6.51589">
        <ele>40.3</ele>
        <time>2018-12-02T08:21:18Z</time>
      </trkpt>
      <trkpt lat="43.42861" lon="6.51597">
        <ele>40</ele>
        <time>2018-12-02T08:21:25Z</time>
      </trkpt>
      <trkpt lat="43.42853" lon="6.51604">
        <ele>39.6</ele>
        <time>2018-12-02T08:21:34Z</time>
      </trkpt>
      <trkpt lat="43.42846" lon="6.51613">
        <ele>39.3</ele>
        <time>2018-12-02T08:21:41Z</time>
      </trkpt>
      <trkpt lat="43.42841" lon="6.51623">
        <ele>39.1</ele>
        <time>2018-12-02T08:21:49Z</time>
      </trkpt>
      <trkpt lat="43.42842" lon="6.51635">
        <ele>38.8</ele>
        <time>2018-12-02T08:21:58Z</time>
      </trkpt>
      <trkpt lat="43.42839" lon="6.51649">
        <ele>38.5</ele>
        <time>2018-12-02T08:22:08Z</time>
      </trkpt>
      <trkpt lat="43.42839" lon="6.51662">
        <ele>38.3</ele>
        <time>2018-12-02T08:22:16Z</time>
      </trkpt>
      <trkpt lat="43.42841" lon="6.51674">
        <ele>38.2</ele>
        <time>2018-12-02T08:22:25Z</time>
      </trkpt>
      <trkpt lat="43.42846" lon="6.51686">
        <ele>38.1</ele>
        <time>2018-12-02T08:22:33Z</time>
      </trkpt>
      <trkpt lat="43.4285" lon="6.51697">
        <ele>38</ele>
        <time>2018-12-02T08:22:38Z</time>
      </trkpt>
      <trkpt lat="43.42855" lon="6.51709">
        <ele>37.8</ele>
        <time>2018-12-02T08:22:46Z</time>
      </trkpt>
      <trkpt lat="43.42859" lon="6.51719">
        <ele>37.7</ele>
        <time>2018-12-02T08:22:53Z</time>
      </trkpt>
      <trkpt lat="43.42866" lon="6.51729">
        <ele>37.5</ele>
        <time>2018-12-02T08:23:01Z</time>
      </trkpt>
      <trkpt lat="43.42868" lon="6.51742">
        <ele>37.3</ele>
        <time>2018-12-02T08:23:09Z</time>
      </trkpt>
      <trkpt lat="43.42872" lon="6.51753">
        <ele>36.9</ele>
        <time>2018-12-02T08:23:17Z</time>
      </trkpt>
      <trkpt lat="43.42875" lon="6.51767">
        <ele>36.5</ele>
        <time>2018-12-02T08:23:33Z</time>
      </trkpt>
      <trkpt lat="43.42879" lon="6.51778">
        <ele>36.4</ele>
        <time>2018-12-02T08:23:44Z</time>
      </trkpt>
      <trkpt lat="43.42882" lon="6.51791">
        <ele>36.3</ele>
        <time>2018-12-02T08:23:51Z</time>
      </trkpt>
      <trkpt lat="43.42884" lon="6.51803">
        <ele>36.3</ele>
        <time>2018-12-02T08:23:57Z</time>
      </trkpt>
      <trkpt lat="43.42886" lon="6.51816">
        <ele>36.3</ele>
        <time>2018-12-02T08:24:03Z</time>
      </trkpt>
      <trkpt lat="43.42886" lon="6.51829">
        <ele>36.3</ele>
        <time>2018-12-02T08:24:11Z</time>
      </trkpt>
      <trkpt lat="43.42887" lon="6.51841">
        <ele>36.3</ele>
        <time>2018-12-02T08:24:18Z</time>
      </trkpt>
      <trkpt lat="43.42889" lon="6.51854">
        <ele>36.3</ele>
        <time>2018-12-02T08:24:25Z</time>
      </trkpt>
      <trkpt lat="43.42892" lon="6.51867">
        <ele>36.3</ele>
        <time>2018-12-02T08:24:32Z</time>
      </trkpt>
      <trkpt lat="43.42894" lon="6.51881">
        <ele>36.1</ele>
        <time>2018-12-02T08:24:40Z</time>
      </trkpt>
      <trkpt lat="43.42895" lon="6.51894">
        <ele>35.8</ele>
        <time>2018-12-02T08:24:48Z</time>
      </trkpt>
      <trkpt lat="43.42896" lon="6.51907">
        <ele>35.4</ele>
        <time>2018-12-02T08:24:55Z</time>
      </trkpt>
      <trkpt lat="43.429" lon="6.51919">
        <ele>34.9</ele>
        <time>2018-12-02T08:25:02Z</time>
      </trkpt>
      <trkpt lat="43.42904" lon="6.5193">
        <ele>34.5</ele>
        <time>2018-12-02T08:25:09Z</time>
      </trkpt>
      <trkpt lat="43.42909" lon="6.51942">
        <ele>33.9</ele>
        <time>2018-12-02T08:25:17Z</time>
      </trkpt>
      <trkpt lat="43.42912" lon="6.51956">
        <ele>33.3</ele>
        <time>2018-12-02T08:25:25Z</time>
      </trkpt>
      <trkpt lat="43.42916" lon="6.51967">
        <ele>32.9</ele>
        <time>2018-12-02T08:25:31Z</time>
      </trkpt>
      <trkpt lat="43.42919" lon="6.51978">
        <ele>32.4</ele>
        <time>2018-12-02T08:25:38Z</time>
      </trkpt>
      <trkpt lat="43.42924" lon="6.5199">
        <ele>31.8</ele>
        <time>2018-12-02T08:25:46Z</time>
      </trkpt>
      <trkpt lat="43.42929" lon="6.52002">
        <ele>31.1</ele>
        <time>2018-12-02T08:25:56Z</time>
      </trkpt>
      <trkpt lat="43.42933" lon="6.52015">
        <ele>30.6</ele>
        <time>2018-12-02T08:26:03Z</time>
      </trkpt>
      <trkpt lat="43.42935" lon="6.52027">
        <ele>30.2</ele>
        <time>2018-12-02T08:26:10Z</time>
      </trkpt>
      <trkpt lat="43.42939" lon="6.52039">
        <ele>29.7</ele>
        <time>2018-12-02T08:26:17Z</time>
      </trkpt>
      <trkpt lat="43.4294" lon="6.52052">
        <ele>29</ele>
        <time>2018-12-02T08:26:28Z</time>
      </trkpt>
      <trkpt lat="43.42946" lon="6.52063">
        <ele>28.7</ele>
        <time>2018-12-02T08:26:35Z</time>
      </trkpt>
      <trkpt lat="43.42949" lon="6.52075">
        <ele>28.4</ele>
        <time>2018-12-02T08:26:43Z</time>
      </trkpt>
      <trkpt lat="43.42953" lon="6.52088">
        <ele>28.3</ele>
        <time>2018-12-02T08:26:51Z</time>
      </trkpt>
      <trkpt lat="43.42956" lon="6.52101">
        <ele>28.2</ele>
        <time>2018-12-02T08:26:57Z</time>
      </trkpt>
      <trkpt lat="43.42963" lon="6.5211">
        <ele>28.1</ele>
        <time>2018-12-02T08:27:04Z</time>
      </trkpt>
      <trkpt lat="43.42966" lon="6.52123">
        <ele>28.1</ele>
        <time>2018-12-02T08:27:13Z</time>
      </trkpt>
      <trkpt lat="43.42965" lon="6.52136">
        <ele>28</ele>
        <time>2018-12-02T08:27:30Z</time>
      </trkpt>
      <trkpt lat="43.4297" lon="6.5215">
        <ele>28</ele>
        <time>2018-12-02T08:27:36Z</time>
      </trkpt>
      <trkpt lat="43.42973" lon="6.52163">
        <ele>28</ele>
        <time>2018-12-02T08:27:42Z</time>
      </trkpt>
      <trkpt lat="43.42975" lon="6.52176">
        <ele>28</ele>
        <time>2018-12-02T08:27:48Z</time>
      </trkpt>
      <trkpt lat="43.42978" lon="6.52188">
        <ele>28</ele>
        <time>2018-12-02T08:27:56Z</time>
      </trkpt>
      <trkpt lat="43.42982" lon="6.52199">
        <ele>28</ele>
        <time>2018-12-02T08:28:04Z</time>
      </trkpt>
      <trkpt lat="43.42982" lon="6.52212">
        <ele>28</ele>
        <time>2018-12-02T08:28:12Z</time>
      </trkpt>
      <trkpt lat="43.42984" lon="6.52224">
        <ele>28</ele>
        <time>2018-12-02T08:28:30Z</time>
      </trkpt>
      <trkpt lat="43.42989" lon="6.52236">
        <ele>28</ele>
        <time>2018-12-02T08:28:37Z</time>
      </trkpt>
      <trkpt lat="43.42986" lon="6.5225">
        <ele>28.1</ele>
        <time>2018-12-02T08:28:46Z</time>
      </trkpt>
      <trkpt lat="43.42985" lon="6.52263">
        <ele>28.2</ele>
        <time>2018-12-02T08:28:54Z</time>
      </trkpt>
      <trkpt lat="43.42977" lon="6.52275">
        <ele>28.3</ele>
        <time>2018-12-02T08:29:01Z</time>
      </trkpt>
      <trkpt lat="43.42969" lon="6.52283">
        <ele>28.4</ele>
        <time>2018-12-02T08:29:07Z</time>
      </trkpt>
      <trkpt lat="43.42959" lon="6.52289">
        <ele>28.4</ele>
        <time>2018-12-02T08:29:11Z</time>
      </trkpt>
      <trkpt lat="43.42951" lon="6.52295">
        <ele>28.4</ele>
        <time>2018-12-02T08:29:18Z</time>
      </trkpt>
      <trkpt lat="43.42945" lon="6.52306">
        <ele>28.6</ele>
        <time>2018-12-02T08:29:26Z</time>
      </trkpt>
      <trkpt lat="43.42935" lon="6.52311">
        <ele>28.6</ele>
        <time>2018-12-02T08:29:34Z</time>
      </trkpt>
      <trkpt lat="43.42924" lon="6.52311">
        <ele>28.6</ele>
        <time>2018-12-02T08:29:39Z</time>
      </trkpt>
      <trkpt lat="43.42914" lon="6.52312">
        <ele>28.7</ele>
        <time>2018-12-02T08:29:43Z</time>
      </trkpt>
      <trkpt lat="43.42904" lon="6.52311">
        <ele>28.6</ele>
        <time>2018-12-02T08:29:50Z</time>
      </trkpt>
      <trkpt lat="43.42894" lon="6.52311">
        <ele>28.5</ele>
        <time>2018-12-02T08:29:57Z</time>
      </trkpt>
      <trkpt lat="43.42883" lon="6.52314">
        <ele>28.3</ele>
        <time>2018-12-02T08:30:05Z</time>
      </trkpt>
      <trkpt lat="43.42875" lon="6.52317">
        <ele>28.2</ele>
        <time>2018-12-02T08:30:12Z</time>
      </trkpt>
      <trkpt lat="43.42867" lon="6.52325">
        <ele>27.9</ele>
        <time>2018-12-02T08:30:26Z</time>
      </trkpt>
      <trkpt lat="43.42858" lon="6.52325">
        <ele>27.8</ele>
        <time>2018-12-02T08:30:34Z</time>
      </trkpt>
      <trkpt lat="43.42849" lon="6.52328">
        <ele>27.7</ele>
        <time>2018-12-02T08:30:42Z</time>
      </trkpt>
      <trkpt lat="43.42841" lon="6.52336">
        <ele>27.6</ele>
        <time>2018-12-02T08:30:49Z</time>
      </trkpt>
      <trkpt lat="43.42837" lon="6.52348">
        <ele>27.6</ele>
        <time>2018-12-02T08:30:59Z</time>
      </trkpt>
      <trkpt lat="43.42828" lon="6.52351">
        <ele>27.5</ele>
        <time>2018-12-02T08:31:11Z</time>
      </trkpt>
      <trkpt lat="43.42818" lon="6.52347">
        <ele>27.5</ele>
        <time>2018-12-02T08:31:22Z</time>
      </trkpt>
      <trkpt lat="43.4281" lon="6.52351">
        <ele>27.5</ele>
        <time>2018-12-02T08:31:34Z</time>
      </trkpt>
      <trkpt lat="43.42801" lon="6.52359">
        <ele>27.6</ele>
        <time>2018-12-02T08:31:44Z</time>
      </trkpt>
      <trkpt lat="43.42795" lon="6.52369">
        <ele>27.6</ele>
        <time>2018-12-02T08:31:50Z</time>
      </trkpt>
      <trkpt lat="43.42792" lon="6.52382">
        <ele>27.8</ele>
        <time>2018-12-02T08:31:59Z</time>
      </trkpt>
      <trkpt lat="43.42788" lon="6.52393">
        <ele>27.9</ele>
        <time>2018-12-02T08:32:09Z</time>
      </trkpt>
      <trkpt lat="43.42779" lon="6.52399">
        <ele>28</ele>
        <time>2018-12-02T08:32:19Z</time>
      </trkpt>
      <trkpt lat="43.42772" lon="6.52408">
        <ele>28</ele>
        <time>2018-12-02T08:32:28Z</time>
      </trkpt>
      <trkpt lat="43.42762" lon="6.5241">
        <ele>28.1</ele>
        <time>2018-12-02T08:32:39Z</time>
      </trkpt>
      <trkpt lat="43.42754" lon="6.52417">
        <ele>28.2</ele>
        <time>2018-12-02T08:32:48Z</time>
      </trkpt>
      <trkpt lat="43.42748" lon="6.52429">
        <ele>28.2</ele>
        <time>2018-12-02T08:32:55Z</time>
      </trkpt>
      <trkpt lat="43.42746" lon="6.52442">
        <ele>28.2</ele>
        <time>2018-12-02T08:33:01Z</time>
      </trkpt>
      <trkpt lat="43.42737" lon="6.52445">
        <ele>28.3</ele>
        <time>2018-12-02T08:33:10Z</time>
      </trkpt>
      <trkpt lat="43.42727" lon="6.52449">
        <ele>28.4</ele>
        <time>2018-12-02T08:33:19Z</time>
      </trkpt>
      <trkpt lat="43.4272" lon="6.52439">
        <ele>28.6</ele>
        <time>2018-12-02T08:33:26Z</time>
      </trkpt>
      <trkpt lat="43.42712" lon="6.52434">
        <ele>28.8</ele>
        <time>2018-12-02T08:33:33Z</time>
      </trkpt>
      <trkpt lat="43.42704" lon="6.52443">
        <ele>29</ele>
        <time>2018-12-02T08:33:42Z</time>
      </trkpt>
      <trkpt lat="43.42695" lon="6.52447">
        <ele>29</ele>
        <time>2018-12-02T08:33:52Z</time>
      </trkpt>
      <trkpt lat="43.42686" lon="6.52446">
        <ele>29.4</ele>
        <time>2018-12-02T08:34:05Z</time>
      </trkpt>
      <trkpt lat="43.42679" lon="6.52455">
        <ele>29.6</ele>
        <time>2018-12-02T08:34:25Z</time>
      </trkpt>
      <trkpt lat="43.42677" lon="6.52469">
        <ele>29.7</ele>
        <time>2018-12-02T08:34:34Z</time>
      </trkpt>
      <trkpt lat="43.42675" lon="6.52482">
        <ele>29.8</ele>
        <time>2018-12-02T08:34:41Z</time>
      </trkpt>
      <trkpt lat="43.42672" lon="6.52494">
        <ele>30.1</ele>
        <time>2018-12-02T08:34:49Z</time>
      </trkpt>
      <trkpt lat="43.42669" lon="6.52507">
        <ele>30.8</ele>
        <time>2018-12-02T08:35:01Z</time>
      </trkpt>
      <trkpt lat="43.42663" lon="6.52516">
        <ele>31.4</ele>
        <time>2018-12-02T08:35:10Z</time>
      </trkpt>
      <trkpt lat="43.42655" lon="6.52524">
        <ele>31.9</ele>
        <time>2018-12-02T08:35:19Z</time>
      </trkpt>
      <trkpt lat="43.42648" lon="6.52534">
        <ele>32.5</ele>
        <time>2018-12-02T08:35:28Z</time>
      </trkpt>
      <trkpt lat="43.4264" lon="6.52539">
        <ele>33</ele>
        <time>2018-12-02T08:35:39Z</time>
      </trkpt>
      <trkpt lat="43.42631" lon="6.52542">
        <ele>33.5</ele>
        <time>2018-12-02T08:35:50Z</time>
      </trkpt>
      <trkpt lat="43.42621" lon="6.52546">
        <ele>34</ele>
        <time>2018-12-02T08:36:06Z</time>
      </trkpt>
      <trkpt lat="43.42611" lon="6.52549">
        <ele>34</ele>
        <time>2018-12-02T08:36:13Z</time>
      </trkpt>
      <trkpt lat="43.42602" lon="6.52553">
        <ele>34.3</ele>
        <time>2018-12-02T08:36:22Z</time>
      </trkpt>
      <trkpt lat="43.42593" lon="6.52554">
        <ele>34.6</ele>
        <time>2018-12-02T08:36:30Z</time>
      </trkpt>
      <trkpt lat="43.42583" lon="6.52551">
        <ele>34.9</ele>
        <time>2018-12-02T08:36:39Z</time>
      </trkpt>
      <trkpt lat="43.42574" lon="6.5255">
        <ele>35</ele>
        <time>2018-12-02T08:36:45Z</time>
      </trkpt>
      <trkpt lat="43.42564" lon="6.52546">
        <ele>35.1</ele>
        <time>2018-12-02T08:36:53Z</time>
      </trkpt>
      <trkpt lat="43.42556" lon="6.5254">
        <ele>35.1</ele>
        <time>2018-12-02T08:37:02Z</time>
      </trkpt>
      <trkpt lat="43.42548" lon="6.52536">
        <ele>35.3</ele>
        <time>2018-12-02T08:37:10Z</time>
      </trkpt>
      <trkpt lat="43.4254" lon="6.5253">
        <ele>35.3</ele>
        <time>2018-12-02T08:37:18Z</time>
      </trkpt>
      <trkpt lat="43.4253" lon="6.52526">
        <ele>35.7</ele>
        <time>2018-12-02T08:37:28Z</time>
      </trkpt>
      <trkpt lat="43.42521" lon="6.52525">
        <ele>36</ele>
        <time>2018-12-02T08:37:36Z</time>
      </trkpt>
      <trkpt lat="43.42511" lon="6.52524">
        <ele>36.2</ele>
        <time>2018-12-02T08:37:44Z</time>
      </trkpt>
      <trkpt lat="43.42501" lon="6.52523">
        <ele>36.3</ele>
        <time>2018-12-02T08:37:50Z</time>
      </trkpt>
      <trkpt lat="43.42494" lon="6.5253">
        <ele>36.3</ele>
        <time>2018-12-02T08:37:58Z</time>
      </trkpt>
      <trkpt lat="43.42486" lon="6.52536">
        <ele>36.4</ele>
        <time>2018-12-02T08:38:05Z</time>
      </trkpt>
      <trkpt lat="43.42477" lon="6.52541">
        <ele>36.4</ele>
        <time>2018-12-02T08:38:14Z</time>
      </trkpt>
      <trkpt lat="43.42468" lon="6.5254">
        <ele>36.6</ele>
        <time>2018-12-02T08:38:21Z</time>
      </trkpt>
      <trkpt lat="43.42459" lon="6.52548">
        <ele>36.8</ele>
        <time>2018-12-02T08:38:29Z</time>
      </trkpt>
      <trkpt lat="43.4245" lon="6.52552">
        <ele>37</ele>
        <time>2018-12-02T08:38:37Z</time>
      </trkpt>
      <trkpt lat="43.42442" lon="6.52558">
        <ele>37.4</ele>
        <time>2018-12-02T08:38:46Z</time>
      </trkpt>
      <trkpt lat="43.42433" lon="6.52563">
        <ele>37.9</ele>
        <time>2018-12-02T08:38:56Z</time>
      </trkpt>
      <trkpt lat="43.42424" lon="6.5256">
        <ele>38.6</ele>
        <time>2018-12-02T08:39:08Z</time>
      </trkpt>
      <trkpt lat="43.42416" lon="6.52554">
        <ele>39.5</ele>
        <time>2018-12-02T08:39:20Z</time>
      </trkpt>
      <trkpt lat="43.42406" lon="6.52547">
        <ele>40.2</ele>
        <time>2018-12-02T08:39:29Z</time>
      </trkpt>
      <trkpt lat="43.42396" lon="6.52546">
        <ele>41</ele>
        <time>2018-12-02T08:39:38Z</time>
      </trkpt>
      <trkpt lat="43.42388" lon="6.52537">
        <ele>41.6</ele>
        <time>2018-12-02T08:39:46Z</time>
      </trkpt>
      <trkpt lat="43.42384" lon="6.52526">
        <ele>41.9</ele>
        <time>2018-12-02T08:39:53Z</time>
      </trkpt>
      <trkpt lat="43.4238" lon="6.52514">
        <ele>43.2</ele>
        <time>2018-12-02T08:43:11Z</time>
      </trkpt>
      <trkpt lat="43.42378" lon="6.52501">
        <ele>43.2</ele>
        <time>2018-12-02T08:43:19Z</time>
      </trkpt>
      <trkpt lat="43.42377" lon="6.52489">
        <ele>43.2</ele>
        <time>2018-12-02T08:43:33Z</time>
      </trkpt>
      <trkpt lat="43.42379" lon="6.52476">
        <ele>43.2</ele>
        <time>2018-12-02T08:43:46Z</time>
      </trkpt>
      <trkpt lat="43.42378" lon="6.52462">
        <ele>43.7</ele>
        <time>2018-12-02T08:43:57Z</time>
      </trkpt>
      <trkpt lat="43.42377" lon="6.52449">
        <ele>44.1</ele>
        <time>2018-12-02T08:44:07Z</time>
      </trkpt>
      <trkpt lat="43.42373" lon="6.52436">
        <ele>44.4</ele>
        <time>2018-12-02T08:44:18Z</time>
      </trkpt>
      <trkpt lat="43.42367" lon="6.52425">
        <ele>44.7</ele>
        <time>2018-12-02T08:44:26Z</time>
      </trkpt>
      <trkpt lat="43.42361" lon="6.52416">
        <ele>44.9</ele>
        <time>2018-12-02T08:44:36Z</time>
      </trkpt>
      <trkpt lat="43.42353" lon="6.52408">
        <ele>45</ele>
        <time>2018-12-02T08:44:46Z</time>
      </trkpt>
      <trkpt lat="43.42345" lon="6.52399">
        <ele>45.1</ele>
        <time>2018-12-02T08:44:54Z</time>
      </trkpt>
      <trkpt lat="43.42337" lon="6.52393">
        <ele>45.5</ele>
        <time>2018-12-02T08:45:04Z</time>
      </trkpt>
      <trkpt lat="43.42329" lon="6.52385">
        <ele>46.3</ele>
        <time>2018-12-02T08:45:15Z</time>
      </trkpt>
      <trkpt lat="43.42321" lon="6.52379">
        <ele>47.3</ele>
        <time>2018-12-02T08:45:25Z</time>
      </trkpt>
      <trkpt lat="43.42312" lon="6.52374">
        <ele>48.3</ele>
        <time>2018-12-02T08:45:37Z</time>
      </trkpt>
      <trkpt lat="43.42304" lon="6.52367">
        <ele>48.7</ele>
        <time>2018-12-02T08:45:46Z</time>
      </trkpt>
      <trkpt lat="43.42295" lon="6.52361">
        <ele>49</ele>
        <time>2018-12-02T08:45:54Z</time>
      </trkpt>
      <trkpt lat="43.42286" lon="6.52358">
        <ele>49.4</ele>
        <time>2018-12-02T08:46:01Z</time>
      </trkpt>
      <trkpt lat="43.42276" lon="6.52357">
        <ele>49.8</ele>
        <time>2018-12-02T08:46:11Z</time>
      </trkpt>
      <trkpt lat="43.42267" lon="6.52353">
        <ele>50.1</ele>
        <time>2018-12-02T08:46:20Z</time>
      </trkpt>
      <trkpt lat="43.42258" lon="6.52349">
        <ele>50.5</ele>
        <time>2018-12-02T08:46:30Z</time>
      </trkpt>
      <trkpt lat="43.42248" lon="6.52345">
        <ele>50.9</ele>
        <time>2018-12-02T08:46:38Z</time>
      </trkpt>
      <trkpt lat="43.42239" lon="6.52339">
        <ele>51.3</ele>
        <time>2018-12-02T08:46:47Z</time>
      </trkpt>
      <trkpt lat="43.42231" lon="6.52335">
        <ele>51.7</ele>
        <time>2018-12-02T08:46:56Z</time>
      </trkpt>
      <trkpt lat="43.42222" lon="6.52331">
        <ele>52.1</ele>
        <time>2018-12-02T08:47:04Z</time>
      </trkpt>
      <trkpt lat="43.42213" lon="6.52328">
        <ele>52.4</ele>
        <time>2018-12-02T08:47:13Z</time>
      </trkpt>
      <trkpt lat="43.42203" lon="6.52327">
        <ele>52.6</ele>
        <time>2018-12-02T08:47:22Z</time>
      </trkpt>
      <trkpt lat="43.42193" lon="6.52329">
        <ele>53</ele>
        <time>2018-12-02T08:47:31Z</time>
      </trkpt>
      <trkpt lat="43.42184" lon="6.52333">
        <ele>53.4</ele>
        <time>2018-12-02T08:47:41Z</time>
      </trkpt>
      <trkpt lat="43.42176" lon="6.52338">
        <ele>54</ele>
        <time>2018-12-02T08:47:49Z</time>
      </trkpt>
      <trkpt lat="43.42167" lon="6.52336">
        <ele>54.8</ele>
        <time>2018-12-02T08:47:59Z</time>
      </trkpt>
      <trkpt lat="43.42161" lon="6.52326">
        <ele>55.3</ele>
        <time>2018-12-02T08:48:08Z</time>
      </trkpt>
      <trkpt lat="43.42153" lon="6.52317">
        <ele>55.8</ele>
        <time>2018-12-02T08:48:18Z</time>
      </trkpt>
      <trkpt lat="43.42146" lon="6.52308">
        <ele>56.2</ele>
        <time>2018-12-02T08:48:26Z</time>
      </trkpt>
      <trkpt lat="43.42139" lon="6.52299">
        <ele>56.5</ele>
        <time>2018-12-02T08:48:33Z</time>
      </trkpt>
      <trkpt lat="43.42136" lon="6.52287">
        <ele>56.9</ele>
        <time>2018-12-02T08:48:41Z</time>
      </trkpt>
      <trkpt lat="43.42133" lon="6.52274">
        <ele>57.4</ele>
        <time>2018-12-02T08:48:49Z</time>
      </trkpt>
      <trkpt lat="43.42131" lon="6.52262">
        <ele>58</ele>
        <time>2018-12-02T08:48:58Z</time>
      </trkpt>
      <trkpt lat="43.42129" lon="6.52249">
        <ele>58.8</ele>
        <time>2018-12-02T08:49:10Z</time>
      </trkpt>
      <trkpt lat="43.42121" lon="6.52242">
        <ele>60.3</ele>
        <time>2018-12-02T08:49:59Z</time>
      </trkpt>
      <trkpt lat="43.42115" lon="6.52231">
        <ele>60.5</ele>
        <time>2018-12-02T08:50:14Z</time>
      </trkpt>
      <trkpt lat="43.4211" lon="6.5222">
        <ele>60.5</ele>
        <time>2018-12-02T08:50:44Z</time>
      </trkpt>
      <trkpt lat="43.42102" lon="6.52214">
        <ele>62.1</ele>
        <time>2018-12-02T08:51:07Z</time>
      </trkpt>
      <trkpt lat="43.42097" lon="6.52225">
        <ele>63.8</ele>
        <time>2018-12-02T08:51:25Z</time>
      </trkpt>
      <trkpt lat="43.42088" lon="6.5222">
        <ele>64.3</ele>
        <time>2018-12-02T08:51:36Z</time>
      </trkpt>
      <trkpt lat="43.42081" lon="6.52213">
        <ele>65.4</ele>
        <time>2018-12-02T08:51:47Z</time>
      </trkpt>
      <trkpt lat="43.42071" lon="6.5221">
        <ele>66.7</ele>
        <time>2018-12-02T08:51:58Z</time>
      </trkpt>
      <trkpt lat="43.42063" lon="6.52204">
        <ele>67.4</ele>
        <time>2018-12-02T08:52:07Z</time>
      </trkpt>
      <trkpt lat="43.42057" lon="6.52195">
        <ele>67.7</ele>
        <time>2018-12-02T08:52:14Z</time>
      </trkpt>
      <trkpt lat="43.42047" lon="6.52193">
        <ele>67.9</ele>
        <time>2018-12-02T08:52:20Z</time>
      </trkpt>
      <trkpt lat="43.42038" lon="6.52188">
        <ele>67.7</ele>
        <time>2018-12-02T08:52:29Z</time>
      </trkpt>
      <trkpt lat="43.42031" lon="6.52181">
        <ele>67.3</ele>
        <time>2018-12-02T08:52:39Z</time>
      </trkpt>
      <trkpt lat="43.42023" lon="6.52173">
        <ele>67</ele>
        <time>2018-12-02T08:52:48Z</time>
      </trkpt>
      <trkpt lat="43.42017" lon="6.52163">
        <ele>66.7</ele>
        <time>2018-12-02T08:52:56Z</time>
      </trkpt>
      <trkpt lat="43.4201" lon="6.52155">
        <ele>66.2</ele>
        <time>2018-12-02T08:53:12Z</time>
      </trkpt>
      <trkpt lat="43.42001" lon="6.52148">
        <ele>66.1</ele>
        <time>2018-12-02T08:53:19Z</time>
      </trkpt>
      <trkpt lat="43.41992" lon="6.52151">
        <ele>66.2</ele>
        <time>2018-12-02T08:53:30Z</time>
      </trkpt>
      <trkpt lat="43.41983" lon="6.52157">
        <ele>66.6</ele>
        <time>2018-12-02T08:53:41Z</time>
      </trkpt>
      <trkpt lat="43.41974" lon="6.52162">
        <ele>67.3</ele>
        <time>2018-12-02T08:53:50Z</time>
      </trkpt>
      <trkpt lat="43.41966" lon="6.52169">
        <ele>68.3</ele>
        <time>2018-12-02T08:53:59Z</time>
      </trkpt>
      <trkpt lat="43.41957" lon="6.52175">
        <ele>69.4</ele>
        <time>2018-12-02T08:54:10Z</time>
      </trkpt>
      <trkpt lat="43.41949" lon="6.52181">
        <ele>70.1</ele>
        <time>2018-12-02T08:54:20Z</time>
      </trkpt>
      <trkpt lat="43.41941" lon="6.52188">
        <ele>70.5</ele>
        <time>2018-12-02T08:54:29Z</time>
      </trkpt>
      <trkpt lat="43.41932" lon="6.52188">
        <ele>70.7</ele>
        <time>2018-12-02T08:54:38Z</time>
      </trkpt>
      <trkpt lat="43.41922" lon="6.52186">
        <ele>71.1</ele>
        <time>2018-12-02T08:54:49Z</time>
      </trkpt>
      <trkpt lat="43.41914" lon="6.52179">
        <ele>71.3</ele>
        <time>2018-12-02T08:54:59Z</time>
      </trkpt>
      <trkpt lat="43.41907" lon="6.52171">
        <ele>71.9</ele>
        <time>2018-12-02T08:55:10Z</time>
      </trkpt>
      <trkpt lat="43.41899" lon="6.52165">
        <ele>72.5</ele>
        <time>2018-12-02T08:55:20Z</time>
      </trkpt>
      <trkpt lat="43.4189" lon="6.5216">
        <ele>73.2</ele>
        <time>2018-12-02T08:55:31Z</time>
      </trkpt>
      <trkpt lat="43.41881" lon="6.52157">
        <ele>73.9</ele>
        <time>2018-12-02T08:55:41Z</time>
      </trkpt>
      <trkpt lat="43.41872" lon="6.52157">
        <ele>74.5</ele>
        <time>2018-12-02T08:55:49Z</time>
      </trkpt>
      <trkpt lat="43.41863" lon="6.52159">
        <ele>75.1</ele>
        <time>2018-12-02T08:55:58Z</time>
      </trkpt>
      <trkpt lat="43.41854" lon="6.52159">
        <ele>75.6</ele>
        <time>2018-12-02T08:56:06Z</time>
      </trkpt>
      <trkpt lat="43.41844" lon="6.52162">
        <ele>76.2</ele>
        <time>2018-12-02T08:56:16Z</time>
      </trkpt>
      <trkpt lat="43.41834" lon="6.52165">
        <ele>76.9</ele>
        <time>2018-12-02T08:56:29Z</time>
      </trkpt>
      <trkpt lat="43.41825" lon="6.52168">
        <ele>78.1</ele>
        <time>2018-12-02T08:56:41Z</time>
      </trkpt>
      <trkpt lat="43.41815" lon="6.52164">
        <ele>78.9</ele>
        <time>2018-12-02T08:56:49Z</time>
      </trkpt>
      <trkpt lat="43.41806" lon="6.52163">
        <ele>79.9</ele>
        <time>2018-12-02T08:56:57Z</time>
      </trkpt>
      <trkpt lat="43.41792" lon="6.52156">
        <ele>82</ele>
        <time>2018-12-02T08:58:11Z</time>
      </trkpt>
      <trkpt lat="43.41782" lon="6.52155">
        <ele>82</ele>
        <time>2018-12-02T08:58:21Z</time>
      </trkpt>
      <trkpt lat="43.41767" lon="6.52152">
        <ele>84.1</ele>
        <time>2018-12-02T09:01:05Z</time>
      </trkpt>
      <trkpt lat="43.41752" lon="6.52158">
        <ele>84</ele>
        <time>2018-12-02T09:03:21Z</time>
      </trkpt>
      <trkpt lat="43.41742" lon="6.52158">
        <ele>83.9</ele>
        <time>2018-12-02T09:03:33Z</time>
      </trkpt>
      <trkpt lat="43.41733" lon="6.52158">
        <ele>83.8</ele>
        <time>2018-12-02T09:03:42Z</time>
      </trkpt>
      <trkpt lat="43.41721" lon="6.5216">
        <ele>84</ele>
        <time>2018-12-02T09:06:28Z</time>
      </trkpt>
      <trkpt lat="43.41712" lon="6.52163">
        <ele>84.2</ele>
        <time>2018-12-02T09:07:01Z</time>
      </trkpt>
      <trkpt lat="43.41702" lon="6.52162">
        <ele>84.5</ele>
        <time>2018-12-02T09:07:14Z</time>
      </trkpt>
      <trkpt lat="43.41694" lon="6.52168">
        <ele>84.9</ele>
        <time>2018-12-02T09:07:42Z</time>
      </trkpt>
      <trkpt lat="43.41685" lon="6.52175">
        <ele>85.3</ele>
        <time>2018-12-02T09:07:50Z</time>
      </trkpt>
      <trkpt lat="43.41676" lon="6.52174">
        <ele>86</ele>
        <time>2018-12-02T09:08:00Z</time>
      </trkpt>
      <trkpt lat="43.4167" lon="6.52163">
        <ele>87.2</ele>
        <time>2018-12-02T09:08:09Z</time>
      </trkpt>
      <trkpt lat="43.41667" lon="6.52151">
        <ele>88.4</ele>
        <time>2018-12-02T09:08:19Z</time>
      </trkpt>
      <trkpt lat="43.41664" lon="6.52139">
        <ele>89.7</ele>
        <time>2018-12-02T09:08:29Z</time>
      </trkpt>
      <trkpt lat="43.41662" lon="6.52127">
        <ele>91</ele>
        <time>2018-12-02T09:08:40Z</time>
      </trkpt>
      <trkpt lat="43.41661" lon="6.52114">
        <ele>92.7</ele>
        <time>2018-12-02T09:08:53Z</time>
      </trkpt>
      <trkpt lat="43.41663" lon="6.52101">
        <ele>93.8</ele>
        <time>2018-12-02T09:09:03Z</time>
      </trkpt>
      <trkpt lat="43.41665" lon="6.52089">
        <ele>95</ele>
        <time>2018-12-02T09:09:14Z</time>
      </trkpt>
      <trkpt lat="43.41671" lon="6.52077">
        <ele>97</ele>
        <time>2018-12-02T09:09:52Z</time>
      </trkpt>
      <trkpt lat="43.41678" lon="6.52087">
        <ele>97.5</ele>
        <time>2018-12-02T09:10:31Z</time>
      </trkpt>
      <trkpt lat="43.41677" lon="6.521">
        <ele>98.1</ele>
        <time>2018-12-02T09:10:40Z</time>
      </trkpt>
      <trkpt lat="43.41681" lon="6.52112">
        <ele>98.9</ele>
        <time>2018-12-02T09:10:49Z</time>
      </trkpt>
      <trkpt lat="43.41689" lon="6.5212">
        <ele>99.6</ele>
        <time>2018-12-02T09:11:01Z</time>
      </trkpt>
      <trkpt lat="43.41698" lon="6.52127">
        <ele>100.4</ele>
        <time>2018-12-02T09:11:11Z</time>
      </trkpt>
      <trkpt lat="43.41706" lon="6.52121">
        <ele>101.9</ele>
        <time>2018-12-02T09:11:28Z</time>
      </trkpt>
      <trkpt lat="43.4171" lon="6.52109">
        <ele>102.9</ele>
        <time>2018-12-02T09:11:41Z</time>
      </trkpt>
      <trkpt lat="43.41712" lon="6.52096">
        <ele>103.6</ele>
        <time>2018-12-02T09:11:54Z</time>
      </trkpt>
      <trkpt lat="43.41716" lon="6.52085">
        <ele>104.2</ele>
        <time>2018-12-02T09:12:05Z</time>
      </trkpt>
      <trkpt lat="43.4172" lon="6.52074">
        <ele>105.3</ele>
        <time>2018-12-02T09:12:21Z</time>
      </trkpt>
      <trkpt lat="43.41724" lon="6.52062">
        <ele>106.4</ele>
        <time>2018-12-02T09:12:39Z</time>
      </trkpt>
      <trkpt lat="43.41729" lon="6.5205">
        <ele>107.1</ele>
        <time>2018-12-02T09:12:51Z</time>
      </trkpt>
      <trkpt lat="43.41734" lon="6.52039">
        <ele>107.7</ele>
        <time>2018-12-02T09:13:03Z</time>
      </trkpt>
      <trkpt lat="43.41739" lon="6.52029">
        <ele>108.5</ele>
        <time>2018-12-02T09:13:11Z</time>
      </trkpt>
      <trkpt lat="43.41747" lon="6.5202">
        <ele>109.2</ele>
        <time>2018-12-02T09:13:20Z</time>
      </trkpt>
      <trkpt lat="43.41754" lon="6.52014">
        <ele>110</ele>
        <time>2018-12-02T09:13:29Z</time>
      </trkpt>
      <trkpt lat="43.41764" lon="6.52013">
        <ele>110.6</ele>
        <time>2018-12-02T09:13:40Z</time>
      </trkpt>
      <trkpt lat="43.4177" lon="6.52022">
        <ele>111</ele>
        <time>2018-12-02T09:13:51Z</time>
      </trkpt>
      <trkpt lat="43.41774" lon="6.52034">
        <ele>111.8</ele>
        <time>2018-12-02T09:14:03Z</time>
      </trkpt>
      <trkpt lat="43.41779" lon="6.52045">
        <ele>112.7</ele>
        <time>2018-12-02T09:14:15Z</time>
      </trkpt>
      <trkpt lat="43.41786" lon="6.52054">
        <ele>113.5</ele>
        <time>2018-12-02T09:14:23Z</time>
      </trkpt>
      <trkpt lat="43.41794" lon="6.52059">
        <ele>114.4</ele>
        <time>2018-12-02T09:14:33Z</time>
      </trkpt>
      <trkpt lat="43.41802" lon="6.52052">
        <ele>115.1</ele>
        <time>2018-12-02T09:14:42Z</time>
      </trkpt>
      <trkpt lat="43.4181" lon="6.52046">
        <ele>115.7</ele>
        <time>2018-12-02T09:14:52Z</time>
      </trkpt>
      <trkpt lat="43.41818" lon="6.52039">
        <ele>116.3</ele>
        <time>2018-12-02T09:15:03Z</time>
      </trkpt>
      <trkpt lat="43.41827" lon="6.52032">
        <ele>117.1</ele>
        <time>2018-12-02T09:15:14Z</time>
      </trkpt>
      <trkpt lat="43.41833" lon="6.52022">
        <ele>117.9</ele>
        <time>2018-12-02T09:15:25Z</time>
      </trkpt>
      <trkpt lat="43.41837" lon="6.52011">
        <ele>118.9</ele>
        <time>2018-12-02T09:15:35Z</time>
      </trkpt>
      <trkpt lat="43.41842" lon="6.52">
        <ele>119.8</ele>
        <time>2018-12-02T09:15:46Z</time>
      </trkpt>
      <trkpt lat="43.41846" lon="6.51987">
        <ele>120.5</ele>
        <time>2018-12-02T09:15:56Z</time>
      </trkpt>
      <trkpt lat="43.41846" lon="6.51974">
        <ele>121.4</ele>
        <time>2018-12-02T09:16:07Z</time>
      </trkpt>
      <trkpt lat="43.41845" lon="6.51961">
        <ele>123.2</ele>
        <time>2018-12-02T09:16:28Z</time>
      </trkpt>
      <trkpt lat="43.41842" lon="6.51948">
        <ele>124.1</ele>
        <time>2018-12-02T09:16:40Z</time>
      </trkpt>
      <trkpt lat="43.41836" lon="6.51938">
        <ele>125.5</ele>
        <time>2018-12-02T09:16:50Z</time>
      </trkpt>
      <trkpt lat="43.41827" lon="6.51934">
        <ele>126.3</ele>
        <time>2018-12-02T09:16:59Z</time>
      </trkpt>
      <trkpt lat="43.41819" lon="6.51927">
        <ele>126.8</ele>
        <time>2018-12-02T09:17:07Z</time>
      </trkpt>
      <trkpt lat="43.4181" lon="6.51923">
        <ele>127</ele>
        <time>2018-12-02T09:17:15Z</time>
      </trkpt>
      <trkpt lat="43.418" lon="6.51922">
        <ele>127.1</ele>
        <time>2018-12-02T09:17:23Z</time>
      </trkpt>
      <trkpt lat="43.41791" lon="6.51922">
        <ele>127.2</ele>
        <time>2018-12-02T09:17:34Z</time>
      </trkpt>
      <trkpt lat="43.4178" lon="6.51921">
        <ele>127.7</ele>
        <time>2018-12-02T09:17:44Z</time>
      </trkpt>
      <trkpt lat="43.41771" lon="6.51918">
        <ele>128.4</ele>
        <time>2018-12-02T09:17:54Z</time>
      </trkpt>
      <trkpt lat="43.41763" lon="6.51922">
        <ele>129.7</ele>
        <time>2018-12-02T09:18:08Z</time>
      </trkpt>
      <trkpt lat="43.41754" lon="6.51925">
        <ele>131</ele>
        <time>2018-12-02T09:18:20Z</time>
      </trkpt>
      <trkpt lat="43.41745" lon="6.51925">
        <ele>132.5</ele>
        <time>2018-12-02T09:18:34Z</time>
      </trkpt>
      <trkpt lat="43.41735" lon="6.51927">
        <ele>133.5</ele>
        <time>2018-12-02T09:18:42Z</time>
      </trkpt>
      <trkpt lat="43.41726" lon="6.51926">
        <ele>134.9</ele>
        <time>2018-12-02T09:18:53Z</time>
      </trkpt>
      <trkpt lat="43.41718" lon="6.51919">
        <ele>135.5</ele>
        <time>2018-12-02T09:19:02Z</time>
      </trkpt>
      <trkpt lat="43.4171" lon="6.51914">
        <ele>136</ele>
        <time>2018-12-02T09:19:14Z</time>
      </trkpt>
      <trkpt lat="43.41701" lon="6.51909">
        <ele>136.4</ele>
        <time>2018-12-02T09:19:24Z</time>
      </trkpt>
      <trkpt lat="43.41693" lon="6.51902">
        <ele>136.6</ele>
        <time>2018-12-02T09:19:32Z</time>
      </trkpt>
      <trkpt lat="43.41684" lon="6.519">
        <ele>137.4</ele>
        <time>2018-12-02T09:19:45Z</time>
      </trkpt>
      <trkpt lat="43.41675" lon="6.51895">
        <ele>138.2</ele>
        <time>2018-12-02T09:20:00Z</time>
      </trkpt>
      <trkpt lat="43.41667" lon="6.51888">
        <ele>139</ele>
        <time>2018-12-02T09:20:11Z</time>
      </trkpt>
      <trkpt lat="43.41663" lon="6.51877">
        <ele>139.5</ele>
        <time>2018-12-02T09:20:21Z</time>
      </trkpt>
      <trkpt lat="43.41664" lon="6.51864">
        <ele>140.2</ele>
        <time>2018-12-02T09:20:33Z</time>
      </trkpt>
      <trkpt lat="43.41663" lon="6.51851">
        <ele>141.2</ele>
        <time>2018-12-02T09:20:46Z</time>
      </trkpt>
      <trkpt lat="43.41661" lon="6.51838">
        <ele>142.3</ele>
        <time>2018-12-02T09:20:58Z</time>
      </trkpt>
      <trkpt lat="43.41661" lon="6.51824">
        <ele>143.5</ele>
        <time>2018-12-02T09:21:13Z</time>
      </trkpt>
      <trkpt lat="43.4166" lon="6.51811">
        <ele>144.2</ele>
        <time>2018-12-02T09:21:26Z</time>
      </trkpt>
      <trkpt lat="43.4166" lon="6.51798">
        <ele>145</ele>
        <time>2018-12-02T09:21:38Z</time>
      </trkpt>
      <trkpt lat="43.4166" lon="6.51784">
        <ele>145.7</ele>
        <time>2018-12-02T09:21:51Z</time>
      </trkpt>
      <trkpt lat="43.4166" lon="6.51771">
        <ele>146.6</ele>
        <time>2018-12-02T09:22:03Z</time>
      </trkpt>
      <trkpt lat="43.41661" lon="6.51759">
        <ele>147.8</ele>
        <time>2018-12-02T09:22:16Z</time>
      </trkpt>
      <trkpt lat="43.41661" lon="6.51746">
        <ele>149.2</ele>
        <time>2018-12-02T09:22:32Z</time>
      </trkpt>
      <trkpt lat="43.41657" lon="6.51734">
        <ele>150.7</ele>
        <time>2018-12-02T09:22:48Z</time>
      </trkpt>
      <trkpt lat="43.41664" lon="6.51725">
        <ele>152</ele>
        <time>2018-12-02T09:25:11Z</time>
      </trkpt>
      <trkpt lat="43.41658" lon="6.51704">
        <ele>152.1</ele>
        <time>2018-12-02T09:30:10Z</time>
      </trkpt>
      <trkpt lat="43.41649" lon="6.51699">
        <ele>152</ele>
        <time>2018-12-02T09:30:26Z</time>
      </trkpt>
      <trkpt lat="43.41641" lon="6.51696">
        <ele>151.9</ele>
        <time>2018-12-02T09:30:36Z</time>
      </trkpt>
      <trkpt lat="43.41631" lon="6.51695">
        <ele>151.8</ele>
        <time>2018-12-02T09:30:45Z</time>
      </trkpt>
      <trkpt lat="43.41622" lon="6.517">
        <ele>151.7</ele>
        <time>2018-12-02T09:30:54Z</time>
      </trkpt>
      <trkpt lat="43.41618" lon="6.51711">
        <ele>151.5</ele>
        <time>2018-12-02T09:31:04Z</time>
      </trkpt>
      <trkpt lat="43.41612" lon="6.5172">
        <ele>151.4</ele>
        <time>2018-12-02T09:31:14Z</time>
      </trkpt>
      <trkpt lat="43.41604" lon="6.51727">
        <ele>151.3</ele>
        <time>2018-12-02T09:31:23Z</time>
      </trkpt>
      <trkpt lat="43.41597" lon="6.51736">
        <ele>151.2</ele>
        <time>2018-12-02T09:31:32Z</time>
      </trkpt>
      <trkpt lat="43.41587" lon="6.51741">
        <ele>151.1</ele>
        <time>2018-12-02T09:31:40Z</time>
      </trkpt>
      <trkpt lat="43.41578" lon="6.51742">
        <ele>151</ele>
        <time>2018-12-02T09:31:48Z</time>
      </trkpt>
      <trkpt lat="43.41568" lon="6.51738">
        <ele>150.9</ele>
        <time>2018-12-02T09:32:00Z</time>
      </trkpt>
      <trkpt lat="43.41559" lon="6.51735">
        <ele>150.8</ele>
        <time>2018-12-02T09:32:11Z</time>
      </trkpt>
      <trkpt lat="43.4155" lon="6.51731">
        <ele>150.7</ele>
        <time>2018-12-02T09:32:20Z</time>
      </trkpt>
      <trkpt lat="43.4154" lon="6.51726">
        <ele>150.6</ele>
        <time>2018-12-02T09:32:30Z</time>
      </trkpt>
      <trkpt lat="43.41532" lon="6.5172">
        <ele>150.5</ele>
        <time>2018-12-02T09:32:39Z</time>
      </trkpt>
      <trkpt lat="43.41524" lon="6.51712">
        <ele>150.4</ele>
        <time>2018-12-02T09:32:48Z</time>
      </trkpt>
      <trkpt lat="43.41516" lon="6.51706">
        <ele>150.3</ele>
        <time>2018-12-02T09:32:56Z</time>
      </trkpt>
      <trkpt lat="43.41506" lon="6.51706">
        <ele>150.2</ele>
        <time>2018-12-02T09:33:04Z</time>
      </trkpt>
      <trkpt lat="43.41496" lon="6.51701">
        <ele>150.1</ele>
        <time>2018-12-02T09:33:14Z</time>
      </trkpt>
      <trkpt lat="43.41488" lon="6.51695">
        <ele>150</ele>
        <time>2018-12-02T09:33:22Z</time>
      </trkpt>
      <trkpt lat="43.41479" lon="6.51692">
        <ele>149.9</ele>
        <time>2018-12-02T09:33:29Z</time>
      </trkpt>
      <trkpt lat="43.41468" lon="6.51691">
        <ele>149.8</ele>
        <time>2018-12-02T09:33:35Z</time>
      </trkpt>
      <trkpt lat="43.41459" lon="6.51693">
        <ele>149.8</ele>
        <time>2018-12-02T09:33:42Z</time>
      </trkpt>
      <trkpt lat="43.41455" lon="6.51706">
        <ele>149.7</ele>
        <time>2018-12-02T09:33:49Z</time>
      </trkpt>
      <trkpt lat="43.41456" lon="6.51718">
        <ele>149.6</ele>
        <time>2018-12-02T09:33:58Z</time>
      </trkpt>
      <trkpt lat="43.41452" lon="6.51729">
        <ele>149.5</ele>
        <time>2018-12-02T09:34:09Z</time>
      </trkpt>
      <trkpt lat="43.41445" lon="6.51739">
        <ele>148</ele>
        <time>2018-12-02T09:36:22Z</time>
      </trkpt>
      <trkpt lat="43.41436" lon="6.51745">
        <ele>147.9</ele>
        <time>2018-12-02T09:36:29Z</time>
      </trkpt>
      <trkpt lat="43.41428" lon="6.51752">
        <ele>147.8</ele>
        <time>2018-12-02T09:36:37Z</time>
      </trkpt>
      <trkpt lat="43.4142" lon="6.51759">
        <ele>147.7</ele>
        <time>2018-12-02T09:36:45Z</time>
      </trkpt>
      <trkpt lat="43.41413" lon="6.51766">
        <ele>147.7</ele>
        <time>2018-12-02T09:36:53Z</time>
      </trkpt>
      <trkpt lat="43.41404" lon="6.51772">
        <ele>147.7</ele>
        <time>2018-12-02T09:37:03Z</time>
      </trkpt>
      <trkpt lat="43.41395" lon="6.51771">
        <ele>147.6</ele>
        <time>2018-12-02T09:37:12Z</time>
      </trkpt>
      <trkpt lat="43.41386" lon="6.51767">
        <ele>147.2</ele>
        <time>2018-12-02T09:37:22Z</time>
      </trkpt>
      <trkpt lat="43.4138" lon="6.51758">
        <ele>147</ele>
        <time>2018-12-02T09:37:32Z</time>
      </trkpt>
      <trkpt lat="43.41372" lon="6.51751">
        <ele>146.8</ele>
        <time>2018-12-02T09:37:44Z</time>
      </trkpt>
      <trkpt lat="43.41364" lon="6.51743">
        <ele>146.6</ele>
        <time>2018-12-02T09:37:52Z</time>
      </trkpt>
      <trkpt lat="43.41357" lon="6.51734">
        <ele>146.7</ele>
        <time>2018-12-02T09:38:03Z</time>
      </trkpt>
      <trkpt lat="43.41349" lon="6.51726">
        <ele>146.8</ele>
        <time>2018-12-02T09:38:14Z</time>
      </trkpt>
      <trkpt lat="43.41339" lon="6.51723">
        <ele>147.2</ele>
        <time>2018-12-02T09:38:23Z</time>
      </trkpt>
      <trkpt lat="43.41329" lon="6.51723">
        <ele>147.9</ele>
        <time>2018-12-02T09:38:31Z</time>
      </trkpt>
      <trkpt lat="43.41321" lon="6.51727">
        <ele>148.8</ele>
        <time>2018-12-02T09:38:40Z</time>
      </trkpt>
      <trkpt lat="43.41311" lon="6.51729">
        <ele>149.7</ele>
        <time>2018-12-02T09:38:50Z</time>
      </trkpt>
      <trkpt lat="43.41302" lon="6.51729">
        <ele>150.4</ele>
        <time>2018-12-02T09:39:02Z</time>
      </trkpt>
      <trkpt lat="43.41293" lon="6.51726">
        <ele>151.6</ele>
        <time>2018-12-02T09:39:16Z</time>
      </trkpt>
      <trkpt lat="43.41284" lon="6.51722">
        <ele>152.3</ele>
        <time>2018-12-02T09:39:24Z</time>
      </trkpt>
      <trkpt lat="43.41276" lon="6.51717">
        <ele>153</ele>
        <time>2018-12-02T09:39:33Z</time>
      </trkpt>
      <trkpt lat="43.4127" lon="6.51707">
        <ele>153.4</ele>
        <time>2018-12-02T09:39:46Z</time>
      </trkpt>
      <trkpt lat="43.41262" lon="6.51701">
        <ele>153.9</ele>
        <time>2018-12-02T09:39:56Z</time>
      </trkpt>
      <trkpt lat="43.41254" lon="6.51696">
        <ele>154.8</ele>
        <time>2018-12-02T09:40:26Z</time>
      </trkpt>
      <trkpt lat="43.41245" lon="6.51693">
        <ele>155.1</ele>
        <time>2018-12-02T09:40:34Z</time>
      </trkpt>
      <trkpt lat="43.41237" lon="6.51686">
        <ele>155.9</ele>
        <time>2018-12-02T09:40:45Z</time>
      </trkpt>
      <trkpt lat="43.41229" lon="6.51679">
        <ele>156.6</ele>
        <time>2018-12-02T09:40:56Z</time>
      </trkpt>
      <trkpt lat="43.41222" lon="6.5167">
        <ele>157.3</ele>
        <time>2018-12-02T09:41:07Z</time>
      </trkpt>
      <trkpt lat="43.41216" lon="6.51659">
        <ele>157.8</ele>
        <time>2018-12-02T09:41:21Z</time>
      </trkpt>
      <trkpt lat="43.41212" lon="6.51648">
        <ele>158.9</ele>
        <time>2018-12-02T09:42:43Z</time>
      </trkpt>
      <trkpt lat="43.4121" lon="6.51635">
        <ele>159.1</ele>
        <time>2018-12-02T09:42:50Z</time>
      </trkpt>
      <trkpt lat="43.4121" lon="6.51621">
        <ele>159.5</ele>
        <time>2018-12-02T09:43:01Z</time>
      </trkpt>
      <trkpt lat="43.41208" lon="6.51609">
        <ele>160.2</ele>
        <time>2018-12-02T09:43:13Z</time>
      </trkpt>
      <trkpt lat="43.41207" lon="6.51595">
        <ele>160.8</ele>
        <time>2018-12-02T09:43:25Z</time>
      </trkpt>
      <trkpt lat="43.41209" lon="6.51582">
        <ele>161.5</ele>
        <time>2018-12-02T09:43:37Z</time>
      </trkpt>
      <trkpt lat="43.4121" lon="6.51569">
        <ele>162</ele>
        <time>2018-12-02T09:43:47Z</time>
      </trkpt>
      <trkpt lat="43.41206" lon="6.51557">
        <ele>162.3</ele>
        <time>2018-12-02T09:43:56Z</time>
      </trkpt>
      <trkpt lat="43.41197" lon="6.51553">
        <ele>162.7</ele>
        <time>2018-12-02T09:44:07Z</time>
      </trkpt>
      <trkpt lat="43.41188" lon="6.51551">
        <ele>162.9</ele>
        <time>2018-12-02T09:44:16Z</time>
      </trkpt>
      <trkpt lat="43.41179" lon="6.51547">
        <ele>163.2</ele>
        <time>2018-12-02T09:44:26Z</time>
      </trkpt>
      <trkpt lat="43.41169" lon="6.51542">
        <ele>163.6</ele>
        <time>2018-12-02T09:44:36Z</time>
      </trkpt>
      <trkpt lat="43.41162" lon="6.51536">
        <ele>164.2</ele>
        <time>2018-12-02T09:44:46Z</time>
      </trkpt>
      <trkpt lat="43.41154" lon="6.51527">
        <ele>164.8</ele>
        <time>2018-12-02T09:44:58Z</time>
      </trkpt>
      <trkpt lat="43.41147" lon="6.51518">
        <ele>165.5</ele>
        <time>2018-12-02T09:45:06Z</time>
      </trkpt>
      <trkpt lat="43.41142" lon="6.51508">
        <ele>166.5</ele>
        <time>2018-12-02T09:45:18Z</time>
      </trkpt>
      <trkpt lat="43.41137" lon="6.51497">
        <ele>167.6</ele>
        <time>2018-12-02T09:45:44Z</time>
      </trkpt>
      <trkpt lat="43.41131" lon="6.51488">
        <ele>168.1</ele>
        <time>2018-12-02T09:45:58Z</time>
      </trkpt>
      <trkpt lat="43.41124" lon="6.51478">
        <ele>169.1</ele>
        <time>2018-12-02T09:46:10Z</time>
      </trkpt>
      <trkpt lat="43.41119" lon="6.51468">
        <ele>170</ele>
        <time>2018-12-02T09:46:22Z</time>
      </trkpt>
      <trkpt lat="43.41117" lon="6.51455">
        <ele>170.4</ele>
        <time>2018-12-02T09:46:31Z</time>
      </trkpt>
      <trkpt lat="43.41117" lon="6.51442">
        <ele>170.9</ele>
        <time>2018-12-02T09:46:40Z</time>
      </trkpt>
      <trkpt lat="43.41114" lon="6.5143">
        <ele>172.1</ele>
        <time>2018-12-02T09:46:51Z</time>
      </trkpt>
      <trkpt lat="43.41108" lon="6.5142">
        <ele>173.1</ele>
        <time>2018-12-02T09:47:02Z</time>
      </trkpt>
      <trkpt lat="43.41099" lon="6.51417">
        <ele>174</ele>
        <time>2018-12-02T09:47:20Z</time>
      </trkpt>
      <trkpt lat="43.41092" lon="6.51425">
        <ele>174.4</ele>
        <time>2018-12-02T09:47:29Z</time>
      </trkpt>
      <trkpt lat="43.41087" lon="6.51436">
        <ele>174.8</ele>
        <time>2018-12-02T09:47:37Z</time>
      </trkpt>
      <trkpt lat="43.4108" lon="6.51445">
        <ele>175.3</ele>
        <time>2018-12-02T09:47:46Z</time>
      </trkpt>
      <trkpt lat="43.4107" lon="6.51449">
        <ele>175.7</ele>
        <time>2018-12-02T09:47:54Z</time>
      </trkpt>
      <trkpt lat="43.41061" lon="6.51446">
        <ele>176.1</ele>
        <time>2018-12-02T09:48:04Z</time>
      </trkpt>
      <trkpt lat="43.41053" lon="6.51439">
        <ele>176.7</ele>
        <time>2018-12-02T09:48:16Z</time>
      </trkpt>
      <trkpt lat="43.41045" lon="6.51432">
        <ele>177.2</ele>
        <time>2018-12-02T09:48:26Z</time>
      </trkpt>
      <trkpt lat="43.41036" lon="6.51426">
        <ele>177.7</ele>
        <time>2018-12-02T09:48:37Z</time>
      </trkpt>
      <trkpt lat="43.41032" lon="6.51414">
        <ele>178.4</ele>
        <time>2018-12-02T09:48:48Z</time>
      </trkpt>
      <trkpt lat="43.41027" lon="6.51402">
        <ele>179.1</ele>
        <time>2018-12-02T09:48:59Z</time>
      </trkpt>
      <trkpt lat="43.4102" lon="6.51393">
        <ele>179.8</ele>
        <time>2018-12-02T09:49:08Z</time>
      </trkpt>
      <trkpt lat="43.41015" lon="6.51383">
        <ele>180.5</ele>
        <time>2018-12-02T09:49:22Z</time>
      </trkpt>
      <trkpt lat="43.41009" lon="6.51373">
        <ele>180.8</ele>
        <time>2018-12-02T09:49:34Z</time>
      </trkpt>
      <trkpt lat="43.41001" lon="6.51366">
        <ele>181.5</ele>
        <time>2018-12-02T09:49:44Z</time>
      </trkpt>
      <trkpt lat="43.40996" lon="6.51355">
        <ele>182.2</ele>
        <time>2018-12-02T09:49:56Z</time>
      </trkpt>
      <trkpt lat="43.40988" lon="6.51348">
        <ele>183</ele>
        <time>2018-12-02T09:50:04Z</time>
      </trkpt>
      <trkpt lat="43.40979" lon="6.51353">
        <ele>184</ele>
        <time>2018-12-02T09:50:14Z</time>
      </trkpt>
      <trkpt lat="43.40973" lon="6.51364">
        <ele>184.7</ele>
        <time>2018-12-02T09:50:22Z</time>
      </trkpt>
      <trkpt lat="43.40967" lon="6.51373">
        <ele>185.1</ele>
        <time>2018-12-02T09:50:29Z</time>
      </trkpt>
      <trkpt lat="43.40964" lon="6.51385">
        <ele>186</ele>
        <time>2018-12-02T09:50:39Z</time>
      </trkpt>
      <trkpt lat="43.4096" lon="6.51396">
        <ele>186.8</ele>
        <time>2018-12-02T09:50:49Z</time>
      </trkpt>
      <trkpt lat="43.40953" lon="6.51406">
        <ele>187.7</ele>
        <time>2018-12-02T09:50:59Z</time>
      </trkpt>
      <trkpt lat="43.40944" lon="6.51412">
        <ele>188.3</ele>
        <time>2018-12-02T09:51:09Z</time>
      </trkpt>
      <trkpt lat="43.40935" lon="6.51413">
        <ele>189.1</ele>
        <time>2018-12-02T09:51:19Z</time>
      </trkpt>
      <trkpt lat="43.40926" lon="6.51413">
        <ele>190.2</ele>
        <time>2018-12-02T09:51:33Z</time>
      </trkpt>
      <trkpt lat="43.40917" lon="6.51412">
        <ele>190.9</ele>
        <time>2018-12-02T09:51:46Z</time>
      </trkpt>
      <trkpt lat="43.40907" lon="6.51411">
        <ele>191.7</ele>
        <time>2018-12-02T09:51:55Z</time>
      </trkpt>
      <trkpt lat="43.40898" lon="6.51411">
        <ele>192.6</ele>
        <time>2018-12-02T09:52:04Z</time>
      </trkpt>
      <trkpt lat="43.40889" lon="6.51408">
        <ele>193.4</ele>
        <time>2018-12-02T09:52:14Z</time>
      </trkpt>
      <trkpt lat="43.4088" lon="6.51405">
        <ele>194.2</ele>
        <time>2018-12-02T09:52:26Z</time>
      </trkpt>
      <trkpt lat="43.40871" lon="6.51404">
        <ele>194.9</ele>
        <time>2018-12-02T09:52:35Z</time>
      </trkpt>
      <trkpt lat="43.40861" lon="6.51401">
        <ele>195.8</ele>
        <time>2018-12-02T09:52:46Z</time>
      </trkpt>
      <trkpt lat="43.40853" lon="6.51395">
        <ele>197</ele>
        <time>2018-12-02T09:52:58Z</time>
      </trkpt>
      <trkpt lat="43.40845" lon="6.51389">
        <ele>197.9</ele>
        <time>2018-12-02T09:53:08Z</time>
      </trkpt>
      <trkpt lat="43.40839" lon="6.51379">
        <ele>198.7</ele>
        <time>2018-12-02T09:53:17Z</time>
      </trkpt>
      <trkpt lat="43.40832" lon="6.51371">
        <ele>199.6</ele>
        <time>2018-12-02T09:53:26Z</time>
      </trkpt>
      <trkpt lat="43.40822" lon="6.51369">
        <ele>200.6</ele>
        <time>2018-12-02T09:53:36Z</time>
      </trkpt>
      <trkpt lat="43.40815" lon="6.51376">
        <ele>201.4</ele>
        <time>2018-12-02T09:53:44Z</time>
      </trkpt>
      <trkpt lat="43.40808" lon="6.51385">
        <ele>202</ele>
        <time>2018-12-02T09:53:51Z</time>
      </trkpt>
      <trkpt lat="43.40803" lon="6.51396">
        <ele>202.8</ele>
        <time>2018-12-02T09:54:00Z</time>
      </trkpt>
      <trkpt lat="43.40799" lon="6.51407">
        <ele>203.3</ele>
        <time>2018-12-02T09:54:09Z</time>
      </trkpt>
      <trkpt lat="43.40794" lon="6.51418">
        <ele>203.9</ele>
        <time>2018-12-02T09:54:21Z</time>
      </trkpt>
      <trkpt lat="43.40785" lon="6.51423">
        <ele>205</ele>
        <time>2018-12-02T09:54:48Z</time>
      </trkpt>
      <trkpt lat="43.40776" lon="6.51424">
        <ele>205.2</ele>
        <time>2018-12-02T09:54:55Z</time>
      </trkpt>
      <trkpt lat="43.40767" lon="6.51427">
        <ele>206</ele>
        <time>2018-12-02T09:55:05Z</time>
      </trkpt>
      <trkpt lat="43.40757" lon="6.5143">
        <ele>206.9</ele>
        <time>2018-12-02T09:55:16Z</time>
      </trkpt>
      <trkpt lat="43.40748" lon="6.51436">
        <ele>207.5</ele>
        <time>2018-12-02T09:55:25Z</time>
      </trkpt>
      <trkpt lat="43.40739" lon="6.5144">
        <ele>208.4</ele>
        <time>2018-12-02T09:55:35Z</time>
      </trkpt>
      <trkpt lat="43.40731" lon="6.51445">
        <ele>209.2</ele>
        <time>2018-12-02T09:55:44Z</time>
      </trkpt>
      <trkpt lat="43.40721" lon="6.51449">
        <ele>210.1</ele>
        <time>2018-12-02T09:55:54Z</time>
      </trkpt>
      <trkpt lat="43.40712" lon="6.51453">
        <ele>211</ele>
        <time>2018-12-02T09:56:03Z</time>
      </trkpt>
      <trkpt lat="43.40703" lon="6.51458">
        <ele>212</ele>
        <time>2018-12-02T09:56:13Z</time>
      </trkpt>
      <trkpt lat="43.40694" lon="6.5146">
        <ele>212.8</ele>
        <time>2018-12-02T09:56:22Z</time>
      </trkpt>
      <trkpt lat="43.40685" lon="6.51464">
        <ele>213.6</ele>
        <time>2018-12-02T09:56:31Z</time>
      </trkpt>
      <trkpt lat="43.40678" lon="6.51473">
        <ele>214.3</ele>
        <time>2018-12-02T09:56:40Z</time>
      </trkpt>
      <trkpt lat="43.40672" lon="6.51483">
        <ele>215</ele>
        <time>2018-12-02T09:56:48Z</time>
      </trkpt>
      <trkpt lat="43.40667" lon="6.51493">
        <ele>215.9</ele>
        <time>2018-12-02T09:56:57Z</time>
      </trkpt>
      <trkpt lat="43.4066" lon="6.51501">
        <ele>216.7</ele>
        <time>2018-12-02T09:57:05Z</time>
      </trkpt>
      <trkpt lat="43.40652" lon="6.51509">
        <ele>217.7</ele>
        <time>2018-12-02T09:57:15Z</time>
      </trkpt>
      <trkpt lat="43.40643" lon="6.51515">
        <ele>218.8</ele>
        <time>2018-12-02T09:57:25Z</time>
      </trkpt>
      <trkpt lat="43.40635" lon="6.51522">
        <ele>219.7</ele>
        <time>2018-12-02T09:57:34Z</time>
      </trkpt>
      <trkpt lat="43.40626" lon="6.51527">
        <ele>220.5</ele>
        <time>2018-12-02T09:57:44Z</time>
      </trkpt>
      <trkpt lat="43.40617" lon="6.51531">
        <ele>221.6</ele>
        <time>2018-12-02T09:57:56Z</time>
      </trkpt>
      <trkpt lat="43.40608" lon="6.51535">
        <ele>222.3</ele>
        <time>2018-12-02T09:58:06Z</time>
      </trkpt>
      <trkpt lat="43.40599" lon="6.5154">
        <ele>223.4</ele>
        <time>2018-12-02T09:58:19Z</time>
      </trkpt>
      <trkpt lat="43.4059" lon="6.51542">
        <ele>225.4</ele>
        <time>2018-12-02T09:59:03Z</time>
      </trkpt>
      <trkpt lat="43.40592" lon="6.51529">
        <ele>226.2</ele>
        <time>2018-12-02T09:59:47Z</time>
      </trkpt>
      <trkpt lat="43.40599" lon="6.5152">
        <ele>226.7</ele>
        <time>2018-12-02T09:59:58Z</time>
      </trkpt>
      <trkpt lat="43.40605" lon="6.51511">
        <ele>227.4</ele>
        <time>2018-12-02T10:00:10Z</time>
      </trkpt>
      <trkpt lat="43.40613" lon="6.51502">
        <ele>228.7</ele>
        <time>2018-12-02T10:00:24Z</time>
      </trkpt>
      <trkpt lat="43.4062" lon="6.51494">
        <ele>231.6</ele>
        <time>2018-12-02T10:00:55Z</time>
      </trkpt>
      <trkpt lat="43.40628" lon="6.51487">
        <ele>232.6</ele>
        <time>2018-12-02T10:01:06Z</time>
      </trkpt>
      <trkpt lat="43.40631" lon="6.51475">
        <ele>234.6</ele>
        <time>2018-12-02T10:01:26Z</time>
      </trkpt>
      <trkpt lat="43.40632" lon="6.51462">
        <ele>235.5</ele>
        <time>2018-12-02T10:01:37Z</time>
      </trkpt>
      <trkpt lat="43.40632" lon="6.51449">
        <ele>236.1</ele>
        <time>2018-12-02T10:01:47Z</time>
      </trkpt>
      <trkpt lat="43.40633" lon="6.51436">
        <ele>236.4</ele>
        <time>2018-12-02T10:01:56Z</time>
      </trkpt>
      <trkpt lat="43.40637" lon="6.51425">
        <ele>236.5</ele>
        <time>2018-12-02T10:02:05Z</time>
      </trkpt>
      <trkpt lat="43.40643" lon="6.51415">
        <ele>236.6</ele>
        <time>2018-12-02T10:02:14Z</time>
      </trkpt>
      <trkpt lat="43.40652" lon="6.51409">
        <ele>236.4</ele>
        <time>2018-12-02T10:02:24Z</time>
      </trkpt>
      <trkpt lat="43.4066" lon="6.51403">
        <ele>234.9</ele>
        <time>2018-12-02T10:02:42Z</time>
      </trkpt>
      <trkpt lat="43.40669" lon="6.51397">
        <ele>234.2</ele>
        <time>2018-12-02T10:03:03Z</time>
      </trkpt>
      <trkpt lat="43.40677" lon="6.51389">
        <ele>234</ele>
        <time>2018-12-02T10:03:13Z</time>
      </trkpt>
      <trkpt lat="43.40684" lon="6.51379">
        <ele>233.9</ele>
        <time>2018-12-02T10:03:23Z</time>
      </trkpt>
      <trkpt lat="43.40691" lon="6.5137">
        <ele>233.6</ele>
        <time>2018-12-02T10:03:34Z</time>
      </trkpt>
      <trkpt lat="43.40699" lon="6.51361">
        <ele>233.5</ele>
        <time>2018-12-02T10:03:44Z</time>
      </trkpt>
      <trkpt lat="43.40706" lon="6.51353">
        <ele>233.5</ele>
        <time>2018-12-02T10:03:53Z</time>
      </trkpt>
      <trkpt lat="43.40714" lon="6.51344">
        <ele>233.5</ele>
        <time>2018-12-02T10:04:03Z</time>
      </trkpt>
      <trkpt lat="43.40721" lon="6.51336">
        <ele>233.5</ele>
        <time>2018-12-02T10:04:12Z</time>
      </trkpt>
      <trkpt lat="43.40727" lon="6.51327">
        <ele>233.7</ele>
        <time>2018-12-02T10:04:41Z</time>
      </trkpt>
      <trkpt lat="43.40734" lon="6.51318">
        <ele>233.8</ele>
        <time>2018-12-02T10:04:53Z</time>
      </trkpt>
      <trkpt lat="43.40741" lon="6.51309">
        <ele>233.9</ele>
        <time>2018-12-02T10:05:02Z</time>
      </trkpt>
      <trkpt lat="43.40747" lon="6.51299">
        <ele>234.2</ele>
        <time>2018-12-02T10:05:13Z</time>
      </trkpt>
      <trkpt lat="43.40754" lon="6.5129">
        <ele>234.4</ele>
        <time>2018-12-02T10:05:24Z</time>
      </trkpt>
      <trkpt lat="43.40762" lon="6.51283">
        <ele>234.6</ele>
        <time>2018-12-02T10:05:34Z</time>
      </trkpt>
      <trkpt lat="43.4077" lon="6.51276">
        <ele>234.7</ele>
        <time>2018-12-02T10:05:45Z</time>
      </trkpt>
      <trkpt lat="43.40779" lon="6.5127">
        <ele>234.4</ele>
        <time>2018-12-02T10:05:57Z</time>
      </trkpt>
      <trkpt lat="43.40787" lon="6.51262">
        <ele>234</ele>
        <time>2018-12-02T10:06:06Z</time>
      </trkpt>
      <trkpt lat="43.40794" lon="6.51253">
        <ele>233.7</ele>
        <time>2018-12-02T10:06:16Z</time>
      </trkpt>
      <trkpt lat="43.40802" lon="6.51246">
        <ele>233.5</ele>
        <time>2018-12-02T10:06:25Z</time>
      </trkpt>
      <trkpt lat="43.40809" lon="6.51238">
        <ele>233.5</ele>
        <time>2018-12-02T10:06:34Z</time>
      </trkpt>
      <trkpt lat="43.40815" lon="6.51227">
        <ele>233.5</ele>
        <time>2018-12-02T10:06:44Z</time>
      </trkpt>
      <trkpt lat="43.40814" lon="6.51214">
        <ele>233.6</ele>
        <time>2018-12-02T10:06:53Z</time>
      </trkpt>
      <trkpt lat="43.40809" lon="6.51202">
        <ele>233.7</ele>
        <time>2018-12-02T10:07:02Z</time>
      </trkpt>
      <trkpt lat="43.40807" lon="6.51189">
        <ele>233.8</ele>
        <time>2018-12-02T10:07:11Z</time>
      </trkpt>
      <trkpt lat="43.40807" lon="6.51176">
        <ele>233.8</ele>
        <time>2018-12-02T10:07:21Z</time>
      </trkpt>
      <trkpt lat="43.4081" lon="6.51164">
        <ele>233.5</ele>
        <time>2018-12-02T10:07:30Z</time>
      </trkpt>
      <trkpt lat="43.4081" lon="6.5115">
        <ele>233.1</ele>
        <time>2018-12-02T10:07:39Z</time>
      </trkpt>
      <trkpt lat="43.40808" lon="6.51138">
        <ele>232.5</ele>
        <time>2018-12-02T10:07:50Z</time>
      </trkpt>
      <trkpt lat="43.40803" lon="6.51127">
        <ele>232</ele>
        <time>2018-12-02T10:07:59Z</time>
      </trkpt>
      <trkpt lat="43.40799" lon="6.51116">
        <ele>231.3</ele>
        <time>2018-12-02T10:08:10Z</time>
      </trkpt>
      <trkpt lat="43.408" lon="6.51102">
        <ele>230.1</ele>
        <time>2018-12-02T10:08:21Z</time>
      </trkpt>
      <trkpt lat="43.40806" lon="6.51091">
        <ele>229</ele>
        <time>2018-12-02T10:08:32Z</time>
      </trkpt>
      <trkpt lat="43.40805" lon="6.51078">
        <ele>228</ele>
        <time>2018-12-02T10:08:43Z</time>
      </trkpt>
      <trkpt lat="43.40798" lon="6.51068">
        <ele>227.2</ele>
        <time>2018-12-02T10:08:54Z</time>
      </trkpt>
      <trkpt lat="43.40793" lon="6.51057">
        <ele>226.6</ele>
        <time>2018-12-02T10:09:04Z</time>
      </trkpt>
      <trkpt lat="43.40787" lon="6.51047">
        <ele>226.2</ele>
        <time>2018-12-02T10:09:12Z</time>
      </trkpt>
      <trkpt lat="43.40781" lon="6.51038">
        <ele>225.8</ele>
        <time>2018-12-02T10:09:23Z</time>
      </trkpt>
      <trkpt lat="43.40774" lon="6.51029">
        <ele>226</ele>
        <time>2018-12-02T10:09:34Z</time>
      </trkpt>
      <trkpt lat="43.40777" lon="6.51017">
        <ele>226.8</ele>
        <time>2018-12-02T10:09:58Z</time>
      </trkpt>
      <trkpt lat="43.40786" lon="6.51021">
        <ele>227.6</ele>
        <time>2018-12-02T10:10:10Z</time>
      </trkpt>
      <trkpt lat="43.40796" lon="6.51021">
        <ele>229</ele>
        <time>2018-12-02T10:10:24Z</time>
      </trkpt>
      <trkpt lat="43.40803" lon="6.51013">
        <ele>230.1</ele>
        <time>2018-12-02T10:10:35Z</time>
      </trkpt>
      <trkpt lat="43.4081" lon="6.51004">
        <ele>231.7</ele>
        <time>2018-12-02T10:10:48Z</time>
      </trkpt>
      <trkpt lat="43.40816" lon="6.50995">
        <ele>233.9</ele>
        <time>2018-12-02T10:11:01Z</time>
      </trkpt>
      <trkpt lat="43.40823" lon="6.50986">
        <ele>236.4</ele>
        <time>2018-12-02T10:11:18Z</time>
      </trkpt>
      <trkpt lat="43.4083" lon="6.50979">
        <ele>238.8</ele>
        <time>2018-12-02T10:11:32Z</time>
      </trkpt>
      <trkpt lat="43.40838" lon="6.50972">
        <ele>241</ele>
        <time>2018-12-02T10:11:47Z</time>
      </trkpt>
      <trkpt lat="43.40848" lon="6.5097">
        <ele>242.7</ele>
        <time>2018-12-02T10:11:59Z</time>
      </trkpt>
      <trkpt lat="43.40856" lon="6.50964">
        <ele>244.3</ele>
        <time>2018-12-02T10:12:14Z</time>
      </trkpt>
      <trkpt lat="43.40863" lon="6.50956">
        <ele>245.8</ele>
        <time>2018-12-02T10:12:28Z</time>
      </trkpt>
      <trkpt lat="43.40868" lon="6.50945">
        <ele>247.6</ele>
        <time>2018-12-02T10:12:42Z</time>
      </trkpt>
      <trkpt lat="43.40873" lon="6.50933">
        <ele>248.7</ele>
        <time>2018-12-02T10:12:54Z</time>
      </trkpt>
      <trkpt lat="43.40877" lon="6.50921">
        <ele>249.5</ele>
        <time>2018-12-02T10:13:05Z</time>
      </trkpt>
      <trkpt lat="43.40882" lon="6.50909">
        <ele>250.1</ele>
        <time>2018-12-02T10:13:17Z</time>
      </trkpt>
      <trkpt lat="43.40886" lon="6.50897">
        <ele>250.5</ele>
        <time>2018-12-02T10:13:28Z</time>
      </trkpt>
      <trkpt lat="43.40886" lon="6.50884">
        <ele>250.8</ele>
        <time>2018-12-02T10:13:38Z</time>
      </trkpt>
      <trkpt lat="43.40887" lon="6.50871">
        <ele>251.1</ele>
        <time>2018-12-02T10:13:49Z</time>
      </trkpt>
      <trkpt lat="43.40884" lon="6.50859">
        <ele>251.9</ele>
        <time>2018-12-02T10:14:00Z</time>
      </trkpt>
      <trkpt lat="43.40881" lon="6.50846">
        <ele>252.6</ele>
        <time>2018-12-02T10:14:13Z</time>
      </trkpt>
      <trkpt lat="43.40877" lon="6.50835">
        <ele>253.1</ele>
        <time>2018-12-02T10:14:23Z</time>
      </trkpt>
      <trkpt lat="43.40875" lon="6.50822">
        <ele>253.6</ele>
        <time>2018-12-02T10:14:34Z</time>
      </trkpt>
      <trkpt lat="43.4087" lon="6.50811">
        <ele>254.5</ele>
        <time>2018-12-02T10:14:47Z</time>
      </trkpt>
      <trkpt lat="43.40867" lon="6.50798">
        <ele>255.5</ele>
        <time>2018-12-02T10:15:00Z</time>
      </trkpt>
      <trkpt lat="43.40862" lon="6.50788">
        <ele>257.3</ele>
        <time>2018-12-02T10:15:13Z</time>
      </trkpt>
      <trkpt lat="43.40863" lon="6.50775">
        <ele>259</ele>
        <time>2018-12-02T10:15:26Z</time>
      </trkpt>
      <trkpt lat="43.40872" lon="6.50772">
        <ele>262.2</ele>
        <time>2018-12-02T10:16:35Z</time>
      </trkpt>
      <trkpt lat="43.40878" lon="6.50781">
        <ele>262.7</ele>
        <time>2018-12-02T10:16:47Z</time>
      </trkpt>
      <trkpt lat="43.40886" lon="6.5079">
        <ele>263.6</ele>
        <time>2018-12-02T10:17:00Z</time>
      </trkpt>
      <trkpt lat="43.40893" lon="6.50798">
        <ele>264.6</ele>
        <time>2018-12-02T10:17:13Z</time>
      </trkpt>
      <trkpt lat="43.409" lon="6.50806">
        <ele>265.6</ele>
        <time>2018-12-02T10:17:25Z</time>
      </trkpt>
      <trkpt lat="43.40909" lon="6.50812">
        <ele>266.6</ele>
        <time>2018-12-02T10:17:38Z</time>
      </trkpt>
      <trkpt lat="43.40918" lon="6.50816">
        <ele>268.4</ele>
        <time>2018-12-02T10:17:51Z</time>
      </trkpt>
      <trkpt lat="43.40924" lon="6.50825">
        <ele>270</ele>
        <time>2018-12-02T10:18:03Z</time>
      </trkpt>
      <trkpt lat="43.40931" lon="6.50835">
        <ele>272.1</ele>
        <time>2018-12-02T10:18:17Z</time>
      </trkpt>
      <trkpt lat="43.40937" lon="6.50844">
        <ele>274.2</ele>
        <time>2018-12-02T10:18:31Z</time>
      </trkpt>
      <trkpt lat="43.40943" lon="6.50854">
        <ele>277.1</ele>
        <time>2018-12-02T10:18:47Z</time>
      </trkpt>
      <trkpt lat="43.40949" lon="6.50864">
        <ele>280.1</ele>
        <time>2018-12-02T10:19:03Z</time>
      </trkpt>
      <trkpt lat="43.40955" lon="6.50873">
        <ele>283.5</ele>
        <time>2018-12-02T10:19:21Z</time>
      </trkpt>
      <trkpt lat="43.40963" lon="6.50881">
        <ele>289</ele>
        <time>2018-12-02T10:20:06Z</time>
      </trkpt>
      <trkpt lat="43.4097" lon="6.5089">
        <ele>291</ele>
        <time>2018-12-02T10:20:21Z</time>
      </trkpt>
      <trkpt lat="43.40975" lon="6.50901">
        <ele>292.7</ele>
        <time>2018-12-02T10:20:33Z</time>
      </trkpt>
      <trkpt lat="43.40981" lon="6.5091">
        <ele>295</ele>
        <time>2018-12-02T10:20:46Z</time>
      </trkpt>
      <trkpt lat="43.40985" lon="6.50922">
        <ele>297.1</ele>
        <time>2018-12-02T10:20:59Z</time>
      </trkpt>
      <trkpt lat="43.40989" lon="6.50934">
        <ele>299.5</ele>
        <time>2018-12-02T10:21:12Z</time>
      </trkpt>
      <trkpt lat="43.40993" lon="6.50947">
        <ele>302.8</ele>
        <time>2018-12-02T10:21:36Z</time>
      </trkpt>
      <trkpt lat="43.40998" lon="6.50957">
        <ele>304.3</ele>
        <time>2018-12-02T10:21:47Z</time>
      </trkpt>
      <trkpt lat="43.41005" lon="6.50966">
        <ele>306</ele>
        <time>2018-12-02T10:21:59Z</time>
      </trkpt>
      <trkpt lat="43.4101" lon="6.50977">
        <ele>307.8</ele>
        <time>2018-12-02T10:22:11Z</time>
      </trkpt>
      <trkpt lat="43.41015" lon="6.50988">
        <ele>309.4</ele>
        <time>2018-12-02T10:22:20Z</time>
      </trkpt>
      <trkpt lat="43.41023" lon="6.50993">
        <ele>310.9</ele>
        <time>2018-12-02T10:22:31Z</time>
      </trkpt>
      <trkpt lat="43.41033" lon="6.50994">
        <ele>312.4</ele>
        <time>2018-12-02T10:22:41Z</time>
      </trkpt>
      <trkpt lat="43.41042" lon="6.50994">
        <ele>313.9</ele>
        <time>2018-12-02T10:22:52Z</time>
      </trkpt>
      <trkpt lat="43.41051" lon="6.50997">
        <ele>314.9</ele>
        <time>2018-12-02T10:23:02Z</time>
      </trkpt>
      <trkpt lat="43.4106" lon="6.50996">
        <ele>315.7</ele>
        <time>2018-12-02T10:23:12Z</time>
      </trkpt>
      <trkpt lat="43.4107" lon="6.50997">
        <ele>316.5</ele>
        <time>2018-12-02T10:23:21Z</time>
      </trkpt>
      <trkpt lat="43.41079" lon="6.50999">
        <ele>317.5</ele>
        <time>2018-12-02T10:23:30Z</time>
      </trkpt>
      <trkpt lat="43.41088" lon="6.51002">
        <ele>318.5</ele>
        <time>2018-12-02T10:23:40Z</time>
      </trkpt>
      <trkpt lat="43.41097" lon="6.51003">
        <ele>319.6</ele>
        <time>2018-12-02T10:23:51Z</time>
      </trkpt>
      <trkpt lat="43.41107" lon="6.51001">
        <ele>320.4</ele>
        <time>2018-12-02T10:24:00Z</time>
      </trkpt>
      <trkpt lat="43.41116" lon="6.51005">
        <ele>322</ele>
        <time>2018-12-02T10:24:13Z</time>
      </trkpt>
      <trkpt lat="43.41125" lon="6.51008">
        <ele>323.6</ele>
        <time>2018-12-02T10:24:25Z</time>
      </trkpt>
      <trkpt lat="43.41135" lon="6.51008">
        <ele>325.5</ele>
        <time>2018-12-02T10:24:38Z</time>
      </trkpt>
      <trkpt lat="43.41143" lon="6.51001">
        <ele>327.1</ele>
        <time>2018-12-02T10:24:50Z</time>
      </trkpt>
      <trkpt lat="43.41151" lon="6.51007">
        <ele>330</ele>
        <time>2018-12-02T10:26:36Z</time>
      </trkpt>
      <trkpt lat="43.41159" lon="6.51013">
        <ele>330</ele>
        <time>2018-12-02T10:26:47Z</time>
      </trkpt>
      <trkpt lat="43.41168" lon="6.51013">
        <ele>330.7</ele>
        <time>2018-12-02T10:28:08Z</time>
      </trkpt>
      <trkpt lat="43.41179" lon="6.51016">
        <ele>332</ele>
        <time>2018-12-02T10:28:50Z</time>
      </trkpt>
      <trkpt lat="43.41188" lon="6.51018">
        <ele>333</ele>
        <time>2018-12-02T10:29:11Z</time>
      </trkpt>
      <trkpt lat="43.41197" lon="6.51019">
        <ele>334.2</ele>
        <time>2018-12-02T10:29:57Z</time>
      </trkpt>
      <trkpt lat="43.41206" lon="6.51023">
        <ele>334.4</ele>
        <time>2018-12-02T10:30:08Z</time>
      </trkpt>
      <trkpt lat="43.41215" lon="6.51026">
        <ele>334.5</ele>
        <time>2018-12-02T10:30:20Z</time>
      </trkpt>
      <trkpt lat="43.41224" lon="6.51028">
        <ele>334.5</ele>
        <time>2018-12-02T10:30:31Z</time>
      </trkpt>
      <trkpt lat="43.41234" lon="6.5103">
        <ele>334.6</ele>
        <time>2018-12-02T10:30:44Z</time>
      </trkpt>
      <trkpt lat="43.41244" lon="6.51031">
        <ele>334.7</ele>
        <time>2018-12-02T10:30:55Z</time>
      </trkpt>
      <trkpt lat="43.41253" lon="6.5103">
        <ele>334.8</ele>
        <time>2018-12-02T10:31:06Z</time>
      </trkpt>
      <trkpt lat="43.41263" lon="6.51027">
        <ele>334.8</ele>
        <time>2018-12-02T10:31:17Z</time>
      </trkpt>
      <trkpt lat="43.41272" lon="6.51022">
        <ele>334.2</ele>
        <time>2018-12-02T10:31:30Z</time>
      </trkpt>
      <trkpt lat="43.41281" lon="6.51019">
        <ele>333.5</ele>
        <time>2018-12-02T10:31:41Z</time>
      </trkpt>
      <trkpt lat="43.4129" lon="6.51016">
        <ele>333.1</ele>
        <time>2018-12-02T10:31:49Z</time>
      </trkpt>
      <trkpt lat="43.41299" lon="6.51012">
        <ele>332.7</ele>
        <time>2018-12-02T10:31:58Z</time>
      </trkpt>
      <trkpt lat="43.41308" lon="6.51007">
        <ele>332.5</ele>
        <time>2018-12-02T10:32:08Z</time>
      </trkpt>
      <trkpt lat="43.41317" lon="6.51002">
        <ele>332.4</ele>
        <time>2018-12-02T10:32:18Z</time>
      </trkpt>
      <trkpt lat="43.41325" lon="6.50996">
        <ele>332.4</ele>
        <time>2018-12-02T10:32:28Z</time>
      </trkpt>
      <trkpt lat="43.41333" lon="6.50988">
        <ele>332.1</ele>
        <time>2018-12-02T10:32:37Z</time>
      </trkpt>
      <trkpt lat="43.4134" lon="6.50979">
        <ele>331.6</ele>
        <time>2018-12-02T10:32:46Z</time>
      </trkpt>
      <trkpt lat="43.41347" lon="6.5097">
        <ele>330.6</ele>
        <time>2018-12-02T10:32:56Z</time>
      </trkpt>
      <trkpt lat="43.41355" lon="6.50964">
        <ele>329.5</ele>
        <time>2018-12-02T10:33:08Z</time>
      </trkpt>
      <trkpt lat="43.41358" lon="6.50952">
        <ele>328.9</ele>
        <time>2018-12-02T10:33:19Z</time>
      </trkpt>
      <trkpt lat="43.41361" lon="6.50939">
        <ele>328.4</ele>
        <time>2018-12-02T10:33:30Z</time>
      </trkpt>
      <trkpt lat="43.41364" lon="6.50926">
        <ele>327.5</ele>
        <time>2018-12-02T10:33:40Z</time>
      </trkpt>
      <trkpt lat="43.41369" lon="6.50916">
        <ele>326.5</ele>
        <time>2018-12-02T10:33:49Z</time>
      </trkpt>
      <trkpt lat="43.41373" lon="6.50905">
        <ele>325.7</ele>
        <time>2018-12-02T10:33:57Z</time>
      </trkpt>
      <trkpt lat="43.41378" lon="6.50894">
        <ele>324.9</ele>
        <time>2018-12-02T10:34:05Z</time>
      </trkpt>
      <trkpt lat="43.41384" lon="6.50885">
        <ele>323.7</ele>
        <time>2018-12-02T10:34:14Z</time>
      </trkpt>
      <trkpt lat="43.41391" lon="6.50875">
        <ele>322.4</ele>
        <time>2018-12-02T10:34:24Z</time>
      </trkpt>
      <trkpt lat="43.41398" lon="6.50867">
        <ele>321.2</ele>
        <time>2018-12-02T10:34:34Z</time>
      </trkpt>
      <trkpt lat="43.41405" lon="6.50858">
        <ele>319.8</ele>
        <time>2018-12-02T10:34:46Z</time>
      </trkpt>
      <trkpt lat="43.41411" lon="6.50849">
        <ele>317.4</ele>
        <time>2018-12-02T10:35:12Z</time>
      </trkpt>
      <trkpt lat="43.41419" lon="6.50841">
        <ele>316.6</ele>
        <time>2018-12-02T10:35:22Z</time>
      </trkpt>
      <trkpt lat="43.41427" lon="6.50834">
        <ele>315.8</ele>
        <time>2018-12-02T10:35:31Z</time>
      </trkpt>
      <trkpt lat="43.41435" lon="6.50828">
        <ele>314.5</ele>
        <time>2018-12-02T10:35:41Z</time>
      </trkpt>
      <trkpt lat="43.41444" lon="6.50823">
        <ele>312.5</ele>
        <time>2018-12-02T10:35:52Z</time>
      </trkpt>
      <trkpt lat="43.41452" lon="6.50818">
        <ele>311</ele>
        <time>2018-12-02T10:36:02Z</time>
      </trkpt>
      <trkpt lat="43.41459" lon="6.5081">
        <ele>308.5</ele>
        <time>2018-12-02T10:36:20Z</time>
      </trkpt>
      <trkpt lat="43.41467" lon="6.50804">
        <ele>307.2</ele>
        <time>2018-12-02T10:36:31Z</time>
      </trkpt>
      <trkpt lat="43.41477" lon="6.50802">
        <ele>305.9</ele>
        <time>2018-12-02T10:36:40Z</time>
      </trkpt>
      <trkpt lat="43.41486" lon="6.50797">
        <ele>305</ele>
        <time>2018-12-02T10:36:48Z</time>
      </trkpt>
      <trkpt lat="43.41494" lon="6.50792">
        <ele>304.4</ele>
        <time>2018-12-02T10:36:56Z</time>
      </trkpt>
      <trkpt lat="43.41502" lon="6.50786">
        <ele>303.7</ele>
        <time>2018-12-02T10:37:05Z</time>
      </trkpt>
      <trkpt lat="43.41511" lon="6.50779">
        <ele>303.2</ele>
        <time>2018-12-02T10:37:14Z</time>
      </trkpt>
      <trkpt lat="43.41519" lon="6.50774">
        <ele>302.6</ele>
        <time>2018-12-02T10:37:22Z</time>
      </trkpt>
      <trkpt lat="43.41527" lon="6.50767">
        <ele>300.8</ele>
        <time>2018-12-02T10:37:48Z</time>
      </trkpt>
      <trkpt lat="43.41527" lon="6.5077">
        <ele>300.1</ele>
        <time>2018-12-02T10:39:23Z</time>
      </trkpt>
      <trkpt lat="43.41518" lon="6.50773">
        <ele>299.6</ele>
        <time>2018-12-02T10:43:03Z</time>
      </trkpt>
      <trkpt lat="43.41509" lon="6.50779">
        <ele>300.7</ele>
        <time>2018-12-02T10:43:15Z</time>
      </trkpt>
      <trkpt lat="43.41501" lon="6.50786">
        <ele>301.4</ele>
        <time>2018-12-02T10:43:25Z</time>
      </trkpt>
      <trkpt lat="43.41493" lon="6.50791">
        <ele>302</ele>
        <time>2018-12-02T10:43:33Z</time>
      </trkpt>
      <trkpt lat="43.41483" lon="6.50796">
        <ele>302.4</ele>
        <time>2018-12-02T10:43:42Z</time>
      </trkpt>
      <trkpt lat="43.41475" lon="6.50801">
        <ele>302.7</ele>
        <time>2018-12-02T10:43:51Z</time>
      </trkpt>
      <trkpt lat="43.41466" lon="6.50805">
        <ele>303.3</ele>
        <time>2018-12-02T10:44:00Z</time>
      </trkpt>
      <trkpt lat="43.41456" lon="6.50808">
        <ele>304.7</ele>
        <time>2018-12-02T10:44:11Z</time>
      </trkpt>
      <trkpt lat="43.41448" lon="6.50815">
        <ele>305.9</ele>
        <time>2018-12-02T10:44:20Z</time>
      </trkpt>
      <trkpt lat="43.4144" lon="6.50821">
        <ele>307.6</ele>
        <time>2018-12-02T10:44:31Z</time>
      </trkpt>
      <trkpt lat="43.41432" lon="6.50827">
        <ele>309.2</ele>
        <time>2018-12-02T10:44:41Z</time>
      </trkpt>
      <trkpt lat="43.41424" lon="6.50833">
        <ele>311.5</ele>
        <time>2018-12-02T10:44:54Z</time>
      </trkpt>
      <trkpt lat="43.41416" lon="6.5084">
        <ele>313.3</ele>
        <time>2018-12-02T10:45:05Z</time>
      </trkpt>
      <trkpt lat="43.41411" lon="6.50852">
        <ele>316.2</ele>
        <time>2018-12-02T10:45:32Z</time>
      </trkpt>
      <trkpt lat="43.41403" lon="6.50859">
        <ele>317</ele>
        <time>2018-12-02T10:45:44Z</time>
      </trkpt>
      <trkpt lat="43.41395" lon="6.50867">
        <ele>318.2</ele>
        <time>2018-12-02T10:45:56Z</time>
      </trkpt>
      <trkpt lat="43.41389" lon="6.50876">
        <ele>319.3</ele>
        <time>2018-12-02T10:46:07Z</time>
      </trkpt>
      <trkpt lat="43.41383" lon="6.50885">
        <ele>320.4</ele>
        <time>2018-12-02T10:46:18Z</time>
      </trkpt>
      <trkpt lat="43.41376" lon="6.50895">
        <ele>321.5</ele>
        <time>2018-12-02T10:46:28Z</time>
      </trkpt>
      <trkpt lat="43.4137" lon="6.50904">
        <ele>323.1</ele>
        <time>2018-12-02T10:46:39Z</time>
      </trkpt>
      <trkpt lat="43.41364" lon="6.50915">
        <ele>324.1</ele>
        <time>2018-12-02T10:46:48Z</time>
      </trkpt>
      <trkpt lat="43.4136" lon="6.50928">
        <ele>325.1</ele>
        <time>2018-12-02T10:46:58Z</time>
      </trkpt>
      <trkpt lat="43.41358" lon="6.5094">
        <ele>326.3</ele>
        <time>2018-12-02T10:47:08Z</time>
      </trkpt>
      <trkpt lat="43.41356" lon="6.50953">
        <ele>329.7</ele>
        <time>2018-12-02T10:48:34Z</time>
      </trkpt>
      <trkpt lat="43.41351" lon="6.50963">
        <ele>329.7</ele>
        <time>2018-12-02T10:48:43Z</time>
      </trkpt>
      <trkpt lat="43.41343" lon="6.50969">
        <ele>329.7</ele>
        <time>2018-12-02T10:48:52Z</time>
      </trkpt>
      <trkpt lat="43.41336" lon="6.50976">
        <ele>329.8</ele>
        <time>2018-12-02T10:49:02Z</time>
      </trkpt>
      <trkpt lat="43.41328" lon="6.50985">
        <ele>330.4</ele>
        <time>2018-12-02T10:49:13Z</time>
      </trkpt>
      <trkpt lat="43.4132" lon="6.50991">
        <ele>331.2</ele>
        <time>2018-12-02T10:49:23Z</time>
      </trkpt>
      <trkpt lat="43.41312" lon="6.50997">
        <ele>331.8</ele>
        <time>2018-12-02T10:49:31Z</time>
      </trkpt>
      <trkpt lat="43.41311" lon="6.5101">
        <ele>332.9</ele>
        <time>2018-12-02T10:49:57Z</time>
      </trkpt>
      <trkpt lat="43.41317" lon="6.51021">
        <ele>333.2</ele>
        <time>2018-12-02T10:50:09Z</time>
      </trkpt>
      <trkpt lat="43.41326" lon="6.51021">
        <ele>333.3</ele>
        <time>2018-12-02T10:50:19Z</time>
      </trkpt>
      <trkpt lat="43.41334" lon="6.51028">
        <ele>333.6</ele>
        <time>2018-12-02T10:50:35Z</time>
      </trkpt>
      <trkpt lat="43.41341" lon="6.51036">
        <ele>331.9</ele>
        <time>2018-12-02T10:51:11Z</time>
      </trkpt>
      <trkpt lat="43.41337" lon="6.51025">
        <ele>331.9</ele>
        <time>2018-12-02T11:33:16Z</time>
      </trkpt>
      <trkpt lat="43.41329" lon="6.5102">
        <ele>333.3</ele>
        <time>2018-12-02T11:33:35Z</time>
      </trkpt>
      <trkpt lat="43.41319" lon="6.51021">
        <ele>334.6</ele>
        <time>2018-12-02T11:33:54Z</time>
      </trkpt>
      <trkpt lat="43.41312" lon="6.51013">
        <ele>335.1</ele>
        <time>2018-12-02T11:34:11Z</time>
      </trkpt>
      <trkpt lat="43.41306" lon="6.51003">
        <ele>335.1</ele>
        <time>2018-12-02T11:34:28Z</time>
      </trkpt>
      <trkpt lat="43.41297" lon="6.51006">
        <ele>335</ele>
        <time>2018-12-02T11:34:42Z</time>
      </trkpt>
      <trkpt lat="43.41288" lon="6.51011">
        <ele>334.7</ele>
        <time>2018-12-02T11:35:09Z</time>
      </trkpt>
      <trkpt lat="43.4128" lon="6.51015">
        <ele>334.6</ele>
        <time>2018-12-02T11:35:24Z</time>
      </trkpt>
      <trkpt lat="43.41271" lon="6.51019">
        <ele>334.8</ele>
        <time>2018-12-02T11:35:36Z</time>
      </trkpt>
      <trkpt lat="43.41261" lon="6.5102">
        <ele>335.6</ele>
        <time>2018-12-02T11:35:48Z</time>
      </trkpt>
      <trkpt lat="43.41252" lon="6.51025">
        <ele>336.3</ele>
        <time>2018-12-02T11:36:00Z</time>
      </trkpt>
      <trkpt lat="43.41243" lon="6.51027">
        <ele>336.9</ele>
        <time>2018-12-02T11:36:11Z</time>
      </trkpt>
      <trkpt lat="43.41233" lon="6.51028">
        <ele>337.4</ele>
        <time>2018-12-02T11:36:22Z</time>
      </trkpt>
      <trkpt lat="43.41223" lon="6.5103">
        <ele>337.8</ele>
        <time>2018-12-02T11:36:34Z</time>
      </trkpt>
      <trkpt lat="43.41215" lon="6.51025">
        <ele>338</ele>
        <time>2018-12-02T11:36:43Z</time>
      </trkpt>
      <trkpt lat="43.41208" lon="6.51015">
        <ele>338.1</ele>
        <time>2018-12-02T11:36:52Z</time>
      </trkpt>
      <trkpt lat="43.41207" lon="6.51003">
        <ele>338.1</ele>
        <time>2018-12-02T11:37:03Z</time>
      </trkpt>
      <trkpt lat="43.41213" lon="6.50992">
        <ele>337.9</ele>
        <time>2018-12-02T11:37:14Z</time>
      </trkpt>
      <trkpt lat="43.41219" lon="6.50982">
        <ele>337.8</ele>
        <time>2018-12-02T11:37:24Z</time>
      </trkpt>
      <trkpt lat="43.41224" lon="6.50971">
        <ele>337.7</ele>
        <time>2018-12-02T11:37:35Z</time>
      </trkpt>
      <trkpt lat="43.41231" lon="6.50962">
        <ele>337.6</ele>
        <time>2018-12-02T11:37:45Z</time>
      </trkpt>
      <trkpt lat="43.41237" lon="6.50952">
        <ele>337.5</ele>
        <time>2018-12-02T11:37:57Z</time>
      </trkpt>
      <trkpt lat="43.4124" lon="6.50939">
        <ele>337.6</ele>
        <time>2018-12-02T11:38:07Z</time>
      </trkpt>
      <trkpt lat="43.41238" lon="6.50927">
        <ele>337.6</ele>
        <time>2018-12-02T11:38:16Z</time>
      </trkpt>
      <trkpt lat="43.41234" lon="6.50914">
        <ele>337.6</ele>
        <time>2018-12-02T11:38:24Z</time>
      </trkpt>
      <trkpt lat="43.4123" lon="6.50902">
        <ele>337.5</ele>
        <time>2018-12-02T11:38:32Z</time>
      </trkpt>
      <trkpt lat="43.41225" lon="6.50891">
        <ele>337.2</ele>
        <time>2018-12-02T11:38:40Z</time>
      </trkpt>
      <trkpt lat="43.41222" lon="6.50879">
        <ele>336.7</ele>
        <time>2018-12-02T11:38:50Z</time>
      </trkpt>
      <trkpt lat="43.41224" lon="6.50866">
        <ele>334.9</ele>
        <time>2018-12-02T11:39:10Z</time>
      </trkpt>
      <trkpt lat="43.41231" lon="6.50858">
        <ele>333.9</ele>
        <time>2018-12-02T11:39:29Z</time>
      </trkpt>
      <trkpt lat="43.4123" lon="6.50845">
        <ele>333.1</ele>
        <time>2018-12-02T11:39:42Z</time>
      </trkpt>
      <trkpt lat="43.41228" lon="6.50833">
        <ele>332.2</ele>
        <time>2018-12-02T11:39:55Z</time>
      </trkpt>
      <trkpt lat="43.41225" lon="6.5082">
        <ele>331.1</ele>
        <time>2018-12-02T11:40:09Z</time>
      </trkpt>
      <trkpt lat="43.41222" lon="6.50809">
        <ele>329.9</ele>
        <time>2018-12-02T11:40:29Z</time>
      </trkpt>
      <trkpt lat="43.41221" lon="6.50796">
        <ele>328.9</ele>
        <time>2018-12-02T11:40:45Z</time>
      </trkpt>
      <trkpt lat="43.41215" lon="6.50786">
        <ele>328</ele>
        <time>2018-12-02T11:40:55Z</time>
      </trkpt>
      <trkpt lat="43.41215" lon="6.50772">
        <ele>327</ele>
        <time>2018-12-02T11:41:08Z</time>
      </trkpt>
      <trkpt lat="43.41215" lon="6.5076">
        <ele>326</ele>
        <time>2018-12-02T11:41:18Z</time>
      </trkpt>
      <trkpt lat="43.41215" lon="6.50746">
        <ele>324.7</ele>
        <time>2018-12-02T11:41:29Z</time>
      </trkpt>
      <trkpt lat="43.41213" lon="6.50733">
        <ele>323.5</ele>
        <time>2018-12-02T11:41:39Z</time>
      </trkpt>
      <trkpt lat="43.41212" lon="6.5072">
        <ele>322</ele>
        <time>2018-12-02T11:41:49Z</time>
      </trkpt>
      <trkpt lat="43.41218" lon="6.5071">
        <ele>320.6</ele>
        <time>2018-12-02T11:42:00Z</time>
      </trkpt>
      <trkpt lat="43.41217" lon="6.50697">
        <ele>318.7</ele>
        <time>2018-12-02T11:42:26Z</time>
      </trkpt>
      <trkpt lat="43.41216" lon="6.50685">
        <ele>317.7</ele>
        <time>2018-12-02T11:42:41Z</time>
      </trkpt>
      <trkpt lat="43.41214" lon="6.50673">
        <ele>316.5</ele>
        <time>2018-12-02T11:42:54Z</time>
      </trkpt>
      <trkpt lat="43.41209" lon="6.5066">
        <ele>315.3</ele>
        <time>2018-12-02T11:43:05Z</time>
      </trkpt>
      <trkpt lat="43.41213" lon="6.50648">
        <ele>313.9</ele>
        <time>2018-12-02T11:43:19Z</time>
      </trkpt>
      <trkpt lat="43.41216" lon="6.50635">
        <ele>310.2</ele>
        <time>2018-12-02T11:47:02Z</time>
      </trkpt>
      <trkpt lat="43.4122" lon="6.50623">
        <ele>310</ele>
        <time>2018-12-02T11:47:14Z</time>
      </trkpt>
      <trkpt lat="43.41224" lon="6.50611">
        <ele>309.5</ele>
        <time>2018-12-02T11:47:26Z</time>
      </trkpt>
      <trkpt lat="43.41226" lon="6.50598">
        <ele>308.6</ele>
        <time>2018-12-02T11:47:39Z</time>
      </trkpt>
      <trkpt lat="43.41226" lon="6.50585">
        <ele>307.4</ele>
        <time>2018-12-02T11:47:52Z</time>
      </trkpt>
      <trkpt lat="43.41227" lon="6.50572">
        <ele>306</ele>
        <time>2018-12-02T11:48:05Z</time>
      </trkpt>
      <trkpt lat="43.41226" lon="6.50559">
        <ele>304.5</ele>
        <time>2018-12-02T11:48:17Z</time>
      </trkpt>
      <trkpt lat="43.41227" lon="6.50546">
        <ele>303.3</ele>
        <time>2018-12-02T11:48:30Z</time>
      </trkpt>
      <trkpt lat="43.41231" lon="6.50534">
        <ele>302</ele>
        <time>2018-12-02T11:48:46Z</time>
      </trkpt>
      <trkpt lat="43.41236" lon="6.50523">
        <ele>300.1</ele>
        <time>2018-12-02T11:49:02Z</time>
      </trkpt>
      <trkpt lat="43.41239" lon="6.50512">
        <ele>298.2</ele>
        <time>2018-12-02T11:49:20Z</time>
      </trkpt>
      <trkpt lat="43.41244" lon="6.50501">
        <ele>297.3</ele>
        <time>2018-12-02T11:49:31Z</time>
      </trkpt>
      <trkpt lat="43.41249" lon="6.50488">
        <ele>296.4</ele>
        <time>2018-12-02T11:49:37Z</time>
      </trkpt>
      <trkpt lat="43.41254" lon="6.50476">
        <ele>295.7</ele>
        <time>2018-12-02T11:49:42Z</time>
      </trkpt>
      <trkpt lat="43.4126" lon="6.50465">
        <ele>294.7</ele>
        <time>2018-12-02T11:49:49Z</time>
      </trkpt>
      <trkpt lat="43.41265" lon="6.50453">
        <ele>294.1</ele>
        <time>2018-12-02T11:49:55Z</time>
      </trkpt>
      <trkpt lat="43.41267" lon="6.50441">
        <ele>293.6</ele>
        <time>2018-12-02T11:50:00Z</time>
      </trkpt>
      <trkpt lat="43.41268" lon="6.50428">
        <ele>292.8</ele>
        <time>2018-12-02T11:50:05Z</time>
      </trkpt>
      <trkpt lat="43.41269" lon="6.50414">
        <ele>291.7</ele>
        <time>2018-12-02T11:50:11Z</time>
      </trkpt>
      <trkpt lat="43.41266" lon="6.504">
        <ele>290.6</ele>
        <time>2018-12-02T11:50:17Z</time>
      </trkpt>
      <trkpt lat="43.41264" lon="6.50388">
        <ele>289.3</ele>
        <time>2018-12-02T11:50:25Z</time>
      </trkpt>
      <trkpt lat="43.4126" lon="6.50376">
        <ele>287.7</ele>
        <time>2018-12-02T11:50:39Z</time>
      </trkpt>
      <trkpt lat="43.41259" lon="6.50362">
        <ele>286.6</ele>
        <time>2018-12-02T11:50:47Z</time>
      </trkpt>
      <trkpt lat="43.41256" lon="6.50349">
        <ele>285.6</ele>
        <time>2018-12-02T11:50:53Z</time>
      </trkpt>
      <trkpt lat="43.41256" lon="6.50336">
        <ele>284.4</ele>
        <time>2018-12-02T11:51:01Z</time>
      </trkpt>
      <trkpt lat="43.41257" lon="6.50323">
        <ele>283</ele>
        <time>2018-12-02T11:51:10Z</time>
      </trkpt>
      <trkpt lat="43.41255" lon="6.50308">
        <ele>280.6</ele>
        <time>2018-12-02T11:51:26Z</time>
      </trkpt>
      <trkpt lat="43.41256" lon="6.50294">
        <ele>279.2</ele>
        <time>2018-12-02T11:51:36Z</time>
      </trkpt>
      <trkpt lat="43.41257" lon="6.50282">
        <ele>277.6</ele>
        <time>2018-12-02T11:51:43Z</time>
      </trkpt>
      <trkpt lat="43.41257" lon="6.50269">
        <ele>276.3</ele>
        <time>2018-12-02T11:51:50Z</time>
      </trkpt>
      <trkpt lat="43.41256" lon="6.50256">
        <ele>274.4</ele>
        <time>2018-12-02T11:51:57Z</time>
      </trkpt>
      <trkpt lat="43.41254" lon="6.50244">
        <ele>272.3</ele>
        <time>2018-12-02T11:52:06Z</time>
      </trkpt>
      <trkpt lat="43.41254" lon="6.50231">
        <ele>269.3</ele>
        <time>2018-12-02T11:52:28Z</time>
      </trkpt>
      <trkpt lat="43.41258" lon="6.50218">
        <ele>267.5</ele>
        <time>2018-12-02T11:52:38Z</time>
      </trkpt>
      <trkpt lat="43.41258" lon="6.50205">
        <ele>265.7</ele>
        <time>2018-12-02T11:52:47Z</time>
      </trkpt>
      <trkpt lat="43.41261" lon="6.50192">
        <ele>263.8</ele>
        <time>2018-12-02T11:52:57Z</time>
      </trkpt>
      <trkpt lat="43.41264" lon="6.50179">
        <ele>262.4</ele>
        <time>2018-12-02T11:53:06Z</time>
      </trkpt>
      <trkpt lat="43.41268" lon="6.50166">
        <ele>261.2</ele>
        <time>2018-12-02T11:53:18Z</time>
      </trkpt>
      <trkpt lat="43.41269" lon="6.50153">
        <ele>260.1</ele>
        <time>2018-12-02T11:53:27Z</time>
      </trkpt>
      <trkpt lat="43.41269" lon="6.50139">
        <ele>258.7</ele>
        <time>2018-12-02T11:53:37Z</time>
      </trkpt>
      <trkpt lat="43.41268" lon="6.50126">
        <ele>257.6</ele>
        <time>2018-12-02T11:53:44Z</time>
      </trkpt>
      <trkpt lat="43.41265" lon="6.50114">
        <ele>256.3</ele>
        <time>2018-12-02T11:53:53Z</time>
      </trkpt>
      <trkpt lat="43.41262" lon="6.50101">
        <ele>255.2</ele>
        <time>2018-12-02T11:54:01Z</time>
      </trkpt>
      <trkpt lat="43.41258" lon="6.50089">
        <ele>254</ele>
        <time>2018-12-02T11:54:11Z</time>
      </trkpt>
      <trkpt lat="43.41254" lon="6.50078">
        <ele>252.8</ele>
        <time>2018-12-02T11:54:20Z</time>
      </trkpt>
      <trkpt lat="43.4125" lon="6.50065">
        <ele>251.4</ele>
        <time>2018-12-02T11:54:29Z</time>
      </trkpt>
      <trkpt lat="43.41246" lon="6.50053">
        <ele>250.1</ele>
        <time>2018-12-02T11:54:37Z</time>
      </trkpt>
      <trkpt lat="43.41243" lon="6.50041">
        <ele>248.5</ele>
        <time>2018-12-02T11:54:48Z</time>
      </trkpt>
      <trkpt lat="43.41239" lon="6.50029">
        <ele>247.4</ele>
        <time>2018-12-02T11:54:55Z</time>
      </trkpt>
      <trkpt lat="43.41236" lon="6.50016">
        <ele>246.1</ele>
        <time>2018-12-02T11:55:03Z</time>
      </trkpt>
      <trkpt lat="43.41232" lon="6.50005">
        <ele>245.2</ele>
        <time>2018-12-02T11:55:10Z</time>
      </trkpt>
      <trkpt lat="43.41228" lon="6.49993">
        <ele>244.3</ele>
        <time>2018-12-02T11:55:17Z</time>
      </trkpt>
      <trkpt lat="43.41226" lon="6.4998">
        <ele>241.5</ele>
        <time>2018-12-02T11:58:28Z</time>
      </trkpt>
      <trkpt lat="43.41223" lon="6.49967">
        <ele>241.5</ele>
        <time>2018-12-02T11:58:38Z</time>
      </trkpt>
      <trkpt lat="43.41222" lon="6.49954">
        <ele>241.3</ele>
        <time>2018-12-02T11:58:47Z</time>
      </trkpt>
      <trkpt lat="43.41218" lon="6.49942">
        <ele>240.6</ele>
        <time>2018-12-02T11:59:21Z</time>
      </trkpt>
      <trkpt lat="43.41212" lon="6.49932">
        <ele>239.5</ele>
        <time>2018-12-02T12:01:57Z</time>
      </trkpt>
      <trkpt lat="43.41209" lon="6.49921">
        <ele>239</ele>
        <time>2018-12-02T12:02:06Z</time>
      </trkpt>
      <trkpt lat="43.41205" lon="6.49909">
        <ele>238.1</ele>
        <time>2018-12-02T12:02:16Z</time>
      </trkpt>
      <trkpt lat="43.41201" lon="6.49897">
        <ele>237</ele>
        <time>2018-12-02T12:02:26Z</time>
      </trkpt>
      <trkpt lat="43.41197" lon="6.49885">
        <ele>235.6</ele>
        <time>2018-12-02T12:02:42Z</time>
      </trkpt>
      <trkpt lat="43.41181" lon="6.49855">
        <ele>229</ele>
        <time>2018-12-02T12:03:41Z</time>
      </trkpt>
      <trkpt lat="43.41177" lon="6.49844">
        <ele>228.6</ele>
        <time>2018-12-02T12:03:50Z</time>
      </trkpt>
      <trkpt lat="43.41174" lon="6.49832">
        <ele>227.7</ele>
        <time>2018-12-02T12:04:02Z</time>
      </trkpt>
      <trkpt lat="43.41171" lon="6.4982">
        <ele>226.4</ele>
        <time>2018-12-02T12:04:17Z</time>
      </trkpt>
      <trkpt lat="43.41171" lon="6.49807">
        <ele>225.3</ele>
        <time>2018-12-02T12:04:27Z</time>
      </trkpt>
      <trkpt lat="43.41169" lon="6.49794">
        <ele>223.9</ele>
        <time>2018-12-02T12:04:39Z</time>
      </trkpt>
      <trkpt lat="43.41167" lon="6.49782">
        <ele>221.8</ele>
        <time>2018-12-02T12:04:52Z</time>
      </trkpt>
      <trkpt lat="43.41164" lon="6.4977">
        <ele>219.7</ele>
        <time>2018-12-02T12:05:09Z</time>
      </trkpt>
      <trkpt lat="43.41158" lon="6.4976">
        <ele>216.8</ele>
        <time>2018-12-02T12:05:26Z</time>
      </trkpt>
      <trkpt lat="43.41151" lon="6.49751">
        <ele>215.1</ele>
        <time>2018-12-02T12:05:36Z</time>
      </trkpt>
      <trkpt lat="43.41146" lon="6.4974">
        <ele>213.4</ele>
        <time>2018-12-02T12:05:46Z</time>
      </trkpt>
      <trkpt lat="43.41141" lon="6.4973">
        <ele>211.9</ele>
        <time>2018-12-02T12:05:56Z</time>
      </trkpt>
      <trkpt lat="43.41138" lon="6.49716">
        <ele>210.7</ele>
        <time>2018-12-02T12:06:06Z</time>
      </trkpt>
      <trkpt lat="43.41136" lon="6.49702">
        <ele>209.5</ele>
        <time>2018-12-02T12:06:16Z</time>
      </trkpt>
      <trkpt lat="43.41145" lon="6.49701">
        <ele>207.6</ele>
        <time>2018-12-02T12:06:34Z</time>
      </trkpt>
      <trkpt lat="43.41154" lon="6.49707">
        <ele>206.4</ele>
        <time>2018-12-02T12:06:52Z</time>
      </trkpt>
      <trkpt lat="43.41161" lon="6.49716">
        <ele>205.8</ele>
        <time>2018-12-02T12:07:06Z</time>
      </trkpt>
      <trkpt lat="43.41167" lon="6.49725">
        <ele>205.2</ele>
        <time>2018-12-02T12:07:22Z</time>
      </trkpt>
      <trkpt lat="43.41174" lon="6.49734">
        <ele>204.7</ele>
        <time>2018-12-02T12:07:32Z</time>
      </trkpt>
      <trkpt lat="43.41182" lon="6.4974">
        <ele>204.3</ele>
        <time>2018-12-02T12:07:44Z</time>
      </trkpt>
      <trkpt lat="43.41188" lon="6.4975">
        <ele>204.1</ele>
        <time>2018-12-02T12:07:58Z</time>
      </trkpt>
      <trkpt lat="43.41194" lon="6.49758">
        <ele>204</ele>
        <time>2018-12-02T12:08:08Z</time>
      </trkpt>
      <trkpt lat="43.41201" lon="6.49767">
        <ele>203.9</ele>
        <time>2018-12-02T12:08:19Z</time>
      </trkpt>
      <trkpt lat="43.41207" lon="6.49777">
        <ele>203.6</ele>
        <time>2018-12-02T12:08:26Z</time>
      </trkpt>
      <trkpt lat="43.41216" lon="6.49783">
        <ele>203.5</ele>
        <time>2018-12-02T12:08:34Z</time>
      </trkpt>
      <trkpt lat="43.41226" lon="6.49782">
        <ele>203.3</ele>
        <time>2018-12-02T12:08:41Z</time>
      </trkpt>
      <trkpt lat="43.41235" lon="6.4978">
        <ele>203.2</ele>
        <time>2018-12-02T12:08:50Z</time>
      </trkpt>
      <trkpt lat="43.41244" lon="6.49775">
        <ele>202.9</ele>
        <time>2018-12-02T12:08:58Z</time>
      </trkpt>
      <trkpt lat="43.41253" lon="6.49772">
        <ele>202.6</ele>
        <time>2018-12-02T12:09:10Z</time>
      </trkpt>
      <trkpt lat="43.41262" lon="6.49775">
        <ele>201.9</ele>
        <time>2018-12-02T12:09:25Z</time>
      </trkpt>
      <trkpt lat="43.4127" lon="6.49781">
        <ele>201.4</ele>
        <time>2018-12-02T12:09:36Z</time>
      </trkpt>
      <trkpt lat="43.41279" lon="6.49783">
        <ele>200.9</ele>
        <time>2018-12-02T12:09:47Z</time>
      </trkpt>
      <trkpt lat="43.41289" lon="6.49787">
        <ele>200.7</ele>
        <time>2018-12-02T12:09:57Z</time>
      </trkpt>
      <trkpt lat="43.41295" lon="6.49798">
        <ele>200.6</ele>
        <time>2018-12-02T12:10:09Z</time>
      </trkpt>
      <trkpt lat="43.413" lon="6.49809">
        <ele>200.5</ele>
        <time>2018-12-02T12:10:21Z</time>
      </trkpt>
      <trkpt lat="43.41305" lon="6.49819">
        <ele>200.4</ele>
        <time>2018-12-02T12:10:29Z</time>
      </trkpt>
      <trkpt lat="43.41309" lon="6.49831">
        <ele>200.3</ele>
        <time>2018-12-02T12:10:42Z</time>
      </trkpt>
      <trkpt lat="43.41309" lon="6.49844">
        <ele>200.2</ele>
        <time>2018-12-02T12:10:51Z</time>
      </trkpt>
      <trkpt lat="43.4131" lon="6.49857">
        <ele>200.1</ele>
        <time>2018-12-02T12:11:02Z</time>
      </trkpt>
      <trkpt lat="43.41314" lon="6.49868">
        <ele>199.9</ele>
        <time>2018-12-02T12:11:13Z</time>
      </trkpt>
      <trkpt lat="43.41315" lon="6.49882">
        <ele>199.4</ele>
        <time>2018-12-02T12:11:22Z</time>
      </trkpt>
      <trkpt lat="43.41316" lon="6.49895">
        <ele>199.2</ele>
        <time>2018-12-02T12:11:29Z</time>
      </trkpt>
      <trkpt lat="43.41318" lon="6.49907">
        <ele>199.1</ele>
        <time>2018-12-02T12:11:39Z</time>
      </trkpt>
      <trkpt lat="43.41324" lon="6.49918">
        <ele>198.9</ele>
        <time>2018-12-02T12:11:51Z</time>
      </trkpt>
      <trkpt lat="43.41322" lon="6.49932">
        <ele>198.9</ele>
        <time>2018-12-02T12:12:00Z</time>
      </trkpt>
      <trkpt lat="43.41324" lon="6.49944">
        <ele>198.9</ele>
        <time>2018-12-02T12:12:07Z</time>
      </trkpt>
      <trkpt lat="43.41327" lon="6.49956">
        <ele>198.7</ele>
        <time>2018-12-02T12:12:16Z</time>
      </trkpt>
      <trkpt lat="43.41333" lon="6.49967">
        <ele>198.6</ele>
        <time>2018-12-02T12:12:25Z</time>
      </trkpt>
      <trkpt lat="43.41338" lon="6.49978">
        <ele>198.4</ele>
        <time>2018-12-02T12:12:31Z</time>
      </trkpt>
      <trkpt lat="43.41345" lon="6.49988">
        <ele>198.2</ele>
        <time>2018-12-02T12:12:42Z</time>
      </trkpt>
      <trkpt lat="43.41351" lon="6.49998">
        <ele>198</ele>
        <time>2018-12-02T12:12:54Z</time>
      </trkpt>
      <trkpt lat="43.41361" lon="6.5">
        <ele>197.8</ele>
        <time>2018-12-02T12:13:02Z</time>
      </trkpt>
      <trkpt lat="43.4137" lon="6.5">
        <ele>197.7</ele>
        <time>2018-12-02T12:13:08Z</time>
      </trkpt>
      <trkpt lat="43.41379" lon="6.5">
        <ele>197.6</ele>
        <time>2018-12-02T12:13:14Z</time>
      </trkpt>
      <trkpt lat="43.41388" lon="6.50004">
        <ele>197.3</ele>
        <time>2018-12-02T12:13:24Z</time>
      </trkpt>
      <trkpt lat="43.41396" lon="6.50013">
        <ele>197.1</ele>
        <time>2018-12-02T12:13:36Z</time>
      </trkpt>
      <trkpt lat="43.41399" lon="6.50026">
        <ele>197</ele>
        <time>2018-12-02T12:13:43Z</time>
      </trkpt>
      <trkpt lat="43.41398" lon="6.50039">
        <ele>196.9</ele>
        <time>2018-12-02T12:13:58Z</time>
      </trkpt>
      <trkpt lat="43.41396" lon="6.50052">
        <ele>196.9</ele>
        <time>2018-12-02T12:14:08Z</time>
      </trkpt>
      <trkpt lat="43.41393" lon="6.50064">
        <ele>196.8</ele>
        <time>2018-12-02T12:14:15Z</time>
      </trkpt>
      <trkpt lat="43.41401" lon="6.50071">
        <ele>196.7</ele>
        <time>2018-12-02T12:14:24Z</time>
      </trkpt>
      <trkpt lat="43.4141" lon="6.50072">
        <ele>196.6</ele>
        <time>2018-12-02T12:14:36Z</time>
      </trkpt>
      <trkpt lat="43.4142" lon="6.50071">
        <ele>196.1</ele>
        <time>2018-12-02T12:14:44Z</time>
      </trkpt>
      <trkpt lat="43.4143" lon="6.50071">
        <ele>195.8</ele>
        <time>2018-12-02T12:14:50Z</time>
      </trkpt>
      <trkpt lat="43.41439" lon="6.5007">
        <ele>195.4</ele>
        <time>2018-12-02T12:14:58Z</time>
      </trkpt>
      <trkpt lat="43.41448" lon="6.5007">
        <ele>195.1</ele>
        <time>2018-12-02T12:15:06Z</time>
      </trkpt>
      <trkpt lat="43.41457" lon="6.50074">
        <ele>194.7</ele>
        <time>2018-12-02T12:15:18Z</time>
      </trkpt>
      <trkpt lat="43.41461" lon="6.50084">
        <ele>194.5</ele>
        <time>2018-12-02T12:15:26Z</time>
      </trkpt>
      <trkpt lat="43.41468" lon="6.50094">
        <ele>194.4</ele>
        <time>2018-12-02T12:15:37Z</time>
      </trkpt>
      <trkpt lat="43.41471" lon="6.50106">
        <ele>194.4</ele>
        <time>2018-12-02T12:15:47Z</time>
      </trkpt>
      <trkpt lat="43.41477" lon="6.50117">
        <ele>194.3</ele>
        <time>2018-12-02T12:16:00Z</time>
      </trkpt>
      <trkpt lat="43.41483" lon="6.50128">
        <ele>194.3</ele>
        <time>2018-12-02T12:16:10Z</time>
      </trkpt>
      <trkpt lat="43.41487" lon="6.50139">
        <ele>194.1</ele>
        <time>2018-12-02T12:16:22Z</time>
      </trkpt>
      <trkpt lat="43.41495" lon="6.50147">
        <ele>194</ele>
        <time>2018-12-02T12:16:37Z</time>
      </trkpt>
      <trkpt lat="43.415" lon="6.50157">
        <ele>193.8</ele>
        <time>2018-12-02T12:16:48Z</time>
      </trkpt>
      <trkpt lat="43.41508" lon="6.50166">
        <ele>193.8</ele>
        <time>2018-12-02T12:16:58Z</time>
      </trkpt>
      <trkpt lat="43.41514" lon="6.50177">
        <ele>193.5</ele>
        <time>2018-12-02T12:17:09Z</time>
      </trkpt>
      <trkpt lat="43.41517" lon="6.50189">
        <ele>193.2</ele>
        <time>2018-12-02T12:17:20Z</time>
      </trkpt>
      <trkpt lat="43.41518" lon="6.50202">
        <ele>193.1</ele>
        <time>2018-12-02T12:17:30Z</time>
      </trkpt>
      <trkpt lat="43.41525" lon="6.50211">
        <ele>192.8</ele>
        <time>2018-12-02T12:17:40Z</time>
      </trkpt>
      <trkpt lat="43.41534" lon="6.50216">
        <ele>192.5</ele>
        <time>2018-12-02T12:17:50Z</time>
      </trkpt>
      <trkpt lat="43.41541" lon="6.50224">
        <ele>192.4</ele>
        <time>2018-12-02T12:17:58Z</time>
      </trkpt>
      <trkpt lat="43.41544" lon="6.50236">
        <ele>192.3</ele>
        <time>2018-12-02T12:18:08Z</time>
      </trkpt>
      <trkpt lat="43.41544" lon="6.50249">
        <ele>192.2</ele>
        <time>2018-12-02T12:18:20Z</time>
      </trkpt>
      <trkpt lat="43.41547" lon="6.5025">
        <ele>180.2</ele>
        <time>2018-12-02T12:47:24Z</time>
      </trkpt>
      <trkpt lat="43.41552" lon="6.50261">
        <ele>180.3</ele>
        <time>2018-12-02T12:47:34Z</time>
      </trkpt>
      <trkpt lat="43.41559" lon="6.50271">
        <ele>180.4</ele>
        <time>2018-12-02T12:47:39Z</time>
      </trkpt>
      <trkpt lat="43.41564" lon="6.50282">
        <ele>180.3</ele>
        <time>2018-12-02T12:47:50Z</time>
      </trkpt>
      <trkpt lat="43.41568" lon="6.50294">
        <ele>180.3</ele>
        <time>2018-12-02T12:47:59Z</time>
      </trkpt>
      <trkpt lat="43.41576" lon="6.50289">
        <ele>180.1</ele>
        <time>2018-12-02T12:48:12Z</time>
      </trkpt>
      <trkpt lat="43.41579" lon="6.50276">
        <ele>180</ele>
        <time>2018-12-02T12:48:23Z</time>
      </trkpt>
      <trkpt lat="43.41578" lon="6.50263">
        <ele>179.9</ele>
        <time>2018-12-02T12:48:33Z</time>
      </trkpt>
      <trkpt lat="43.41578" lon="6.5025">
        <ele>179.8</ele>
        <time>2018-12-02T12:48:42Z</time>
      </trkpt>
      <trkpt lat="43.4158" lon="6.50237">
        <ele>179.7</ele>
        <time>2018-12-02T12:48:50Z</time>
      </trkpt>
      <trkpt lat="43.41581" lon="6.50224">
        <ele>179.7</ele>
        <time>2018-12-02T12:48:58Z</time>
      </trkpt>
      <trkpt lat="43.41585" lon="6.50212">
        <ele>180</ele>
        <time>2018-12-02T12:49:07Z</time>
      </trkpt>
      <trkpt lat="43.41588" lon="6.502">
        <ele>180.2</ele>
        <time>2018-12-02T12:49:18Z</time>
      </trkpt>
      <trkpt lat="43.4159" lon="6.50187">
        <ele>180.5</ele>
        <time>2018-12-02T12:49:28Z</time>
      </trkpt>
      <trkpt lat="43.41586" lon="6.50174">
        <ele>180.8</ele>
        <time>2018-12-02T12:49:37Z</time>
      </trkpt>
      <trkpt lat="43.41582" lon="6.50162">
        <ele>181.1</ele>
        <time>2018-12-02T12:49:44Z</time>
      </trkpt>
      <trkpt lat="43.41581" lon="6.5015">
        <ele>181.4</ele>
        <time>2018-12-02T12:49:54Z</time>
      </trkpt>
      <trkpt lat="43.41581" lon="6.50137">
        <ele>181.7</ele>
        <time>2018-12-02T12:50:04Z</time>
      </trkpt>
      <trkpt lat="43.41578" lon="6.50125">
        <ele>182.3</ele>
        <time>2018-12-02T12:50:19Z</time>
      </trkpt>
      <trkpt lat="43.41582" lon="6.50113">
        <ele>182.8</ele>
        <time>2018-12-02T12:50:32Z</time>
      </trkpt>
      <trkpt lat="43.41583" lon="6.50101">
        <ele>182.9</ele>
        <time>2018-12-02T12:50:41Z</time>
      </trkpt>
      <trkpt lat="43.41587" lon="6.50088">
        <ele>183.1</ele>
        <time>2018-12-02T12:50:48Z</time>
      </trkpt>
      <trkpt lat="43.41585" lon="6.50075">
        <ele>183.2</ele>
        <time>2018-12-02T12:50:56Z</time>
      </trkpt>
      <trkpt lat="43.41586" lon="6.50061">
        <ele>183.5</ele>
        <time>2018-12-02T12:51:06Z</time>
      </trkpt>
      <trkpt lat="43.41588" lon="6.50048">
        <ele>183.7</ele>
        <time>2018-12-02T12:51:16Z</time>
      </trkpt>
      <trkpt lat="43.41591" lon="6.50036">
        <ele>183.8</ele>
        <time>2018-12-02T12:51:25Z</time>
      </trkpt>
      <trkpt lat="43.41594" lon="6.50023">
        <ele>184.2</ele>
        <time>2018-12-02T12:51:35Z</time>
      </trkpt>
      <trkpt lat="43.41603" lon="6.50021">
        <ele>184.6</ele>
        <time>2018-12-02T12:51:45Z</time>
      </trkpt>
      <trkpt lat="43.41611" lon="6.50028">
        <ele>184.8</ele>
        <time>2018-12-02T12:51:54Z</time>
      </trkpt>
      <trkpt lat="43.41618" lon="6.50035">
        <ele>184.9</ele>
        <time>2018-12-02T12:52:04Z</time>
      </trkpt>
      <trkpt lat="43.41625" lon="6.50044">
        <ele>184.9</ele>
        <time>2018-12-02T12:52:14Z</time>
      </trkpt>
      <trkpt lat="43.41632" lon="6.50053">
        <ele>184.8</ele>
        <time>2018-12-02T12:52:23Z</time>
      </trkpt>
      <trkpt lat="43.41639" lon="6.50062">
        <ele>184.8</ele>
        <time>2018-12-02T12:52:31Z</time>
      </trkpt>
      <trkpt lat="43.41647" lon="6.50068">
        <ele>184.8</ele>
        <time>2018-12-02T12:52:40Z</time>
      </trkpt>
      <trkpt lat="43.41656" lon="6.50076">
        <ele>184.9</ele>
        <time>2018-12-02T12:52:49Z</time>
      </trkpt>
      <trkpt lat="43.41665" lon="6.50081">
        <ele>184.9</ele>
        <time>2018-12-02T12:52:57Z</time>
      </trkpt>
      <trkpt lat="43.41674" lon="6.50087">
        <ele>184.9</ele>
        <time>2018-12-02T12:53:07Z</time>
      </trkpt>
      <trkpt lat="43.41681" lon="6.50095">
        <ele>184.9</ele>
        <time>2018-12-02T12:53:16Z</time>
      </trkpt>
      <trkpt lat="43.4169" lon="6.50098">
        <ele>184.9</ele>
        <time>2018-12-02T12:53:25Z</time>
      </trkpt>
      <trkpt lat="43.41698" lon="6.50106">
        <ele>184.9</ele>
        <time>2018-12-02T12:53:33Z</time>
      </trkpt>
      <trkpt lat="43.41705" lon="6.50114">
        <ele>185</ele>
        <time>2018-12-02T12:53:41Z</time>
      </trkpt>
      <trkpt lat="43.41711" lon="6.50124">
        <ele>185.1</ele>
        <time>2018-12-02T12:53:50Z</time>
      </trkpt>
      <trkpt lat="43.41716" lon="6.50136">
        <ele>185.2</ele>
        <time>2018-12-02T12:53:59Z</time>
      </trkpt>
      <trkpt lat="43.4172" lon="6.50148">
        <ele>185.3</ele>
        <time>2018-12-02T12:54:10Z</time>
      </trkpt>
      <trkpt lat="43.41725" lon="6.50159">
        <ele>185.3</ele>
        <time>2018-12-02T12:54:20Z</time>
      </trkpt>
      <trkpt lat="43.41728" lon="6.50173">
        <ele>185.3</ele>
        <time>2018-12-02T12:54:27Z</time>
      </trkpt>
      <trkpt lat="43.41736" lon="6.50181">
        <ele>185.3</ele>
        <time>2018-12-02T12:54:36Z</time>
      </trkpt>
      <trkpt lat="43.41745" lon="6.50184">
        <ele>185.3</ele>
        <time>2018-12-02T12:54:45Z</time>
      </trkpt>
      <trkpt lat="43.41754" lon="6.50189">
        <ele>185.4</ele>
        <time>2018-12-02T12:54:54Z</time>
      </trkpt>
      <trkpt lat="43.41762" lon="6.50196">
        <ele>185.4</ele>
        <time>2018-12-02T12:55:04Z</time>
      </trkpt>
      <trkpt lat="43.41769" lon="6.50203">
        <ele>185.5</ele>
        <time>2018-12-02T12:55:12Z</time>
      </trkpt>
      <trkpt lat="43.41778" lon="6.50208">
        <ele>185.5</ele>
        <time>2018-12-02T12:55:21Z</time>
      </trkpt>
      <trkpt lat="43.41788" lon="6.50208">
        <ele>185.7</ele>
        <time>2018-12-02T12:55:30Z</time>
      </trkpt>
      <trkpt lat="43.41796" lon="6.50214">
        <ele>185.8</ele>
        <time>2018-12-02T12:55:40Z</time>
      </trkpt>
      <trkpt lat="43.41805" lon="6.50215">
        <ele>185.9</ele>
        <time>2018-12-02T12:55:49Z</time>
      </trkpt>
      <trkpt lat="43.41814" lon="6.50218">
        <ele>186.1</ele>
        <time>2018-12-02T12:56:00Z</time>
      </trkpt>
      <trkpt lat="43.4182" lon="6.50228">
        <ele>186.2</ele>
        <time>2018-12-02T12:56:34Z</time>
      </trkpt>
      <trkpt lat="43.41826" lon="6.50239">
        <ele>186.2</ele>
        <time>2018-12-02T12:56:48Z</time>
      </trkpt>
      <trkpt lat="43.41834" lon="6.50243">
        <ele>186.2</ele>
        <time>2018-12-02T12:56:58Z</time>
      </trkpt>
      <trkpt lat="43.41843" lon="6.50249">
        <ele>186.1</ele>
        <time>2018-12-02T12:57:06Z</time>
      </trkpt>
      <trkpt lat="43.41852" lon="6.50255">
        <ele>186</ele>
        <time>2018-12-02T12:57:20Z</time>
      </trkpt>
      <trkpt lat="43.4186" lon="6.50249">
        <ele>186</ele>
        <time>2018-12-02T12:57:28Z</time>
      </trkpt>
      <trkpt lat="43.41869" lon="6.50245">
        <ele>185.9</ele>
        <time>2018-12-02T12:57:36Z</time>
      </trkpt>
      <trkpt lat="43.41878" lon="6.50239">
        <ele>186.2</ele>
        <time>2018-12-02T12:57:45Z</time>
      </trkpt>
      <trkpt lat="43.41889" lon="6.50244">
        <ele>186.4</ele>
        <time>2018-12-02T12:57:54Z</time>
      </trkpt>
      <trkpt lat="43.41896" lon="6.50251">
        <ele>186.4</ele>
        <time>2018-12-02T12:57:57Z</time>
      </trkpt>
      <trkpt lat="43.41898" lon="6.50265">
        <ele>186.5</ele>
        <time>2018-12-02T12:58:08Z</time>
      </trkpt>
      <trkpt lat="43.41895" lon="6.50277">
        <ele>186.5</ele>
        <time>2018-12-02T12:58:17Z</time>
      </trkpt>
      <trkpt lat="43.41898" lon="6.50294">
        <ele>186.4</ele>
        <time>2018-12-02T12:58:27Z</time>
      </trkpt>
      <trkpt lat="43.41906" lon="6.50299">
        <ele>186.4</ele>
        <time>2018-12-02T12:58:33Z</time>
      </trkpt>
      <trkpt lat="43.41915" lon="6.50298">
        <ele>186.3</ele>
        <time>2018-12-02T12:58:44Z</time>
      </trkpt>
      <trkpt lat="43.41924" lon="6.50298">
        <ele>186.1</ele>
        <time>2018-12-02T12:58:59Z</time>
      </trkpt>
      <trkpt lat="43.41933" lon="6.50304">
        <ele>185.7</ele>
        <time>2018-12-02T12:59:09Z</time>
      </trkpt>
      <trkpt lat="43.4194" lon="6.50311">
        <ele>185.4</ele>
        <time>2018-12-02T12:59:19Z</time>
      </trkpt>
      <trkpt lat="43.41946" lon="6.50321">
        <ele>185.1</ele>
        <time>2018-12-02T12:59:29Z</time>
      </trkpt>
      <trkpt lat="43.41954" lon="6.50328">
        <ele>184.7</ele>
        <time>2018-12-02T12:59:40Z</time>
      </trkpt>
      <trkpt lat="43.4196" lon="6.50338">
        <ele>184.4</ele>
        <time>2018-12-02T12:59:58Z</time>
      </trkpt>
      <trkpt lat="43.41969" lon="6.50346">
        <ele>183.7</ele>
        <time>2018-12-02T13:01:02Z</time>
      </trkpt>
      <trkpt lat="43.41973" lon="6.50335">
        <ele>183.4</ele>
        <time>2018-12-02T13:01:12Z</time>
      </trkpt>
      <trkpt lat="43.41974" lon="6.50319">
        <ele>183.3</ele>
        <time>2018-12-02T13:01:21Z</time>
      </trkpt>
      <trkpt lat="43.41974" lon="6.50307">
        <ele>183.3</ele>
        <time>2018-12-02T13:01:35Z</time>
      </trkpt>
      <trkpt lat="43.41969" lon="6.50295">
        <ele>183.4</ele>
        <time>2018-12-02T13:01:49Z</time>
      </trkpt>
      <trkpt lat="43.41967" lon="6.50283">
        <ele>183.5</ele>
        <time>2018-12-02T13:01:59Z</time>
      </trkpt>
      <trkpt lat="43.41966" lon="6.5027">
        <ele>183.5</ele>
        <time>2018-12-02T13:02:09Z</time>
      </trkpt>
      <trkpt lat="43.41964" lon="6.50257">
        <ele>183.5</ele>
        <time>2018-12-02T13:02:20Z</time>
      </trkpt>
      <trkpt lat="43.41964" lon="6.50244">
        <ele>183.5</ele>
        <time>2018-12-02T13:02:28Z</time>
      </trkpt>
      <trkpt lat="43.41963" lon="6.5023">
        <ele>183.7</ele>
        <time>2018-12-02T13:02:46Z</time>
      </trkpt>
      <trkpt lat="43.41962" lon="6.50217">
        <ele>183.8</ele>
        <time>2018-12-02T13:02:56Z</time>
      </trkpt>
      <trkpt lat="43.41961" lon="6.50203">
        <ele>184</ele>
        <time>2018-12-02T13:03:06Z</time>
      </trkpt>
      <trkpt lat="43.41959" lon="6.5019">
        <ele>184.1</ele>
        <time>2018-12-02T13:03:15Z</time>
      </trkpt>
      <trkpt lat="43.41957" lon="6.50178">
        <ele>184.2</ele>
        <time>2018-12-02T13:03:24Z</time>
      </trkpt>
      <trkpt lat="43.41958" lon="6.50164">
        <ele>184.4</ele>
        <time>2018-12-02T13:03:36Z</time>
      </trkpt>
      <trkpt lat="43.41958" lon="6.50151">
        <ele>184.5</ele>
        <time>2018-12-02T13:03:44Z</time>
      </trkpt>
      <trkpt lat="43.4196" lon="6.50139">
        <ele>184.6</ele>
        <time>2018-12-02T13:03:52Z</time>
      </trkpt>
      <trkpt lat="43.41964" lon="6.50126">
        <ele>184.6</ele>
        <time>2018-12-02T13:04:01Z</time>
      </trkpt>
      <trkpt lat="43.41972" lon="6.50115">
        <ele>184.3</ele>
        <time>2018-12-02T13:25:18Z</time>
      </trkpt>
      <trkpt lat="43.41978" lon="6.50104">
        <ele>184.1</ele>
        <time>2018-12-02T13:26:03Z</time>
      </trkpt>
      <trkpt lat="43.41984" lon="6.50095">
        <ele>182</ele>
        <time>2018-12-02T13:26:20Z</time>
      </trkpt>
      <trkpt lat="43.4199" lon="6.50085">
        <ele>179.7</ele>
        <time>2018-12-02T13:26:35Z</time>
      </trkpt>
      <trkpt lat="43.41998" lon="6.50079">
        <ele>177.4</ele>
        <time>2018-12-02T13:26:47Z</time>
      </trkpt>
      <trkpt lat="43.42006" lon="6.50073">
        <ele>173.9</ele>
        <time>2018-12-02T13:27:05Z</time>
      </trkpt>
      <trkpt lat="43.42015" lon="6.50074">
        <ele>171.8</ele>
        <time>2018-12-02T13:27:20Z</time>
      </trkpt>
      <trkpt lat="43.42024" lon="6.50071">
        <ele>168.9</ele>
        <time>2018-12-02T13:27:36Z</time>
      </trkpt>
      <trkpt lat="43.42033" lon="6.50066">
        <ele>167</ele>
        <time>2018-12-02T13:27:48Z</time>
      </trkpt>
      <trkpt lat="43.42028" lon="6.50078">
        <ele>163.5</ele>
        <time>2018-12-02T13:28:59Z</time>
      </trkpt>
      <trkpt lat="43.42027" lon="6.50092">
        <ele>163.4</ele>
        <time>2018-12-02T13:29:08Z</time>
      </trkpt>
      <trkpt lat="43.42036" lon="6.50095">
        <ele>163.3</ele>
        <time>2018-12-02T13:29:17Z</time>
      </trkpt>
      <trkpt lat="43.42039" lon="6.50108">
        <ele>163.2</ele>
        <time>2018-12-02T13:29:26Z</time>
      </trkpt>
      <trkpt lat="43.4205" lon="6.50103">
        <ele>163.1</ele>
        <time>2018-12-02T13:29:32Z</time>
      </trkpt>
      <trkpt lat="43.4206" lon="6.50103">
        <ele>163.1</ele>
        <time>2018-12-02T13:29:37Z</time>
      </trkpt>
      <trkpt lat="43.42073" lon="6.50102">
        <ele>163</ele>
        <time>2018-12-02T13:29:43Z</time>
      </trkpt>
      <trkpt lat="43.4208" lon="6.50095">
        <ele>162.4</ele>
        <time>2018-12-02T13:30:11Z</time>
      </trkpt>
      <trkpt lat="43.42079" lon="6.50081">
        <ele>162.1</ele>
        <time>2018-12-02T13:30:18Z</time>
      </trkpt>
      <trkpt lat="43.42082" lon="6.50069">
        <ele>161.7</ele>
        <time>2018-12-02T13:30:27Z</time>
      </trkpt>
      <trkpt lat="43.42089" lon="6.50061">
        <ele>161.3</ele>
        <time>2018-12-02T13:30:39Z</time>
      </trkpt>
      <trkpt lat="43.42097" lon="6.50054">
        <ele>160.8</ele>
        <time>2018-12-02T13:30:47Z</time>
      </trkpt>
      <trkpt lat="43.42107" lon="6.50048">
        <ele>160.4</ele>
        <time>2018-12-02T13:30:58Z</time>
      </trkpt>
      <trkpt lat="43.42113" lon="6.50039">
        <ele>160</ele>
        <time>2018-12-02T13:31:08Z</time>
      </trkpt>
      <trkpt lat="43.42119" lon="6.5003">
        <ele>159.5</ele>
        <time>2018-12-02T13:31:16Z</time>
      </trkpt>
      <trkpt lat="43.42128" lon="6.50024">
        <ele>159.2</ele>
        <time>2018-12-02T13:31:22Z</time>
      </trkpt>
      <trkpt lat="43.42135" lon="6.50015">
        <ele>158.5</ele>
        <time>2018-12-02T13:31:33Z</time>
      </trkpt>
      <trkpt lat="43.42144" lon="6.50015">
        <ele>158</ele>
        <time>2018-12-02T13:31:44Z</time>
      </trkpt>
      <trkpt lat="43.42151" lon="6.50025">
        <ele>157.6</ele>
        <time>2018-12-02T13:31:56Z</time>
      </trkpt>
      <trkpt lat="43.42158" lon="6.50035">
        <ele>157.4</ele>
        <time>2018-12-02T13:32:05Z</time>
      </trkpt>
      <trkpt lat="43.4216" lon="6.50048">
        <ele>157.2</ele>
        <time>2018-12-02T13:32:12Z</time>
      </trkpt>
      <trkpt lat="43.42167" lon="6.50057">
        <ele>156.6</ele>
        <time>2018-12-02T13:32:23Z</time>
      </trkpt>
      <trkpt lat="43.42173" lon="6.50066">
        <ele>156.3</ele>
        <time>2018-12-02T13:32:32Z</time>
      </trkpt>
      <trkpt lat="43.42176" lon="6.50078">
        <ele>156</ele>
        <time>2018-12-02T13:32:40Z</time>
      </trkpt>
      <trkpt lat="43.42182" lon="6.50088">
        <ele>155.8</ele>
        <time>2018-12-02T13:32:49Z</time>
      </trkpt>
      <trkpt lat="43.42192" lon="6.50094">
        <ele>155.7</ele>
        <time>2018-12-02T13:33:00Z</time>
      </trkpt>
      <trkpt lat="43.422" lon="6.501">
        <ele>155.6</ele>
        <time>2018-12-02T13:33:07Z</time>
      </trkpt>
      <trkpt lat="43.42206" lon="6.50109">
        <ele>155.4</ele>
        <time>2018-12-02T13:33:15Z</time>
      </trkpt>
      <trkpt lat="43.42214" lon="6.50117">
        <ele>155.3</ele>
        <time>2018-12-02T13:33:23Z</time>
      </trkpt>
      <trkpt lat="43.42222" lon="6.50124">
        <ele>155.2</ele>
        <time>2018-12-02T13:33:31Z</time>
      </trkpt>
      <trkpt lat="43.42231" lon="6.50127">
        <ele>155.2</ele>
        <time>2018-12-02T13:33:38Z</time>
      </trkpt>
      <trkpt lat="43.42239" lon="6.50134">
        <ele>154.9</ele>
        <time>2018-12-02T13:33:53Z</time>
      </trkpt>
      <trkpt lat="43.42247" lon="6.50142">
        <ele>154.8</ele>
        <time>2018-12-02T13:34:02Z</time>
      </trkpt>
      <trkpt lat="43.42249" lon="6.50155">
        <ele>154.8</ele>
        <time>2018-12-02T13:34:09Z</time>
      </trkpt>
      <trkpt lat="43.42256" lon="6.50163">
        <ele>154.8</ele>
        <time>2018-12-02T13:34:16Z</time>
      </trkpt>
      <trkpt lat="43.42258" lon="6.50176">
        <ele>154.8</ele>
        <time>2018-12-02T13:34:24Z</time>
      </trkpt>
      <trkpt lat="43.42262" lon="6.50188">
        <ele>154.7</ele>
        <time>2018-12-02T13:34:56Z</time>
      </trkpt>
      <trkpt lat="43.42269" lon="6.50197">
        <ele>154.7</ele>
        <time>2018-12-02T13:35:33Z</time>
      </trkpt>
      <trkpt lat="43.42269" lon="6.5021">
        <ele>154.7</ele>
        <time>2018-12-02T13:35:57Z</time>
      </trkpt>
      <trkpt lat="43.42269" lon="6.50224">
        <ele>154.7</ele>
        <time>2018-12-02T13:36:10Z</time>
      </trkpt>
      <trkpt lat="43.42274" lon="6.50235">
        <ele>154.7</ele>
        <time>2018-12-02T13:36:29Z</time>
      </trkpt>
      <trkpt lat="43.42282" lon="6.50244">
        <ele>154.7</ele>
        <time>2018-12-02T13:36:37Z</time>
      </trkpt>
      <trkpt lat="43.42283" lon="6.50258">
        <ele>154.6</ele>
        <time>2018-12-02T13:36:58Z</time>
      </trkpt>
      <trkpt lat="43.42279" lon="6.50271">
        <ele>154.4</ele>
        <time>2018-12-02T13:37:09Z</time>
      </trkpt>
      <trkpt lat="43.42287" lon="6.50278">
        <ele>154.3</ele>
        <time>2018-12-02T13:37:24Z</time>
      </trkpt>
      <trkpt lat="43.42285" lon="6.50291">
        <ele>154</ele>
        <time>2018-12-02T13:37:37Z</time>
      </trkpt>
      <trkpt lat="43.42292" lon="6.50301">
        <ele>153.9</ele>
        <time>2018-12-02T13:37:49Z</time>
      </trkpt>
      <trkpt lat="43.42296" lon="6.50313">
        <ele>153.8</ele>
        <time>2018-12-02T13:37:59Z</time>
      </trkpt>
      <trkpt lat="43.42298" lon="6.50325">
        <ele>153.7</ele>
        <time>2018-12-02T13:38:09Z</time>
      </trkpt>
      <trkpt lat="43.423" lon="6.50339">
        <ele>153.5</ele>
        <time>2018-12-02T13:38:19Z</time>
      </trkpt>
      <trkpt lat="43.42306" lon="6.50347">
        <ele>152.9</ele>
        <time>2018-12-02T13:38:38Z</time>
      </trkpt>
      <trkpt lat="43.42315" lon="6.50343">
        <ele>152.8</ele>
        <time>2018-12-02T13:38:43Z</time>
      </trkpt>
      <trkpt lat="43.42321" lon="6.50343">
        <ele>152.5</ele>
        <time>2018-12-02T13:39:17Z</time>
      </trkpt>
      <trkpt lat="43.42327" lon="6.50333">
        <ele>152.4</ele>
        <time>2018-12-02T13:39:24Z</time>
      </trkpt>
      <trkpt lat="43.42335" lon="6.50327">
        <ele>152.1</ele>
        <time>2018-12-02T13:39:34Z</time>
      </trkpt>
      <trkpt lat="43.4234" lon="6.50315">
        <ele>151.8</ele>
        <time>2018-12-02T13:39:42Z</time>
      </trkpt>
      <trkpt lat="43.42339" lon="6.50302">
        <ele>151.6</ele>
        <time>2018-12-02T13:39:49Z</time>
      </trkpt>
      <trkpt lat="43.42339" lon="6.50288">
        <ele>151.1</ele>
        <time>2018-12-02T13:39:57Z</time>
      </trkpt>
      <trkpt lat="43.42344" lon="6.50277">
        <ele>150.7</ele>
        <time>2018-12-02T13:40:04Z</time>
      </trkpt>
      <trkpt lat="43.42351" lon="6.50268">
        <ele>150.2</ele>
        <time>2018-12-02T13:40:15Z</time>
      </trkpt>
      <trkpt lat="43.42359" lon="6.50262">
        <ele>148.9</ele>
        <time>2018-12-02T13:43:08Z</time>
      </trkpt>
      <trkpt lat="43.42366" lon="6.50254">
        <ele>148.8</ele>
        <time>2018-12-02T13:43:27Z</time>
      </trkpt>
      <trkpt lat="43.42373" lon="6.50244">
        <ele>148.5</ele>
        <time>2018-12-02T13:43:40Z</time>
      </trkpt>
      <trkpt lat="43.42377" lon="6.50233">
        <ele>148.3</ele>
        <time>2018-12-02T13:43:49Z</time>
      </trkpt>
      <trkpt lat="43.42376" lon="6.5022">
        <ele>148</ele>
        <time>2018-12-02T13:43:59Z</time>
      </trkpt>
      <trkpt lat="43.42378" lon="6.50207">
        <ele>147.8</ele>
        <time>2018-12-02T13:44:07Z</time>
      </trkpt>
      <trkpt lat="43.42382" lon="6.50195">
        <ele>147.8</ele>
        <time>2018-12-02T13:44:15Z</time>
      </trkpt>
      <trkpt lat="43.42385" lon="6.50183">
        <ele>147.7</ele>
        <time>2018-12-02T13:44:22Z</time>
      </trkpt>
      <trkpt lat="43.42389" lon="6.50171">
        <ele>147.5</ele>
        <time>2018-12-02T13:44:30Z</time>
      </trkpt>
      <trkpt lat="43.42392" lon="6.50158">
        <ele>147.3</ele>
        <time>2018-12-02T13:44:40Z</time>
      </trkpt>
      <trkpt lat="43.42395" lon="6.50145">
        <ele>147</ele>
        <time>2018-12-02T13:44:49Z</time>
      </trkpt>
      <trkpt lat="43.42395" lon="6.50131">
        <ele>146.8</ele>
        <time>2018-12-02T13:44:57Z</time>
      </trkpt>
      <trkpt lat="43.42398" lon="6.50119">
        <ele>146.7</ele>
        <time>2018-12-02T13:45:08Z</time>
      </trkpt>
      <trkpt lat="43.42401" lon="6.50107">
        <ele>146.7</ele>
        <time>2018-12-02T13:45:16Z</time>
      </trkpt>
      <trkpt lat="43.42411" lon="6.501">
        <ele>146.5</ele>
        <time>2018-12-02T13:45:24Z</time>
      </trkpt>
      <trkpt lat="43.4242" lon="6.50103">
        <ele>146.2</ele>
        <time>2018-12-02T13:45:30Z</time>
      </trkpt>
      <trkpt lat="43.42429" lon="6.50105">
        <ele>145.7</ele>
        <time>2018-12-02T13:45:39Z</time>
      </trkpt>
      <trkpt lat="43.42438" lon="6.50109">
        <ele>145.1</ele>
        <time>2018-12-02T13:45:48Z</time>
      </trkpt>
      <trkpt lat="43.42447" lon="6.50115">
        <ele>144.2</ele>
        <time>2018-12-02T13:46:06Z</time>
      </trkpt>
      <trkpt lat="43.42455" lon="6.50123">
        <ele>143.8</ele>
        <time>2018-12-02T13:46:17Z</time>
      </trkpt>
      <trkpt lat="43.42463" lon="6.5013">
        <ele>143.3</ele>
        <time>2018-12-02T13:46:25Z</time>
      </trkpt>
      <trkpt lat="43.42471" lon="6.50137">
        <ele>142.6</ele>
        <time>2018-12-02T13:46:36Z</time>
      </trkpt>
      <trkpt lat="43.4248" lon="6.5014">
        <ele>141.9</ele>
        <time>2018-12-02T13:46:49Z</time>
      </trkpt>
      <trkpt lat="43.4249" lon="6.5014">
        <ele>141.5</ele>
        <time>2018-12-02T13:47:01Z</time>
      </trkpt>
      <trkpt lat="43.42497" lon="6.50147">
        <ele>141.1</ele>
        <time>2018-12-02T13:47:10Z</time>
      </trkpt>
      <trkpt lat="43.42503" lon="6.50158">
        <ele>140.9</ele>
        <time>2018-12-02T13:47:19Z</time>
      </trkpt>
      <trkpt lat="43.42507" lon="6.5017">
        <ele>140.5</ele>
        <time>2018-12-02T13:47:28Z</time>
      </trkpt>
      <trkpt lat="43.42511" lon="6.50182">
        <ele>140.2</ele>
        <time>2018-12-02T13:47:36Z</time>
      </trkpt>
      <trkpt lat="43.42514" lon="6.50194">
        <ele>140</ele>
        <time>2018-12-02T13:47:44Z</time>
      </trkpt>
      <trkpt lat="43.42522" lon="6.50202">
        <ele>139.5</ele>
        <time>2018-12-02T13:47:54Z</time>
      </trkpt>
      <trkpt lat="43.42529" lon="6.50209">
        <ele>139.3</ele>
        <time>2018-12-02T13:48:01Z</time>
      </trkpt>
      <trkpt lat="43.42536" lon="6.5022">
        <ele>138.8</ele>
        <time>2018-12-02T13:48:13Z</time>
      </trkpt>
      <trkpt lat="43.42543" lon="6.50228">
        <ele>138.4</ele>
        <time>2018-12-02T13:48:23Z</time>
      </trkpt>
      <trkpt lat="43.42552" lon="6.50229">
        <ele>138.2</ele>
        <time>2018-12-02T13:48:30Z</time>
      </trkpt>
      <trkpt lat="43.42562" lon="6.5023">
        <ele>137.8</ele>
        <time>2018-12-02T13:48:38Z</time>
      </trkpt>
      <trkpt lat="43.42571" lon="6.5023">
        <ele>136.9</ele>
        <time>2018-12-02T13:48:49Z</time>
      </trkpt>
      <trkpt lat="43.4258" lon="6.5023">
        <ele>136.3</ele>
        <time>2018-12-02T13:49:01Z</time>
      </trkpt>
      <trkpt lat="43.4259" lon="6.50233">
        <ele>135.9</ele>
        <time>2018-12-02T13:49:14Z</time>
      </trkpt>
      <trkpt lat="43.42598" lon="6.5024">
        <ele>135.8</ele>
        <time>2018-12-02T13:49:25Z</time>
      </trkpt>
      <trkpt lat="43.42604" lon="6.5025">
        <ele>135.4</ele>
        <time>2018-12-02T13:49:41Z</time>
      </trkpt>
      <trkpt lat="43.42603" lon="6.50263">
        <ele>134.6</ele>
        <time>2018-12-02T13:49:51Z</time>
      </trkpt>
      <trkpt lat="43.42599" lon="6.50274">
        <ele>133.9</ele>
        <time>2018-12-02T13:50:01Z</time>
      </trkpt>
      <trkpt lat="43.42594" lon="6.50286">
        <ele>133.3</ele>
        <time>2018-12-02T13:50:09Z</time>
      </trkpt>
      <trkpt lat="43.42593" lon="6.50299">
        <ele>132.7</ele>
        <time>2018-12-02T13:50:20Z</time>
      </trkpt>
      <trkpt lat="43.42597" lon="6.5031">
        <ele>132.2</ele>
        <time>2018-12-02T13:50:28Z</time>
      </trkpt>
      <trkpt lat="43.42602" lon="6.50321">
        <ele>131.9</ele>
        <time>2018-12-02T13:50:37Z</time>
      </trkpt>
      <trkpt lat="43.42608" lon="6.5033">
        <ele>131.6</ele>
        <time>2018-12-02T13:50:46Z</time>
      </trkpt>
      <trkpt lat="43.42616" lon="6.50339">
        <ele>131</ele>
        <time>2018-12-02T13:50:56Z</time>
      </trkpt>
      <trkpt lat="43.42625" lon="6.50345">
        <ele>130.8</ele>
        <time>2018-12-02T13:51:04Z</time>
      </trkpt>
      <trkpt lat="43.42633" lon="6.50351">
        <ele>130.2</ele>
        <time>2018-12-02T13:51:13Z</time>
      </trkpt>
      <trkpt lat="43.42641" lon="6.50358">
        <ele>129.6</ele>
        <time>2018-12-02T13:51:23Z</time>
      </trkpt>
      <trkpt lat="43.42648" lon="6.50367">
        <ele>128.7</ele>
        <time>2018-12-02T13:51:36Z</time>
      </trkpt>
      <trkpt lat="43.42655" lon="6.50376">
        <ele>128.2</ele>
        <time>2018-12-02T13:51:47Z</time>
      </trkpt>
      <trkpt lat="43.42662" lon="6.50385">
        <ele>128</ele>
        <time>2018-12-02T13:51:56Z</time>
      </trkpt>
      <trkpt lat="43.42667" lon="6.50396">
        <ele>127.9</ele>
        <time>2018-12-02T13:52:04Z</time>
      </trkpt>
      <trkpt lat="43.42669" lon="6.50408">
        <ele>127.6</ele>
        <time>2018-12-02T13:52:13Z</time>
      </trkpt>
      <trkpt lat="43.4267" lon="6.50421">
        <ele>127.2</ele>
        <time>2018-12-02T13:52:24Z</time>
      </trkpt>
      <trkpt lat="43.42675" lon="6.50433">
        <ele>126.7</ele>
        <time>2018-12-02T13:52:34Z</time>
      </trkpt>
      <trkpt lat="43.42681" lon="6.50443">
        <ele>126.1</ele>
        <time>2018-12-02T13:52:41Z</time>
      </trkpt>
      <trkpt lat="43.4268" lon="6.50456">
        <ele>125.4</ele>
        <time>2018-12-02T13:52:50Z</time>
      </trkpt>
      <trkpt lat="43.42682" lon="6.50469">
        <ele>124.7</ele>
        <time>2018-12-02T13:53:00Z</time>
      </trkpt>
      <trkpt lat="43.42685" lon="6.50482">
        <ele>124</ele>
        <time>2018-12-02T13:53:10Z</time>
      </trkpt>
      <trkpt lat="43.42693" lon="6.50488">
        <ele>123.7</ele>
        <time>2018-12-02T13:53:18Z</time>
      </trkpt>
      <trkpt lat="43.42702" lon="6.50495">
        <ele>123.2</ele>
        <time>2018-12-02T13:53:28Z</time>
      </trkpt>
      <trkpt lat="43.42708" lon="6.50506">
        <ele>122.4</ele>
        <time>2018-12-02T13:53:38Z</time>
      </trkpt>
      <trkpt lat="43.42717" lon="6.50512">
        <ele>121.9</ele>
        <time>2018-12-02T13:53:44Z</time>
      </trkpt>
      <trkpt lat="43.42722" lon="6.50525">
        <ele>121.1</ele>
        <time>2018-12-02T13:53:53Z</time>
      </trkpt>
      <trkpt lat="43.42729" lon="6.50533">
        <ele>120.6</ele>
        <time>2018-12-02T13:54:01Z</time>
      </trkpt>
      <trkpt lat="43.42738" lon="6.50536">
        <ele>119.8</ele>
        <time>2018-12-02T13:54:11Z</time>
      </trkpt>
      <trkpt lat="43.42749" lon="6.50535">
        <ele>118.2</ele>
        <time>2018-12-02T13:54:54Z</time>
      </trkpt>
      <trkpt lat="43.42758" lon="6.50531">
        <ele>118</ele>
        <time>2018-12-02T13:55:03Z</time>
      </trkpt>
      <trkpt lat="43.42767" lon="6.50525">
        <ele>117.5</ele>
        <time>2018-12-02T13:55:15Z</time>
      </trkpt>
      <trkpt lat="43.42777" lon="6.50524">
        <ele>117</ele>
        <time>2018-12-02T13:55:23Z</time>
      </trkpt>
      <trkpt lat="43.42787" lon="6.50528">
        <ele>116.4</ele>
        <time>2018-12-02T13:55:31Z</time>
      </trkpt>
      <trkpt lat="43.42796" lon="6.50532">
        <ele>115.9</ele>
        <time>2018-12-02T13:55:40Z</time>
      </trkpt>
      <trkpt lat="43.42804" lon="6.50537">
        <ele>115.4</ele>
        <time>2018-12-02T13:55:51Z</time>
      </trkpt>
      <trkpt lat="43.42813" lon="6.5054">
        <ele>114.7</ele>
        <time>2018-12-02T13:55:59Z</time>
      </trkpt>
      <trkpt lat="43.42822" lon="6.50544">
        <ele>113.7</ele>
        <time>2018-12-02T13:56:10Z</time>
      </trkpt>
      <trkpt lat="43.42831" lon="6.50546">
        <ele>112.8</ele>
        <time>2018-12-02T13:56:21Z</time>
      </trkpt>
      <trkpt lat="43.4284" lon="6.50551">
        <ele>112</ele>
        <time>2018-12-02T13:56:32Z</time>
      </trkpt>
      <trkpt lat="43.42848" lon="6.50556">
        <ele>111.2</ele>
        <time>2018-12-02T13:56:42Z</time>
      </trkpt>
      <trkpt lat="43.42857" lon="6.50559">
        <ele>110.2</ele>
        <time>2018-12-02T13:56:51Z</time>
      </trkpt>
      <trkpt lat="43.42867" lon="6.5056">
        <ele>109.3</ele>
        <time>2018-12-02T13:56:59Z</time>
      </trkpt>
      <trkpt lat="43.42874" lon="6.50568">
        <ele>107.3</ele>
        <time>2018-12-02T13:57:22Z</time>
      </trkpt>
      <trkpt lat="43.42883" lon="6.50569">
        <ele>107</ele>
        <time>2018-12-02T13:57:26Z</time>
      </trkpt>
      <trkpt lat="43.42895" lon="6.5057">
        <ele>106.4</ele>
        <time>2018-12-02T13:57:32Z</time>
      </trkpt>
      <trkpt lat="43.42905" lon="6.50569">
        <ele>105.7</ele>
        <time>2018-12-02T13:57:42Z</time>
      </trkpt>
      <trkpt lat="43.42914" lon="6.50563">
        <ele>104.9</ele>
        <time>2018-12-02T13:57:52Z</time>
      </trkpt>
      <trkpt lat="43.42923" lon="6.50562">
        <ele>104.2</ele>
        <time>2018-12-02T13:58:01Z</time>
      </trkpt>
      <trkpt lat="43.42933" lon="6.50562">
        <ele>103.7</ele>
        <time>2018-12-02T13:58:07Z</time>
      </trkpt>
      <trkpt lat="43.42942" lon="6.50563">
        <ele>103.4</ele>
        <time>2018-12-02T13:58:12Z</time>
      </trkpt>
      <trkpt lat="43.4295" lon="6.50567">
        <ele>102.8</ele>
        <time>2018-12-02T13:58:21Z</time>
      </trkpt>
      <trkpt lat="43.42959" lon="6.50575">
        <ele>102.2</ele>
        <time>2018-12-02T13:58:31Z</time>
      </trkpt>
      <trkpt lat="43.42968" lon="6.50581">
        <ele>101</ele>
        <time>2018-12-02T13:58:42Z</time>
      </trkpt>
      <trkpt lat="43.42977" lon="6.50587">
        <ele>100.4</ele>
        <time>2018-12-02T13:58:49Z</time>
      </trkpt>
      <trkpt lat="43.42983" lon="6.50597">
        <ele>99.5</ele>
        <time>2018-12-02T13:59:01Z</time>
      </trkpt>
      <trkpt lat="43.42988" lon="6.50609">
        <ele>98.8</ele>
        <time>2018-12-02T13:59:10Z</time>
      </trkpt>
      <trkpt lat="43.42996" lon="6.50616">
        <ele>98.1</ele>
        <time>2018-12-02T13:59:18Z</time>
      </trkpt>
      <trkpt lat="43.43002" lon="6.50627">
        <ele>97</ele>
        <time>2018-12-02T13:59:27Z</time>
      </trkpt>
      <trkpt lat="43.43005" lon="6.50639">
        <ele>96.2</ele>
        <time>2018-12-02T13:59:35Z</time>
      </trkpt>
      <trkpt lat="43.43005" lon="6.50652">
        <ele>95.4</ele>
        <time>2018-12-02T13:59:43Z</time>
      </trkpt>
      <trkpt lat="43.43009" lon="6.50664">
        <ele>94.5</ele>
        <time>2018-12-02T13:59:51Z</time>
      </trkpt>
      <trkpt lat="43.43014" lon="6.50676">
        <ele>93.7</ele>
        <time>2018-12-02T14:00:00Z</time>
      </trkpt>
      <trkpt lat="43.43011" lon="6.50689">
        <ele>93.2</ele>
        <time>2018-12-02T14:00:08Z</time>
      </trkpt>
      <trkpt lat="43.43016" lon="6.50701">
        <ele>92.5</ele>
        <time>2018-12-02T14:00:17Z</time>
      </trkpt>
      <trkpt lat="43.43021" lon="6.50713">
        <ele>91.5</ele>
        <time>2018-12-02T14:00:27Z</time>
      </trkpt>
      <trkpt lat="43.43026" lon="6.50724">
        <ele>90.3</ele>
        <time>2018-12-02T14:00:37Z</time>
      </trkpt>
      <trkpt lat="43.43033" lon="6.50732">
        <ele>89.4</ele>
        <time>2018-12-02T14:00:45Z</time>
      </trkpt>
      <trkpt lat="43.43038" lon="6.50742">
        <ele>88.4</ele>
        <time>2018-12-02T14:00:54Z</time>
      </trkpt>
      <trkpt lat="43.43045" lon="6.50752">
        <ele>87.1</ele>
        <time>2018-12-02T14:01:04Z</time>
      </trkpt>
      <trkpt lat="43.43048" lon="6.50764">
        <ele>85.6</ele>
        <time>2018-12-02T14:01:14Z</time>
      </trkpt>
      <trkpt lat="43.43055" lon="6.50772">
        <ele>84.7</ele>
        <time>2018-12-02T14:01:21Z</time>
      </trkpt>
      <trkpt lat="43.43061" lon="6.50782">
        <ele>83.6</ele>
        <time>2018-12-02T14:01:29Z</time>
      </trkpt>
      <trkpt lat="43.43064" lon="6.50795">
        <ele>82.4</ele>
        <time>2018-12-02T14:01:38Z</time>
      </trkpt>
      <trkpt lat="43.43066" lon="6.50807">
        <ele>81.1</ele>
        <time>2018-12-02T14:01:48Z</time>
      </trkpt>
      <trkpt lat="43.43069" lon="6.5082">
        <ele>80</ele>
        <time>2018-12-02T14:01:58Z</time>
      </trkpt>
      <trkpt lat="43.4307" lon="6.50833">
        <ele>79</ele>
        <time>2018-12-02T14:02:07Z</time>
      </trkpt>
      <trkpt lat="43.43068" lon="6.50845">
        <ele>78</ele>
        <time>2018-12-02T14:02:18Z</time>
      </trkpt>
      <trkpt lat="43.43059" lon="6.50844">
        <ele>77.4</ele>
        <time>2018-12-02T14:02:27Z</time>
      </trkpt>
      <trkpt lat="43.43049" lon="6.5084">
        <ele>76.9</ele>
        <time>2018-12-02T14:02:35Z</time>
      </trkpt>
      <trkpt lat="43.43041" lon="6.50833">
        <ele>76.3</ele>
        <time>2018-12-02T14:02:44Z</time>
      </trkpt>
      <trkpt lat="43.43033" lon="6.50827">
        <ele>75.9</ele>
        <time>2018-12-02T14:02:52Z</time>
      </trkpt>
      <trkpt lat="43.43025" lon="6.50819">
        <ele>75.4</ele>
        <time>2018-12-02T14:03:01Z</time>
      </trkpt>
      <trkpt lat="43.43018" lon="6.50811">
        <ele>74.9</ele>
        <time>2018-12-02T14:03:10Z</time>
      </trkpt>
      <trkpt lat="43.4301" lon="6.50804">
        <ele>74.3</ele>
        <time>2018-12-02T14:03:20Z</time>
      </trkpt>
      <trkpt lat="43.43" lon="6.508">
        <ele>73.9</ele>
        <time>2018-12-02T14:03:30Z</time>
      </trkpt>
      <trkpt lat="43.42991" lon="6.50797">
        <ele>73.6</ele>
        <time>2018-12-02T14:03:38Z</time>
      </trkpt>
      <trkpt lat="43.42983" lon="6.50792">
        <ele>73.2</ele>
        <time>2018-12-02T14:03:48Z</time>
      </trkpt>
      <trkpt lat="43.42973" lon="6.50786">
        <ele>72.4</ele>
        <time>2018-12-02T14:04:37Z</time>
      </trkpt>
      <trkpt lat="43.42963" lon="6.50787">
        <ele>72.3</ele>
        <time>2018-12-02T14:05:32Z</time>
      </trkpt>
      <trkpt lat="43.42954" lon="6.50783">
        <ele>72.3</ele>
        <time>2018-12-02T14:05:41Z</time>
      </trkpt>
      <trkpt lat="43.42946" lon="6.50779">
        <ele>72.1</ele>
        <time>2018-12-02T14:05:51Z</time>
      </trkpt>
      <trkpt lat="43.42937" lon="6.50773">
        <ele>71.8</ele>
        <time>2018-12-02T14:06:01Z</time>
      </trkpt>
      <trkpt lat="43.42928" lon="6.50768">
        <ele>71.3</ele>
        <time>2018-12-02T14:06:12Z</time>
      </trkpt>
      <trkpt lat="43.42918" lon="6.50767">
        <ele>70.9</ele>
        <time>2018-12-02T14:06:22Z</time>
      </trkpt>
      <trkpt lat="43.42908" lon="6.50769">
        <ele>70.7</ele>
        <time>2018-12-02T14:06:31Z</time>
      </trkpt>
      <trkpt lat="43.42899" lon="6.5077">
        <ele>70.1</ele>
        <time>2018-12-02T14:06:41Z</time>
      </trkpt>
      <trkpt lat="43.42889" lon="6.50768">
        <ele>68.8</ele>
        <time>2018-12-02T14:06:55Z</time>
      </trkpt>
      <trkpt lat="43.4288" lon="6.50764">
        <ele>68.3</ele>
        <time>2018-12-02T14:07:05Z</time>
      </trkpt>
      <trkpt lat="43.42871" lon="6.50768">
        <ele>67.6</ele>
        <time>2018-12-02T14:07:15Z</time>
      </trkpt>
      <trkpt lat="43.42862" lon="6.50773">
        <ele>67.3</ele>
        <time>2018-12-02T14:07:21Z</time>
      </trkpt>
      <trkpt lat="43.42852" lon="6.5077">
        <ele>67.1</ele>
        <time>2018-12-02T14:07:31Z</time>
      </trkpt>
      <trkpt lat="43.42843" lon="6.50766">
        <ele>66.9</ele>
        <time>2018-12-02T14:07:38Z</time>
      </trkpt>
      <trkpt lat="43.42835" lon="6.50758">
        <ele>66.5</ele>
        <time>2018-12-02T14:07:47Z</time>
      </trkpt>
      <trkpt lat="43.42827" lon="6.50754">
        <ele>66.2</ele>
        <time>2018-12-02T14:07:58Z</time>
      </trkpt>
      <trkpt lat="43.42819" lon="6.50746">
        <ele>65.9</ele>
        <time>2018-12-02T14:08:10Z</time>
      </trkpt>
      <trkpt lat="43.42811" lon="6.50741">
        <ele>65.9</ele>
        <time>2018-12-02T14:08:17Z</time>
      </trkpt>
      <trkpt lat="43.42801" lon="6.50739">
        <ele>65.8</ele>
        <time>2018-12-02T14:08:25Z</time>
      </trkpt>
      <trkpt lat="43.42792" lon="6.50742">
        <ele>65.8</ele>
        <time>2018-12-02T14:08:32Z</time>
      </trkpt>
      <trkpt lat="43.42782" lon="6.50745">
        <ele>65.6</ele>
        <time>2018-12-02T14:08:49Z</time>
      </trkpt>
      <trkpt lat="43.42773" lon="6.50744">
        <ele>65.1</ele>
        <time>2018-12-02T14:08:56Z</time>
      </trkpt>
      <trkpt lat="43.42763" lon="6.50744">
        <ele>64.5</ele>
        <time>2018-12-02T14:09:04Z</time>
      </trkpt>
      <trkpt lat="43.42758" lon="6.50755">
        <ele>63.2</ele>
        <time>2018-12-02T14:09:25Z</time>
      </trkpt>
      <trkpt lat="43.42765" lon="6.50763">
        <ele>62.2</ele>
        <time>2018-12-02T14:09:59Z</time>
      </trkpt>
      <trkpt lat="43.42775" lon="6.50769">
        <ele>62.1</ele>
        <time>2018-12-02T14:10:11Z</time>
      </trkpt>
      <trkpt lat="43.42782" lon="6.50775">
        <ele>62.2</ele>
        <time>2018-12-02T14:10:27Z</time>
      </trkpt>
      <trkpt lat="43.42788" lon="6.50785">
        <ele>62.4</ele>
        <time>2018-12-02T14:11:03Z</time>
      </trkpt>
      <trkpt lat="43.42798" lon="6.50792">
        <ele>62.3</ele>
        <time>2018-12-02T14:11:10Z</time>
      </trkpt>
      <trkpt lat="43.42806" lon="6.50798">
        <ele>62</ele>
        <time>2018-12-02T14:11:18Z</time>
      </trkpt>
      <trkpt lat="43.42811" lon="6.5081">
        <ele>61.5</ele>
        <time>2018-12-02T14:11:28Z</time>
      </trkpt>
      <trkpt lat="43.42819" lon="6.50819">
        <ele>61.3</ele>
        <time>2018-12-02T14:11:35Z</time>
      </trkpt>
      <trkpt lat="43.42826" lon="6.50826">
        <ele>61.1</ele>
        <time>2018-12-02T14:11:42Z</time>
      </trkpt>
      <trkpt lat="43.42835" lon="6.50832">
        <ele>61</ele>
        <time>2018-12-02T14:11:49Z</time>
      </trkpt>
      <trkpt lat="43.42843" lon="6.50839">
        <ele>60.9</ele>
        <time>2018-12-02T14:11:56Z</time>
      </trkpt>
      <trkpt lat="43.42847" lon="6.50851">
        <ele>60.8</ele>
        <time>2018-12-02T14:12:06Z</time>
      </trkpt>
      <trkpt lat="43.42853" lon="6.50861">
        <ele>60.3</ele>
        <time>2018-12-02T14:12:16Z</time>
      </trkpt>
      <trkpt lat="43.42862" lon="6.50859">
        <ele>59.8</ele>
        <time>2018-12-02T14:12:26Z</time>
      </trkpt>
      <trkpt lat="43.42872" lon="6.50856">
        <ele>58.9</ele>
        <time>2018-12-02T14:12:37Z</time>
      </trkpt>
      <trkpt lat="43.42882" lon="6.50856">
        <ele>58.4</ele>
        <time>2018-12-02T14:12:44Z</time>
      </trkpt>
      <trkpt lat="43.42891" lon="6.50856">
        <ele>57.6</ele>
        <time>2018-12-02T14:12:53Z</time>
      </trkpt>
      <trkpt lat="43.42901" lon="6.50858">
        <ele>56.5</ele>
        <time>2018-12-02T14:13:03Z</time>
      </trkpt>
      <trkpt lat="43.4291" lon="6.50861">
        <ele>56.1</ele>
        <time>2018-12-02T14:13:06Z</time>
      </trkpt>
      <trkpt lat="43.42918" lon="6.50867">
        <ele>55.1</ele>
        <time>2018-12-02T14:13:14Z</time>
      </trkpt>
      <trkpt lat="43.42926" lon="6.50875">
        <ele>54.2</ele>
        <time>2018-12-02T14:13:22Z</time>
      </trkpt>
      <trkpt lat="43.42934" lon="6.50883">
        <ele>53.3</ele>
        <time>2018-12-02T14:13:31Z</time>
      </trkpt>
      <trkpt lat="43.42942" lon="6.50888">
        <ele>52.7</ele>
        <time>2018-12-02T14:13:40Z</time>
      </trkpt>
      <trkpt lat="43.4295" lon="6.50896">
        <ele>52.1</ele>
        <time>2018-12-02T14:13:46Z</time>
      </trkpt>
      <trkpt lat="43.42953" lon="6.50909">
        <ele>51.1</ele>
        <time>2018-12-02T14:13:55Z</time>
      </trkpt>
      <trkpt lat="43.42958" lon="6.5092">
        <ele>50.2</ele>
        <time>2018-12-02T14:14:04Z</time>
      </trkpt>
      <trkpt lat="43.42963" lon="6.50931">
        <ele>49.4</ele>
        <time>2018-12-02T14:14:12Z</time>
      </trkpt>
      <trkpt lat="43.42971" lon="6.50937">
        <ele>48.7</ele>
        <time>2018-12-02T14:14:19Z</time>
      </trkpt>
      <trkpt lat="43.42979" lon="6.50944">
        <ele>48.4</ele>
        <time>2018-12-02T14:14:23Z</time>
      </trkpt>
      <trkpt lat="43.42984" lon="6.50956">
        <ele>47.8</ele>
        <time>2018-12-02T14:14:31Z</time>
      </trkpt>
      <trkpt lat="43.42987" lon="6.50969">
        <ele>47.2</ele>
        <time>2018-12-02T14:14:38Z</time>
      </trkpt>
      <trkpt lat="43.42989" lon="6.50981">
        <ele>46.3</ele>
        <time>2018-12-02T14:14:48Z</time>
      </trkpt>
      <trkpt lat="43.42991" lon="6.50995">
        <ele>45.5</ele>
        <time>2018-12-02T14:14:59Z</time>
      </trkpt>
      <trkpt lat="43.42996" lon="6.51006">
        <ele>44.9</ele>
        <time>2018-12-02T14:15:07Z</time>
      </trkpt>
      <trkpt lat="43.42998" lon="6.5102">
        <ele>44</ele>
        <time>2018-12-02T14:15:15Z</time>
      </trkpt>
      <trkpt lat="43.43001" lon="6.51031">
        <ele>43.2</ele>
        <time>2018-12-02T14:15:23Z</time>
      </trkpt>
      <trkpt lat="43.43003" lon="6.51044">
        <ele>42.2</ele>
        <time>2018-12-02T14:15:32Z</time>
      </trkpt>
      <trkpt lat="43.43004" lon="6.51058">
        <ele>41.2</ele>
        <time>2018-12-02T14:15:42Z</time>
      </trkpt>
      <trkpt lat="43.43004" lon="6.51072">
        <ele>40.3</ele>
        <time>2018-12-02T14:15:52Z</time>
      </trkpt>
      <trkpt lat="43.43004" lon="6.51085">
        <ele>39.6</ele>
        <time>2018-12-02T14:16:01Z</time>
      </trkpt>
      <trkpt lat="43.43008" lon="6.51098">
        <ele>38.7</ele>
        <time>2018-12-02T14:16:11Z</time>
      </trkpt>
      <trkpt lat="43.43015" lon="6.511">
        <ele>34.8</ele>
        <time>2018-12-02T14:17:21Z</time>
      </trkpt>
      <trkpt lat="43.43024" lon="6.51095">
        <ele>34.5</ele>
        <time>2018-12-02T14:17:35Z</time>
      </trkpt>
      <trkpt lat="43.43034" lon="6.51097">
        <ele>34.5</ele>
        <time>2018-12-02T14:17:44Z</time>
      </trkpt>
      <trkpt lat="43.43039" lon="6.51109">
        <ele>34.5</ele>
        <time>2018-12-02T14:17:51Z</time>
      </trkpt>
      <trkpt lat="43.43039" lon="6.51121">
        <ele>34.5</ele>
        <time>2018-12-02T14:18:00Z</time>
      </trkpt>
      <trkpt lat="43.43048" lon="6.51129">
        <ele>34.5</ele>
        <time>2018-12-02T14:18:09Z</time>
      </trkpt>
      <trkpt lat="43.43057" lon="6.51133">
        <ele>34.6</ele>
        <time>2018-12-02T14:18:17Z</time>
      </trkpt>
      <trkpt lat="43.43067" lon="6.51135">
        <ele>34.6</ele>
        <time>2018-12-02T14:18:26Z</time>
      </trkpt>
      <trkpt lat="43.43077" lon="6.51135">
        <ele>34.7</ele>
        <time>2018-12-02T14:18:33Z</time>
      </trkpt>
      <trkpt lat="43.43086" lon="6.51134">
        <ele>34.7</ele>
        <time>2018-12-02T14:18:41Z</time>
      </trkpt>
      <trkpt lat="43.43096" lon="6.5113">
        <ele>34.8</ele>
        <time>2018-12-02T14:18:50Z</time>
      </trkpt>
      <trkpt lat="43.43106" lon="6.51127">
        <ele>34.9</ele>
        <time>2018-12-02T14:18:56Z</time>
      </trkpt>
      <trkpt lat="43.43114" lon="6.51122">
        <ele>35.1</ele>
        <time>2018-12-02T14:19:05Z</time>
      </trkpt>
      <trkpt lat="43.43124" lon="6.51118">
        <ele>35.2</ele>
        <time>2018-12-02T14:19:14Z</time>
      </trkpt>
      <trkpt lat="43.43133" lon="6.51113">
        <ele>34.9</ele>
        <time>2018-12-02T14:19:23Z</time>
      </trkpt>
      <trkpt lat="43.43142" lon="6.51109">
        <ele>34.5</ele>
        <time>2018-12-02T14:19:30Z</time>
      </trkpt>
      <trkpt lat="43.4315" lon="6.51102">
        <ele>34</ele>
        <time>2018-12-02T14:19:38Z</time>
      </trkpt>
      <trkpt lat="43.43155" lon="6.51091">
        <ele>33.1</ele>
        <time>2018-12-02T14:19:48Z</time>
      </trkpt>
      <trkpt lat="43.43159" lon="6.51077">
        <ele>31.6</ele>
        <time>2018-12-02T14:20:10Z</time>
      </trkpt>
      <trkpt lat="43.43164" lon="6.51066">
        <ele>31</ele>
        <time>2018-12-02T14:20:18Z</time>
      </trkpt>
      <trkpt lat="43.43167" lon="6.51054">
        <ele>30.1</ele>
        <time>2018-12-02T14:20:27Z</time>
      </trkpt>
      <trkpt lat="43.43172" lon="6.51044">
        <ele>29.3</ele>
        <time>2018-12-02T14:20:36Z</time>
      </trkpt>
      <trkpt lat="43.43182" lon="6.51038">
        <ele>28.9</ele>
        <time>2018-12-02T14:20:41Z</time>
      </trkpt>
      <trkpt lat="43.43191" lon="6.51038">
        <ele>28.1</ele>
        <time>2018-12-02T14:20:52Z</time>
      </trkpt>
      <trkpt lat="43.432" lon="6.51041">
        <ele>27.4</ele>
        <time>2018-12-02T14:21:26Z</time>
      </trkpt>
      <trkpt lat="43.4321" lon="6.51042">
        <ele>27.4</ele>
        <time>2018-12-02T14:21:41Z</time>
      </trkpt>
      <trkpt lat="43.43219" lon="6.51042">
        <ele>27.5</ele>
        <time>2018-12-02T14:22:08Z</time>
      </trkpt>
      <trkpt lat="43.43229" lon="6.51044">
        <ele>27.5</ele>
        <time>2018-12-02T14:22:15Z</time>
      </trkpt>
      <trkpt lat="43.43238" lon="6.51046">
        <ele>27.5</ele>
        <time>2018-12-02T14:22:55Z</time>
      </trkpt>
      <trkpt lat="43.43247" lon="6.51045">
        <ele>27.8</ele>
        <time>2018-12-02T14:23:45Z</time>
      </trkpt>
      <trkpt lat="43.43257" lon="6.51045">
        <ele>27.9</ele>
        <time>2018-12-02T14:23:56Z</time>
      </trkpt>
      <trkpt lat="43.43266" lon="6.51043">
        <ele>28</ele>
        <time>2018-12-02T14:24:06Z</time>
      </trkpt>
      <trkpt lat="43.43275" lon="6.51039">
        <ele>28</ele>
        <time>2018-12-02T14:24:14Z</time>
      </trkpt>
      <trkpt lat="43.43284" lon="6.51036">
        <ele>28.1</ele>
        <time>2018-12-02T14:24:22Z</time>
      </trkpt>
      <trkpt lat="43.43293" lon="6.51033">
        <ele>28.2</ele>
        <time>2018-12-02T14:24:31Z</time>
      </trkpt>
      <trkpt lat="43.43302" lon="6.5103">
        <ele>28.4</ele>
        <time>2018-12-02T14:24:40Z</time>
      </trkpt>
      <trkpt lat="43.43311" lon="6.51027">
        <ele>28.6</ele>
        <time>2018-12-02T14:24:50Z</time>
      </trkpt>
      <trkpt lat="43.4332" lon="6.51023">
        <ele>28.8</ele>
        <time>2018-12-02T14:25:00Z</time>
      </trkpt>
      <trkpt lat="43.43329" lon="6.51018">
        <ele>29</ele>
        <time>2018-12-02T14:25:08Z</time>
      </trkpt>
      <trkpt lat="43.43339" lon="6.51015">
        <ele>29.2</ele>
        <time>2018-12-02T14:25:17Z</time>
      </trkpt>
      <trkpt lat="43.43348" lon="6.51015">
        <ele>29.3</ele>
        <time>2018-12-02T14:25:24Z</time>
      </trkpt>
      <trkpt lat="43.43358" lon="6.51019">
        <ele>29.5</ele>
        <time>2018-12-02T14:25:34Z</time>
      </trkpt>
      <trkpt lat="43.43366" lon="6.51023">
        <ele>29.6</ele>
        <time>2018-12-02T14:25:42Z</time>
      </trkpt>
      <trkpt lat="43.43376" lon="6.51027">
        <ele>29.9</ele>
        <time>2018-12-02T14:25:51Z</time>
      </trkpt>
      <trkpt lat="43.43386" lon="6.51026">
        <ele>30.2</ele>
        <time>2018-12-02T14:25:59Z</time>
      </trkpt>
      <trkpt lat="43.43396" lon="6.51027">
        <ele>30.7</ele>
        <time>2018-12-02T14:26:09Z</time>
      </trkpt>
      <trkpt lat="43.43404" lon="6.51033">
        <ele>31.1</ele>
        <time>2018-12-02T14:26:19Z</time>
      </trkpt>
      <trkpt lat="43.43412" lon="6.5104">
        <ele>31.4</ele>
        <time>2018-12-02T14:26:30Z</time>
      </trkpt>
      <trkpt lat="43.43421" lon="6.51043">
        <ele>31.5</ele>
        <time>2018-12-02T14:26:38Z</time>
      </trkpt>
      <trkpt lat="43.43428" lon="6.51052">
        <ele>31.9</ele>
        <time>2018-12-02T14:26:53Z</time>
      </trkpt>
      <trkpt lat="43.43437" lon="6.51055">
        <ele>34.1</ele>
        <time>2018-12-02T14:29:58Z</time>
      </trkpt>
      <trkpt lat="43.43447" lon="6.51055">
        <ele>34.4</ele>
        <time>2018-12-02T14:30:32Z</time>
      </trkpt>
      <trkpt lat="43.43456" lon="6.51058">
        <ele>34.5</ele>
        <time>2018-12-02T14:30:44Z</time>
      </trkpt>
      <trkpt lat="43.43465" lon="6.51063">
        <ele>34.6</ele>
        <time>2018-12-02T14:30:55Z</time>
      </trkpt>
      <trkpt lat="43.43474" lon="6.5107">
        <ele>34.8</ele>
        <time>2018-12-02T14:31:07Z</time>
      </trkpt>
      <trkpt lat="43.43482" lon="6.51075">
        <ele>35</ele>
        <time>2018-12-02T14:31:15Z</time>
      </trkpt>
      <trkpt lat="43.43492" lon="6.51076">
        <ele>35.2</ele>
        <time>2018-12-02T14:31:24Z</time>
      </trkpt>
      <trkpt lat="43.43501" lon="6.51075">
        <ele>35</ele>
        <time>2018-12-02T14:31:31Z</time>
      </trkpt>
      <trkpt lat="43.4351" lon="6.51075">
        <ele>34.8</ele>
        <time>2018-12-02T14:31:39Z</time>
      </trkpt>
      <trkpt lat="43.43519" lon="6.51074">
        <ele>34.6</ele>
        <time>2018-12-02T14:31:46Z</time>
      </trkpt>
      <trkpt lat="43.43528" lon="6.51074">
        <ele>34.3</ele>
        <time>2018-12-02T14:31:52Z</time>
      </trkpt>
      <trkpt lat="43.43537" lon="6.51077">
        <ele>33.7</ele>
        <time>2018-12-02T14:32:03Z</time>
      </trkpt>
      <trkpt lat="43.43545" lon="6.51084">
        <ele>32.3</ele>
        <time>2018-12-02T14:33:01Z</time>
      </trkpt>
      <trkpt lat="43.4355" lon="6.51084">
        <ele>32.4</ele>
        <time>2018-12-02T14:33:24Z</time>
      </trkpt>
    </trkseg>
  </trk>
</gpx>